<?xml version="1.0" encoding="UTF-8" standalone="no" ?>
<gpx xmlns="http://www.topografix.com/GPX/1/1" xmlns:xsi="http://www.w3.org/2001/XMLSchema-instance" xsi:schemaLocation="http://www.topografix.com/GPX/1/1 http://www.topografix.com/GPX/1/1/gpx.xsd" version="1.1" creator="VisuGPX - https://www.visugpx.com">
  <metadata>
    <name>Revel-La tronche-Montbonnot-Revel</name>
    <desc><![CDATA[File with points/tracks from Locus Map/3.36.2]]></desc>
  </metadata>
  <trk>
    <name><![CDATA[2019-04-06 12:31:20]]></name>
    <trkseg>
      <trkpt lat="45.18388" lon="5.87389">
        <ele>695.63</ele>
        <time>2019-04-06T10:31:22.000Z</time>
      </trkpt>
      <trkpt lat="45.18395" lon="5.87378">
        <ele>695.82</ele>
        <time>2019-04-06T10:31:27.000Z</time>
      </trkpt>
      <trkpt lat="45.18396" lon="5.87356">
        <ele>690.78</ele>
        <time>2019-04-06T10:31:32.000Z</time>
      </trkpt>
      <trkpt lat="45.18391" lon="5.87317">
        <ele>685.56</ele>
        <time>2019-04-06T10:31:37.000Z</time>
      </trkpt>
      <trkpt lat="45.18389" lon="5.87275">
        <ele>679.82</ele>
        <time>2019-04-06T10:31:42.000Z</time>
      </trkpt>
      <trkpt lat="45.18405" lon="5.87234">
        <ele>674.54</ele>
        <time>2019-04-06T10:31:47.000Z</time>
      </trkpt>
      <trkpt lat="45.18427" lon="5.87203">
        <ele>672.43</ele>
        <time>2019-04-06T10:31:52.000Z</time>
      </trkpt>
      <trkpt lat="45.18439" lon="5.87187">
        <ele>670.25</ele>
        <time>2019-04-06T10:31:57.000Z</time>
      </trkpt>
      <trkpt lat="45.18429" lon="5.87171">
        <ele>668.78</ele>
        <time>2019-04-06T10:32:02.000Z</time>
      </trkpt>
      <trkpt lat="45.18409" lon="5.8713">
        <ele>666.16</ele>
        <time>2019-04-06T10:32:07.000Z</time>
      </trkpt>
      <trkpt lat="45.18454" lon="5.87111">
        <ele>661.74</ele>
        <time>2019-04-06T10:32:12.000Z</time>
      </trkpt>
      <trkpt lat="45.18489" lon="5.87092">
        <ele>658.52</ele>
        <time>2019-04-06T10:32:17.000Z</time>
      </trkpt>
      <trkpt lat="45.18522" lon="5.87059">
        <ele>654.55</ele>
        <time>2019-04-06T10:32:22.000Z</time>
      </trkpt>
      <trkpt lat="45.18572" lon="5.87048">
        <ele>651.49</ele>
        <time>2019-04-06T10:32:27.000Z</time>
      </trkpt>
      <trkpt lat="45.18597" lon="5.87017">
        <ele>650.12</ele>
        <time>2019-04-06T10:32:32.000Z</time>
      </trkpt>
      <trkpt lat="45.18595" lon="5.86943">
        <ele>648.83</ele>
        <time>2019-04-06T10:32:37.000Z</time>
      </trkpt>
      <trkpt lat="45.18578" lon="5.86882">
        <ele>648.24</ele>
        <time>2019-04-06T10:32:42.000Z</time>
      </trkpt>
      <trkpt lat="45.18564" lon="5.86851">
        <ele>647.83</ele>
        <time>2019-04-06T10:32:47.000Z</time>
      </trkpt>
      <trkpt lat="45.18551" lon="5.86831">
        <ele>647.25</ele>
        <time>2019-04-06T10:32:52.000Z</time>
      </trkpt>
      <trkpt lat="45.18536" lon="5.86791">
        <ele>642.14</ele>
        <time>2019-04-06T10:32:57.000Z</time>
      </trkpt>
      <trkpt lat="45.18525" lon="5.86748">
        <ele>635.75</ele>
        <time>2019-04-06T10:33:02.000Z</time>
      </trkpt>
      <trkpt lat="45.185" lon="5.86694">
        <ele>637.03</ele>
        <time>2019-04-06T10:33:07.000Z</time>
      </trkpt>
      <trkpt lat="45.18477" lon="5.86653">
        <ele>631.19</ele>
        <time>2019-04-06T10:33:12.000Z</time>
      </trkpt>
      <trkpt lat="45.18444" lon="5.86621">
        <ele>630.77</ele>
        <time>2019-04-06T10:33:17.000Z</time>
      </trkpt>
      <trkpt lat="45.18415" lon="5.86593">
        <ele>629.88</ele>
        <time>2019-04-06T10:33:22.000Z</time>
      </trkpt>
      <trkpt lat="45.18379" lon="5.86603">
        <ele>624.28</ele>
        <time>2019-04-06T10:33:27.000Z</time>
      </trkpt>
      <trkpt lat="45.18343" lon="5.86652">
        <ele>620.26</ele>
        <time>2019-04-06T10:33:32.000Z</time>
      </trkpt>
      <trkpt lat="45.18304" lon="5.86704">
        <ele>614.36</ele>
        <time>2019-04-06T10:33:37.000Z</time>
      </trkpt>
      <trkpt lat="45.18285" lon="5.86776">
        <ele>609.31</ele>
        <time>2019-04-06T10:33:42.000Z</time>
      </trkpt>
      <trkpt lat="45.18271" lon="5.86854">
        <ele>606.38</ele>
        <time>2019-04-06T10:33:47.000Z</time>
      </trkpt>
      <trkpt lat="45.18249" lon="5.86937">
        <ele>597.98</ele>
        <time>2019-04-06T10:33:52.000Z</time>
      </trkpt>
      <trkpt lat="45.18228" lon="5.87017">
        <ele>596.36</ele>
        <time>2019-04-06T10:33:57.000Z</time>
      </trkpt>
      <trkpt lat="45.18208" lon="5.87094">
        <ele>592.77</ele>
        <time>2019-04-06T10:34:02.000Z</time>
      </trkpt>
      <trkpt lat="45.18159" lon="5.87123">
        <ele>588.1</ele>
        <time>2019-04-06T10:34:07.000Z</time>
      </trkpt>
      <trkpt lat="45.18101" lon="5.87173">
        <ele>583.53</ele>
        <time>2019-04-06T10:34:12.000Z</time>
      </trkpt>
      <trkpt lat="45.18075" lon="5.87229">
        <ele>575.8</ele>
        <time>2019-04-06T10:34:17.000Z</time>
      </trkpt>
      <trkpt lat="45.18052" lon="5.87219">
        <ele>574.87</ele>
        <time>2019-04-06T10:34:22.000Z</time>
      </trkpt>
      <trkpt lat="45.18048" lon="5.87196">
        <ele>573.22</ele>
        <time>2019-04-06T10:34:27.000Z</time>
      </trkpt>
      <trkpt lat="45.18045" lon="5.87173">
        <ele>571.27</ele>
        <time>2019-04-06T10:34:32.000Z</time>
      </trkpt>
      <trkpt lat="45.18043" lon="5.87147">
        <ele>571.79</ele>
        <time>2019-04-06T10:34:37.000Z</time>
      </trkpt>
      <trkpt lat="45.18039" lon="5.87124">
        <ele>569.83</ele>
        <time>2019-04-06T10:34:42.000Z</time>
      </trkpt>
      <trkpt lat="45.1804" lon="5.87098">
        <ele>566.82</ele>
        <time>2019-04-06T10:34:47.000Z</time>
      </trkpt>
      <trkpt lat="45.18042" lon="5.87074">
        <ele>565.36</ele>
        <time>2019-04-06T10:34:52.000Z</time>
      </trkpt>
      <trkpt lat="45.18046" lon="5.8705">
        <ele>564.06</ele>
        <time>2019-04-06T10:34:57.000Z</time>
      </trkpt>
      <trkpt lat="45.18047" lon="5.87025">
        <ele>563.94</ele>
        <time>2019-04-06T10:35:02.000Z</time>
      </trkpt>
      <trkpt lat="45.18047" lon="5.87">
        <ele>561.69</ele>
        <time>2019-04-06T10:35:07.000Z</time>
      </trkpt>
      <trkpt lat="45.18049" lon="5.86976">
        <ele>562.79</ele>
        <time>2019-04-06T10:35:12.000Z</time>
      </trkpt>
      <trkpt lat="45.1805" lon="5.86949">
        <ele>563.8</ele>
        <time>2019-04-06T10:35:17.000Z</time>
      </trkpt>
      <trkpt lat="45.18045" lon="5.86921">
        <ele>570.31</ele>
        <time>2019-04-06T10:35:22.000Z</time>
      </trkpt>
      <trkpt lat="45.18033" lon="5.86894">
        <ele>572.79</ele>
        <time>2019-04-06T10:35:27.000Z</time>
      </trkpt>
      <trkpt lat="45.18024" lon="5.86865">
        <ele>574.37</ele>
        <time>2019-04-06T10:35:32.000Z</time>
      </trkpt>
      <trkpt lat="45.18022" lon="5.86835">
        <ele>568.13</ele>
        <time>2019-04-06T10:35:37.000Z</time>
      </trkpt>
      <trkpt lat="45.18019" lon="5.86808">
        <ele>567.52</ele>
        <time>2019-04-06T10:35:42.000Z</time>
      </trkpt>
      <trkpt lat="45.18017" lon="5.86779">
        <ele>563.13</ele>
        <time>2019-04-06T10:35:47.000Z</time>
      </trkpt>
      <trkpt lat="45.18014" lon="5.8675">
        <ele>564.55</ele>
        <time>2019-04-06T10:35:52.000Z</time>
      </trkpt>
      <trkpt lat="45.18013" lon="5.86719">
        <ele>568.67</ele>
        <time>2019-04-06T10:35:57.000Z</time>
      </trkpt>
      <trkpt lat="45.18013" lon="5.86688">
        <ele>573.94</ele>
        <time>2019-04-06T10:36:02.000Z</time>
      </trkpt>
      <trkpt lat="45.18018" lon="5.86666">
        <ele>577.44</ele>
        <time>2019-04-06T10:36:07.000Z</time>
      </trkpt>
      <trkpt lat="45.1802" lon="5.86641">
        <ele>577.34</ele>
        <time>2019-04-06T10:36:12.000Z</time>
      </trkpt>
      <trkpt lat="45.18016" lon="5.86616">
        <ele>580.9</ele>
        <time>2019-04-06T10:36:17.000Z</time>
      </trkpt>
      <trkpt lat="45.18012" lon="5.86587">
        <ele>582.89</ele>
        <time>2019-04-06T10:36:22.000Z</time>
      </trkpt>
      <trkpt lat="45.18015" lon="5.86562">
        <ele>581.71</ele>
        <time>2019-04-06T10:36:27.000Z</time>
      </trkpt>
      <trkpt lat="45.18018" lon="5.86534">
        <ele>578.53</ele>
        <time>2019-04-06T10:36:32.000Z</time>
      </trkpt>
      <trkpt lat="45.18021" lon="5.86512">
        <ele>576.75</ele>
        <time>2019-04-06T10:36:37.000Z</time>
      </trkpt>
      <trkpt lat="45.18022" lon="5.86484">
        <ele>578.59</ele>
        <time>2019-04-06T10:36:42.000Z</time>
      </trkpt>
      <trkpt lat="45.18021" lon="5.86454">
        <ele>582.08</ele>
        <time>2019-04-06T10:36:47.000Z</time>
      </trkpt>
      <trkpt lat="45.18022" lon="5.86421">
        <ele>582.95</ele>
        <time>2019-04-06T10:36:52.000Z</time>
      </trkpt>
      <trkpt lat="45.18016" lon="5.86388">
        <ele>589.77</ele>
        <time>2019-04-06T10:36:57.000Z</time>
      </trkpt>
      <trkpt lat="45.17997" lon="5.86365">
        <ele>598.34</ele>
        <time>2019-04-06T10:37:02.000Z</time>
      </trkpt>
      <trkpt lat="45.17974" lon="5.86362">
        <ele>602.74</ele>
        <time>2019-04-06T10:37:07.000Z</time>
      </trkpt>
      <trkpt lat="45.17949" lon="5.86371">
        <ele>605.02</ele>
        <time>2019-04-06T10:37:12.000Z</time>
      </trkpt>
      <trkpt lat="45.17928" lon="5.8637">
        <ele>605.2</ele>
        <time>2019-04-06T10:37:17.000Z</time>
      </trkpt>
      <trkpt lat="45.17905" lon="5.86366">
        <ele>605.23</ele>
        <time>2019-04-06T10:37:22.000Z</time>
      </trkpt>
      <trkpt lat="45.1788" lon="5.86368">
        <ele>609.1</ele>
        <time>2019-04-06T10:37:27.000Z</time>
      </trkpt>
      <trkpt lat="45.17855" lon="5.86376">
        <ele>611.85</ele>
        <time>2019-04-06T10:37:32.000Z</time>
      </trkpt>
      <trkpt lat="45.17828" lon="5.8638">
        <ele>612.45</ele>
        <time>2019-04-06T10:37:37.000Z</time>
      </trkpt>
      <trkpt lat="45.17798" lon="5.86367">
        <ele>612.2</ele>
        <time>2019-04-06T10:37:42.000Z</time>
      </trkpt>
      <trkpt lat="45.1777" lon="5.86342">
        <ele>613.55</ele>
        <time>2019-04-06T10:37:47.000Z</time>
      </trkpt>
      <trkpt lat="45.17734" lon="5.86322">
        <ele>610.45</ele>
        <time>2019-04-06T10:37:52.000Z</time>
      </trkpt>
      <trkpt lat="45.17706" lon="5.86275">
        <ele>611.91</ele>
        <time>2019-04-06T10:37:57.000Z</time>
      </trkpt>
      <trkpt lat="45.17695" lon="5.86235">
        <ele>606.38</ele>
        <time>2019-04-06T10:38:02.000Z</time>
      </trkpt>
      <trkpt lat="45.17681" lon="5.86207">
        <ele>606.36</ele>
        <time>2019-04-06T10:38:07.000Z</time>
      </trkpt>
      <trkpt lat="45.17666" lon="5.86179">
        <ele>606.33</ele>
        <time>2019-04-06T10:38:12.000Z</time>
      </trkpt>
      <trkpt lat="45.17653" lon="5.86153">
        <ele>604.85</ele>
        <time>2019-04-06T10:38:17.000Z</time>
      </trkpt>
      <trkpt lat="45.17639" lon="5.86127">
        <ele>602.74</ele>
        <time>2019-04-06T10:38:22.000Z</time>
      </trkpt>
      <trkpt lat="45.17636" lon="5.86096">
        <ele>602.02</ele>
        <time>2019-04-06T10:38:27.000Z</time>
      </trkpt>
      <trkpt lat="45.17635" lon="5.86062">
        <ele>604.73</ele>
        <time>2019-04-06T10:38:32.000Z</time>
      </trkpt>
      <trkpt lat="45.17624" lon="5.86028">
        <ele>605.65</ele>
        <time>2019-04-06T10:38:37.000Z</time>
      </trkpt>
      <trkpt lat="45.17603" lon="5.85997">
        <ele>603.32</ele>
        <time>2019-04-06T10:38:42.000Z</time>
      </trkpt>
      <trkpt lat="45.17575" lon="5.85967">
        <ele>602.86</ele>
        <time>2019-04-06T10:38:47.000Z</time>
      </trkpt>
      <trkpt lat="45.17546" lon="5.85927">
        <ele>605.6</ele>
        <time>2019-04-06T10:38:52.000Z</time>
      </trkpt>
      <trkpt lat="45.17531" lon="5.8589">
        <ele>607.33</ele>
        <time>2019-04-06T10:38:57.000Z</time>
      </trkpt>
      <trkpt lat="45.17519" lon="5.8587">
        <ele>608.29</ele>
        <time>2019-04-06T10:39:02.000Z</time>
      </trkpt>
      <trkpt lat="45.17511" lon="5.85842">
        <ele>607.29</ele>
        <time>2019-04-06T10:39:07.000Z</time>
      </trkpt>
      <trkpt lat="45.17502" lon="5.85819">
        <ele>608.4</ele>
        <time>2019-04-06T10:39:12.000Z</time>
      </trkpt>
      <trkpt lat="45.17496" lon="5.85793">
        <ele>611.23</ele>
        <time>2019-04-06T10:39:17.000Z</time>
      </trkpt>
      <trkpt lat="45.17482" lon="5.85768">
        <ele>613.16</ele>
        <time>2019-04-06T10:39:22.000Z</time>
      </trkpt>
      <trkpt lat="45.17466" lon="5.85728">
        <ele>613.18</ele>
        <time>2019-04-06T10:39:27.000Z</time>
      </trkpt>
      <trkpt lat="45.17453" lon="5.85678">
        <ele>610.14</ele>
        <time>2019-04-06T10:39:32.000Z</time>
      </trkpt>
      <trkpt lat="45.17446" lon="5.85622">
        <ele>609.14</ele>
        <time>2019-04-06T10:39:37.000Z</time>
      </trkpt>
      <trkpt lat="45.17463" lon="5.85571">
        <ele>608.13</ele>
        <time>2019-04-06T10:39:42.000Z</time>
      </trkpt>
      <trkpt lat="45.17492" lon="5.85554">
        <ele>605.95</ele>
        <time>2019-04-06T10:39:47.000Z</time>
      </trkpt>
      <trkpt lat="45.17517" lon="5.85548">
        <ele>604.58</ele>
        <time>2019-04-06T10:39:52.000Z</time>
      </trkpt>
      <trkpt lat="45.17537" lon="5.85547">
        <ele>608.17</ele>
        <time>2019-04-06T10:39:57.000Z</time>
      </trkpt>
      <trkpt lat="45.17563" lon="5.85541">
        <ele>608.92</ele>
        <time>2019-04-06T10:40:02.000Z</time>
      </trkpt>
      <trkpt lat="45.17585" lon="5.85527">
        <ele>609.92</ele>
        <time>2019-04-06T10:40:07.000Z</time>
      </trkpt>
      <trkpt lat="45.17602" lon="5.855">
        <ele>608.26</ele>
        <time>2019-04-06T10:40:12.000Z</time>
      </trkpt>
      <trkpt lat="45.1761" lon="5.85455">
        <ele>611.11</ele>
        <time>2019-04-06T10:40:17.000Z</time>
      </trkpt>
      <trkpt lat="45.17613" lon="5.85418">
        <ele>610.32</ele>
        <time>2019-04-06T10:40:22.000Z</time>
      </trkpt>
      <trkpt lat="45.17612" lon="5.85376">
        <ele>610.93</ele>
        <time>2019-04-06T10:40:27.000Z</time>
      </trkpt>
      <trkpt lat="45.17622" lon="5.85344">
        <ele>611.26</ele>
        <time>2019-04-06T10:40:32.000Z</time>
      </trkpt>
      <trkpt lat="45.17652" lon="5.85356">
        <ele>610.13</ele>
        <time>2019-04-06T10:40:37.000Z</time>
      </trkpt>
      <trkpt lat="45.17677" lon="5.85357">
        <ele>609.31</ele>
        <time>2019-04-06T10:40:42.000Z</time>
      </trkpt>
      <trkpt lat="45.17706" lon="5.8535">
        <ele>610.92</ele>
        <time>2019-04-06T10:40:47.000Z</time>
      </trkpt>
      <trkpt lat="45.17732" lon="5.85357">
        <ele>612.28</ele>
        <time>2019-04-06T10:40:52.000Z</time>
      </trkpt>
      <trkpt lat="45.17758" lon="5.85363">
        <ele>616.78</ele>
        <time>2019-04-06T10:40:57.000Z</time>
      </trkpt>
      <trkpt lat="45.17784" lon="5.85382">
        <ele>615.5</ele>
        <time>2019-04-06T10:41:02.000Z</time>
      </trkpt>
      <trkpt lat="45.17814" lon="5.85409">
        <ele>615.28</ele>
        <time>2019-04-06T10:41:07.000Z</time>
      </trkpt>
      <trkpt lat="45.17852" lon="5.85435">
        <ele>610.23</ele>
        <time>2019-04-06T10:41:12.000Z</time>
      </trkpt>
      <trkpt lat="45.17875" lon="5.85441">
        <ele>608.15</ele>
        <time>2019-04-06T10:41:17.000Z</time>
      </trkpt>
      <trkpt lat="45.17915" lon="5.85448">
        <ele>606.6</ele>
        <time>2019-04-06T10:41:22.000Z</time>
      </trkpt>
      <trkpt lat="45.17942" lon="5.85456">
        <ele>607.34</ele>
        <time>2019-04-06T10:41:27.000Z</time>
      </trkpt>
      <trkpt lat="45.17964" lon="5.85456">
        <ele>604.16</ele>
        <time>2019-04-06T10:41:32.000Z</time>
      </trkpt>
      <trkpt lat="45.17984" lon="5.85452">
        <ele>603.95</ele>
        <time>2019-04-06T10:41:37.000Z</time>
      </trkpt>
      <trkpt lat="45.18001" lon="5.85443">
        <ele>604.76</ele>
        <time>2019-04-06T10:41:42.000Z</time>
      </trkpt>
      <trkpt lat="45.18026" lon="5.85424">
        <ele>606.27</ele>
        <time>2019-04-06T10:41:47.000Z</time>
      </trkpt>
      <trkpt lat="45.18044" lon="5.85404">
        <ele>610.56</ele>
        <time>2019-04-06T10:41:52.000Z</time>
      </trkpt>
      <trkpt lat="45.18057" lon="5.85374">
        <ele>611.97</ele>
        <time>2019-04-06T10:41:57.000Z</time>
      </trkpt>
      <trkpt lat="45.18066" lon="5.85337">
        <ele>610.92</ele>
        <time>2019-04-06T10:42:02.000Z</time>
      </trkpt>
      <trkpt lat="45.18067" lon="5.85286">
        <ele>610.26</ele>
        <time>2019-04-06T10:42:07.000Z</time>
      </trkpt>
      <trkpt lat="45.18079" lon="5.85237">
        <ele>605.25</ele>
        <time>2019-04-06T10:42:12.000Z</time>
      </trkpt>
      <trkpt lat="45.18095" lon="5.85187">
        <ele>603.8</ele>
        <time>2019-04-06T10:42:17.000Z</time>
      </trkpt>
      <trkpt lat="45.18123" lon="5.8514">
        <ele>600.73</ele>
        <time>2019-04-06T10:42:22.000Z</time>
      </trkpt>
      <trkpt lat="45.18163" lon="5.8514">
        <ele>599.66</ele>
        <time>2019-04-06T10:42:27.000Z</time>
      </trkpt>
      <trkpt lat="45.18208" lon="5.85169">
        <ele>599.64</ele>
        <time>2019-04-06T10:42:32.000Z</time>
      </trkpt>
      <trkpt lat="45.18255" lon="5.8514">
        <ele>593.65</ele>
        <time>2019-04-06T10:42:37.000Z</time>
      </trkpt>
      <trkpt lat="45.18266" lon="5.85148">
        <ele>593.8</ele>
        <time>2019-04-06T10:42:43.000Z</time>
      </trkpt>
      <trkpt lat="45.18307" lon="5.8515">
        <ele>593.91</ele>
        <time>2019-04-06T10:42:48.000Z</time>
      </trkpt>
      <trkpt lat="45.18338" lon="5.85163">
        <ele>596.25</ele>
        <time>2019-04-06T10:42:53.000Z</time>
      </trkpt>
      <trkpt lat="45.18369" lon="5.85158">
        <ele>594.85</ele>
        <time>2019-04-06T10:42:58.000Z</time>
      </trkpt>
      <trkpt lat="45.18396" lon="5.85159">
        <ele>599.4</ele>
        <time>2019-04-06T10:43:03.000Z</time>
      </trkpt>
      <trkpt lat="45.18434" lon="5.85156">
        <ele>596.8</ele>
        <time>2019-04-06T10:43:08.000Z</time>
      </trkpt>
      <trkpt lat="45.18464" lon="5.85127">
        <ele>593.32</ele>
        <time>2019-04-06T10:43:13.000Z</time>
      </trkpt>
      <trkpt lat="45.18497" lon="5.85113">
        <ele>591</ele>
        <time>2019-04-06T10:43:18.000Z</time>
      </trkpt>
      <trkpt lat="45.18523" lon="5.85101">
        <ele>591.54</ele>
        <time>2019-04-06T10:43:23.000Z</time>
      </trkpt>
      <trkpt lat="45.18556" lon="5.85088">
        <ele>594.37</ele>
        <time>2019-04-06T10:43:28.000Z</time>
      </trkpt>
      <trkpt lat="45.18586" lon="5.8508">
        <ele>595.23</ele>
        <time>2019-04-06T10:43:33.000Z</time>
      </trkpt>
      <trkpt lat="45.18626" lon="5.85066">
        <ele>590.02</ele>
        <time>2019-04-06T10:43:38.000Z</time>
      </trkpt>
      <trkpt lat="45.18655" lon="5.85044">
        <ele>591.7</ele>
        <time>2019-04-06T10:43:43.000Z</time>
      </trkpt>
      <trkpt lat="45.18664" lon="5.85014">
        <ele>593.59</ele>
        <time>2019-04-06T10:43:48.000Z</time>
      </trkpt>
      <trkpt lat="45.18653" lon="5.84981">
        <ele>589.43</ele>
        <time>2019-04-06T10:43:53.000Z</time>
      </trkpt>
      <trkpt lat="45.18637" lon="5.84953">
        <ele>590.65</ele>
        <time>2019-04-06T10:43:58.000Z</time>
      </trkpt>
      <trkpt lat="45.18628" lon="5.84915">
        <ele>591.38</ele>
        <time>2019-04-06T10:44:03.000Z</time>
      </trkpt>
      <trkpt lat="45.18623" lon="5.84874">
        <ele>591.73</ele>
        <time>2019-04-06T10:44:08.000Z</time>
      </trkpt>
      <trkpt lat="45.18619" lon="5.84837">
        <ele>588.73</ele>
        <time>2019-04-06T10:44:13.000Z</time>
      </trkpt>
      <trkpt lat="45.18609" lon="5.84802">
        <ele>590.58</ele>
        <time>2019-04-06T10:44:18.000Z</time>
      </trkpt>
      <trkpt lat="45.186" lon="5.84764">
        <ele>588.83</ele>
        <time>2019-04-06T10:44:23.000Z</time>
      </trkpt>
      <trkpt lat="45.18598" lon="5.84719">
        <ele>586.67</ele>
        <time>2019-04-06T10:44:28.000Z</time>
      </trkpt>
      <trkpt lat="45.1861" lon="5.84673">
        <ele>588.05</ele>
        <time>2019-04-06T10:44:33.000Z</time>
      </trkpt>
      <trkpt lat="45.18643" lon="5.8467">
        <ele>591.27</ele>
        <time>2019-04-06T10:44:38.000Z</time>
      </trkpt>
      <trkpt lat="45.18674" lon="5.84683">
        <ele>594.13</ele>
        <time>2019-04-06T10:44:43.000Z</time>
      </trkpt>
      <trkpt lat="45.18708" lon="5.84667">
        <ele>594.14</ele>
        <time>2019-04-06T10:44:48.000Z</time>
      </trkpt>
      <trkpt lat="45.1872" lon="5.84626">
        <ele>593.52</ele>
        <time>2019-04-06T10:44:53.000Z</time>
      </trkpt>
      <trkpt lat="45.18744" lon="5.84596">
        <ele>590.72</ele>
        <time>2019-04-06T10:44:58.000Z</time>
      </trkpt>
      <trkpt lat="45.1877" lon="5.84558">
        <ele>588</ele>
        <time>2019-04-06T10:45:03.000Z</time>
      </trkpt>
      <trkpt lat="45.18803" lon="5.84533">
        <ele>587.93</ele>
        <time>2019-04-06T10:45:08.000Z</time>
      </trkpt>
      <trkpt lat="45.1884" lon="5.84539">
        <ele>585.07</ele>
        <time>2019-04-06T10:45:13.000Z</time>
      </trkpt>
      <trkpt lat="45.1888" lon="5.84529">
        <ele>584.58</ele>
        <time>2019-04-06T10:45:18.000Z</time>
      </trkpt>
      <trkpt lat="45.18903" lon="5.84539">
        <ele>584.69</ele>
        <time>2019-04-06T10:45:23.000Z</time>
      </trkpt>
      <trkpt lat="45.18914" lon="5.84518">
        <ele>587.27</ele>
        <time>2019-04-06T10:45:28.000Z</time>
      </trkpt>
      <trkpt lat="45.18915" lon="5.8446">
        <ele>579.73</ele>
        <time>2019-04-06T10:45:33.000Z</time>
      </trkpt>
      <trkpt lat="45.18895" lon="5.84392">
        <ele>573.36</ele>
        <time>2019-04-06T10:45:38.000Z</time>
      </trkpt>
      <trkpt lat="45.18909" lon="5.84317">
        <ele>568.18</ele>
        <time>2019-04-06T10:45:43.000Z</time>
      </trkpt>
      <trkpt lat="45.18916" lon="5.84236">
        <ele>564.95</ele>
        <time>2019-04-06T10:45:48.000Z</time>
      </trkpt>
      <trkpt lat="45.18926" lon="5.84164">
        <ele>566.43</ele>
        <time>2019-04-06T10:45:53.000Z</time>
      </trkpt>
      <trkpt lat="45.18967" lon="5.84131">
        <ele>568.61</ele>
        <time>2019-04-06T10:45:58.000Z</time>
      </trkpt>
      <trkpt lat="45.19005" lon="5.84109">
        <ele>569.6</ele>
        <time>2019-04-06T10:46:03.000Z</time>
      </trkpt>
      <trkpt lat="45.19034" lon="5.84081">
        <ele>568.4</ele>
        <time>2019-04-06T10:46:08.000Z</time>
      </trkpt>
      <trkpt lat="45.19043" lon="5.84042">
        <ele>565.39</ele>
        <time>2019-04-06T10:46:13.000Z</time>
      </trkpt>
      <trkpt lat="45.19037" lon="5.83991">
        <ele>564.51</ele>
        <time>2019-04-06T10:46:18.000Z</time>
      </trkpt>
      <trkpt lat="45.19026" lon="5.83929">
        <ele>560.59</ele>
        <time>2019-04-06T10:46:23.000Z</time>
      </trkpt>
      <trkpt lat="45.19014" lon="5.83854">
        <ele>557.53</ele>
        <time>2019-04-06T10:46:28.000Z</time>
      </trkpt>
      <trkpt lat="45.18986" lon="5.83796">
        <ele>553.69</ele>
        <time>2019-04-06T10:46:33.000Z</time>
      </trkpt>
      <trkpt lat="45.18949" lon="5.83738">
        <ele>548.24</ele>
        <time>2019-04-06T10:46:38.000Z</time>
      </trkpt>
      <trkpt lat="45.18933" lon="5.83675">
        <ele>545.97</ele>
        <time>2019-04-06T10:46:43.000Z</time>
      </trkpt>
      <trkpt lat="45.18893" lon="5.83666">
        <ele>546.23</ele>
        <time>2019-04-06T10:46:48.000Z</time>
      </trkpt>
      <trkpt lat="45.18851" lon="5.83673">
        <ele>544.81</ele>
        <time>2019-04-06T10:46:53.000Z</time>
      </trkpt>
      <trkpt lat="45.18806" lon="5.83665">
        <ele>542.85</ele>
        <time>2019-04-06T10:46:58.000Z</time>
      </trkpt>
      <trkpt lat="45.18772" lon="5.83636">
        <ele>536.72</ele>
        <time>2019-04-06T10:47:03.000Z</time>
      </trkpt>
      <trkpt lat="45.18727" lon="5.83624">
        <ele>536.43</ele>
        <time>2019-04-06T10:47:08.000Z</time>
      </trkpt>
      <trkpt lat="45.18682" lon="5.83637">
        <ele>534.84</ele>
        <time>2019-04-06T10:47:13.000Z</time>
      </trkpt>
      <trkpt lat="45.18695" lon="5.83568">
        <ele>533.06</ele>
        <time>2019-04-06T10:47:18.000Z</time>
      </trkpt>
      <trkpt lat="45.18719" lon="5.83514">
        <ele>534.2</ele>
        <time>2019-04-06T10:47:23.000Z</time>
      </trkpt>
      <trkpt lat="45.18732" lon="5.83457">
        <ele>533.19</ele>
        <time>2019-04-06T10:47:28.000Z</time>
      </trkpt>
      <trkpt lat="45.18779" lon="5.83434">
        <ele>531.65</ele>
        <time>2019-04-06T10:47:33.000Z</time>
      </trkpt>
      <trkpt lat="45.18817" lon="5.83391">
        <ele>528.92</ele>
        <time>2019-04-06T10:47:38.000Z</time>
      </trkpt>
      <trkpt lat="45.18818" lon="5.83312">
        <ele>523.11</ele>
        <time>2019-04-06T10:47:43.000Z</time>
      </trkpt>
      <trkpt lat="45.18843" lon="5.83241">
        <ele>520.56</ele>
        <time>2019-04-06T10:47:48.000Z</time>
      </trkpt>
      <trkpt lat="45.18877" lon="5.83184">
        <ele>516.98</ele>
        <time>2019-04-06T10:47:53.000Z</time>
      </trkpt>
      <trkpt lat="45.18883" lon="5.83111">
        <ele>514.72</ele>
        <time>2019-04-06T10:47:58.000Z</time>
      </trkpt>
      <trkpt lat="45.18888" lon="5.83031">
        <ele>511.77</ele>
        <time>2019-04-06T10:48:03.000Z</time>
      </trkpt>
      <trkpt lat="45.18907" lon="5.82953">
        <ele>508.86</ele>
        <time>2019-04-06T10:48:08.000Z</time>
      </trkpt>
      <trkpt lat="45.1888" lon="5.82883">
        <ele>504.5</ele>
        <time>2019-04-06T10:48:13.000Z</time>
      </trkpt>
      <trkpt lat="45.18859" lon="5.82802">
        <ele>495.47</ele>
        <time>2019-04-06T10:48:18.000Z</time>
      </trkpt>
      <trkpt lat="45.18841" lon="5.82752">
        <ele>488.7</ele>
        <time>2019-04-06T10:48:23.000Z</time>
      </trkpt>
      <trkpt lat="45.18826" lon="5.82728">
        <ele>483.75</ele>
        <time>2019-04-06T10:48:28.000Z</time>
      </trkpt>
      <trkpt lat="45.188" lon="5.82692">
        <ele>479.54</ele>
        <time>2019-04-06T10:48:33.000Z</time>
      </trkpt>
      <trkpt lat="45.18764" lon="5.82656">
        <ele>478.38</ele>
        <time>2019-04-06T10:48:38.000Z</time>
      </trkpt>
      <trkpt lat="45.18719" lon="5.8267">
        <ele>476.82</ele>
        <time>2019-04-06T10:48:43.000Z</time>
      </trkpt>
      <trkpt lat="45.18666" lon="5.82665">
        <ele>473.2</ele>
        <time>2019-04-06T10:48:48.000Z</time>
      </trkpt>
      <trkpt lat="45.18624" lon="5.82609">
        <ele>470.02</ele>
        <time>2019-04-06T10:48:53.000Z</time>
      </trkpt>
      <trkpt lat="45.18575" lon="5.82564">
        <ele>468.99</ele>
        <time>2019-04-06T10:48:58.000Z</time>
      </trkpt>
      <trkpt lat="45.18536" lon="5.82532">
        <ele>467.19</ele>
        <time>2019-04-06T10:49:03.000Z</time>
      </trkpt>
      <trkpt lat="45.18487" lon="5.82556">
        <ele>466.01</ele>
        <time>2019-04-06T10:49:08.000Z</time>
      </trkpt>
      <trkpt lat="45.18444" lon="5.82592">
        <ele>459.12</ele>
        <time>2019-04-06T10:49:13.000Z</time>
      </trkpt>
      <trkpt lat="45.18399" lon="5.82643">
        <ele>455.07</ele>
        <time>2019-04-06T10:49:18.000Z</time>
      </trkpt>
      <trkpt lat="45.18393" lon="5.82605">
        <ele>450.85</ele>
        <time>2019-04-06T10:49:23.000Z</time>
      </trkpt>
      <trkpt lat="45.18415" lon="5.82563">
        <ele>447.28</ele>
        <time>2019-04-06T10:49:28.000Z</time>
      </trkpt>
      <trkpt lat="45.18429" lon="5.82532">
        <ele>447.32</ele>
        <time>2019-04-06T10:49:33.000Z</time>
      </trkpt>
      <trkpt lat="45.18439" lon="5.82508">
        <ele>446.76</ele>
        <time>2019-04-06T10:49:38.000Z</time>
      </trkpt>
      <trkpt lat="45.18442" lon="5.82476">
        <ele>447.91</ele>
        <time>2019-04-06T10:49:43.000Z</time>
      </trkpt>
      <trkpt lat="45.1844" lon="5.82447">
        <ele>451.09</ele>
        <time>2019-04-06T10:49:48.000Z</time>
      </trkpt>
      <trkpt lat="45.18451" lon="5.82423">
        <ele>451.01</ele>
        <time>2019-04-06T10:49:53.000Z</time>
      </trkpt>
      <trkpt lat="45.18473" lon="5.82396">
        <ele>454.45</ele>
        <time>2019-04-06T10:49:58.000Z</time>
      </trkpt>
      <trkpt lat="45.18492" lon="5.82372">
        <ele>458.11</ele>
        <time>2019-04-06T10:50:03.000Z</time>
      </trkpt>
      <trkpt lat="45.18513" lon="5.82358">
        <ele>459.73</ele>
        <time>2019-04-06T10:50:08.000Z</time>
      </trkpt>
      <trkpt lat="45.18527" lon="5.82332">
        <ele>456.98</ele>
        <time>2019-04-06T10:50:13.000Z</time>
      </trkpt>
      <trkpt lat="45.18534" lon="5.82299">
        <ele>454.4</ele>
        <time>2019-04-06T10:50:18.000Z</time>
      </trkpt>
      <trkpt lat="45.18534" lon="5.82257">
        <ele>451.66</ele>
        <time>2019-04-06T10:50:23.000Z</time>
      </trkpt>
      <trkpt lat="45.18534" lon="5.82201">
        <ele>447.7</ele>
        <time>2019-04-06T10:50:28.000Z</time>
      </trkpt>
      <trkpt lat="45.18543" lon="5.82142">
        <ele>446.62</ele>
        <time>2019-04-06T10:50:33.000Z</time>
      </trkpt>
      <trkpt lat="45.1855" lon="5.82075">
        <ele>443.2</ele>
        <time>2019-04-06T10:50:38.000Z</time>
      </trkpt>
      <trkpt lat="45.18555" lon="5.82021">
        <ele>438.23</ele>
        <time>2019-04-06T10:50:43.000Z</time>
      </trkpt>
      <trkpt lat="45.18529" lon="5.81958">
        <ele>433.54</ele>
        <time>2019-04-06T10:50:48.000Z</time>
      </trkpt>
      <trkpt lat="45.18499" lon="5.81887">
        <ele>427.24</ele>
        <time>2019-04-06T10:50:53.000Z</time>
      </trkpt>
      <trkpt lat="45.18475" lon="5.81843">
        <ele>419.8</ele>
        <time>2019-04-06T10:50:58.000Z</time>
      </trkpt>
      <trkpt lat="45.18499" lon="5.8186">
        <ele>418.88</ele>
        <time>2019-04-06T10:51:03.000Z</time>
      </trkpt>
      <trkpt lat="45.1853" lon="5.81905">
        <ele>414.37</ele>
        <time>2019-04-06T10:51:08.000Z</time>
      </trkpt>
      <trkpt lat="45.18569" lon="5.81955">
        <ele>411.69</ele>
        <time>2019-04-06T10:51:13.000Z</time>
      </trkpt>
      <trkpt lat="45.18611" lon="5.82013">
        <ele>406.96</ele>
        <time>2019-04-06T10:51:18.000Z</time>
      </trkpt>
      <trkpt lat="45.18636" lon="5.82077">
        <ele>405.43</ele>
        <time>2019-04-06T10:51:23.000Z</time>
      </trkpt>
      <trkpt lat="45.18659" lon="5.82059">
        <ele>403.23</ele>
        <time>2019-04-06T10:51:28.000Z</time>
      </trkpt>
      <trkpt lat="45.18677" lon="5.82">
        <ele>402.21</ele>
        <time>2019-04-06T10:51:33.000Z</time>
      </trkpt>
      <trkpt lat="45.18664" lon="5.81943">
        <ele>397.81</ele>
        <time>2019-04-06T10:51:38.000Z</time>
      </trkpt>
      <trkpt lat="45.18641" lon="5.81878">
        <ele>388.92</ele>
        <time>2019-04-06T10:51:43.000Z</time>
      </trkpt>
      <trkpt lat="45.18599" lon="5.81841">
        <ele>385.79</ele>
        <time>2019-04-06T10:51:48.000Z</time>
      </trkpt>
      <trkpt lat="45.18605" lon="5.818">
        <ele>384.04</ele>
        <time>2019-04-06T10:51:53.000Z</time>
      </trkpt>
      <trkpt lat="45.18634" lon="5.81759">
        <ele>383.18</ele>
        <time>2019-04-06T10:51:58.000Z</time>
      </trkpt>
      <trkpt lat="45.18632" lon="5.81671">
        <ele>383.94</ele>
        <time>2019-04-06T10:52:03.000Z</time>
      </trkpt>
      <trkpt lat="45.18611" lon="5.81607">
        <ele>380.07</ele>
        <time>2019-04-06T10:52:08.000Z</time>
      </trkpt>
      <trkpt lat="45.18597" lon="5.81522">
        <ele>373.57</ele>
        <time>2019-04-06T10:52:13.000Z</time>
      </trkpt>
      <trkpt lat="45.18594" lon="5.81421">
        <ele>371.96</ele>
        <time>2019-04-06T10:52:18.000Z</time>
      </trkpt>
      <trkpt lat="45.18566" lon="5.81356">
        <ele>367.32</ele>
        <time>2019-04-06T10:52:23.000Z</time>
      </trkpt>
      <trkpt lat="45.18549" lon="5.81315">
        <ele>361.33</ele>
        <time>2019-04-06T10:52:28.000Z</time>
      </trkpt>
      <trkpt lat="45.18573" lon="5.81343">
        <ele>357.65</ele>
        <time>2019-04-06T10:52:33.000Z</time>
      </trkpt>
      <trkpt lat="45.18595" lon="5.8139">
        <ele>351.23</ele>
        <time>2019-04-06T10:52:38.000Z</time>
      </trkpt>
      <trkpt lat="45.18626" lon="5.81448">
        <ele>346.46</ele>
        <time>2019-04-06T10:52:43.000Z</time>
      </trkpt>
      <trkpt lat="45.18666" lon="5.81513">
        <ele>341.7</ele>
        <time>2019-04-06T10:52:48.000Z</time>
      </trkpt>
      <trkpt lat="45.18691" lon="5.81598">
        <ele>333.73</ele>
        <time>2019-04-06T10:52:53.000Z</time>
      </trkpt>
      <trkpt lat="45.18718" lon="5.81688">
        <ele>327.18</ele>
        <time>2019-04-06T10:52:58.000Z</time>
      </trkpt>
      <trkpt lat="45.18737" lon="5.8175">
        <ele>324.16</ele>
        <time>2019-04-06T10:53:03.000Z</time>
      </trkpt>
      <trkpt lat="45.18739" lon="5.81734">
        <ele>322.22</ele>
        <time>2019-04-06T10:53:08.000Z</time>
      </trkpt>
      <trkpt lat="45.18736" lon="5.81683">
        <ele>317.98</ele>
        <time>2019-04-06T10:53:13.000Z</time>
      </trkpt>
      <trkpt lat="45.18727" lon="5.81623">
        <ele>316.46</ele>
        <time>2019-04-06T10:53:18.000Z</time>
      </trkpt>
      <trkpt lat="45.18718" lon="5.81546">
        <ele>312.45</ele>
        <time>2019-04-06T10:53:23.000Z</time>
      </trkpt>
      <trkpt lat="45.18718" lon="5.81468">
        <ele>303.5</ele>
        <time>2019-04-06T10:53:28.000Z</time>
      </trkpt>
      <trkpt lat="45.18693" lon="5.81406">
        <ele>298.13</ele>
        <time>2019-04-06T10:53:33.000Z</time>
      </trkpt>
      <trkpt lat="45.18682" lon="5.81371">
        <ele>295.56</ele>
        <time>2019-04-06T10:53:38.000Z</time>
      </trkpt>
      <trkpt lat="45.18717" lon="5.81427">
        <ele>289.39</ele>
        <time>2019-04-06T10:53:43.000Z</time>
      </trkpt>
      <trkpt lat="45.18747" lon="5.81487">
        <ele>282.66</ele>
        <time>2019-04-06T10:53:48.000Z</time>
      </trkpt>
      <trkpt lat="45.18789" lon="5.81552">
        <ele>278.7</ele>
        <time>2019-04-06T10:53:53.000Z</time>
      </trkpt>
      <trkpt lat="45.1882" lon="5.81636">
        <ele>276.55</ele>
        <time>2019-04-06T10:53:58.000Z</time>
      </trkpt>
      <trkpt lat="45.18857" lon="5.81709">
        <ele>272.45</ele>
        <time>2019-04-06T10:54:03.000Z</time>
      </trkpt>
      <trkpt lat="45.18896" lon="5.81761">
        <ele>266.1</ele>
        <time>2019-04-06T10:54:08.000Z</time>
      </trkpt>
      <trkpt lat="45.18929" lon="5.81828">
        <ele>261.09</ele>
        <time>2019-04-06T10:54:13.000Z</time>
      </trkpt>
      <trkpt lat="45.18971" lon="5.81887">
        <ele>251.33</ele>
        <time>2019-04-06T10:54:18.000Z</time>
      </trkpt>
      <trkpt lat="45.19008" lon="5.81919">
        <ele>246.2</ele>
        <time>2019-04-06T10:54:23.000Z</time>
      </trkpt>
      <trkpt lat="45.19042" lon="5.81924">
        <ele>241.25</ele>
        <time>2019-04-06T10:54:28.000Z</time>
      </trkpt>
      <trkpt lat="45.19083" lon="5.819">
        <ele>237.94</ele>
        <time>2019-04-06T10:54:33.000Z</time>
      </trkpt>
      <trkpt lat="45.19112" lon="5.8188">
        <ele>234.91</ele>
        <time>2019-04-06T10:54:38.000Z</time>
      </trkpt>
      <trkpt lat="45.19134" lon="5.81846">
        <ele>229.3</ele>
        <time>2019-04-06T10:54:43.000Z</time>
      </trkpt>
      <trkpt lat="45.19158" lon="5.81801">
        <ele>227.2</ele>
        <time>2019-04-06T10:54:48.000Z</time>
      </trkpt>
      <trkpt lat="45.19184" lon="5.81758">
        <ele>223.43</ele>
        <time>2019-04-06T10:54:53.000Z</time>
      </trkpt>
      <trkpt lat="45.19202" lon="5.81732">
        <ele>221.27</ele>
        <time>2019-04-06T10:54:58.000Z</time>
      </trkpt>
      <trkpt lat="45.19216" lon="5.81714">
        <ele>220.97</ele>
        <time>2019-04-06T10:55:03.000Z</time>
      </trkpt>
      <trkpt lat="45.1921" lon="5.81693">
        <ele>220.07</ele>
        <time>2019-04-06T10:55:08.000Z</time>
      </trkpt>
      <trkpt lat="45.192" lon="5.81668">
        <ele>213.9</ele>
        <time>2019-04-06T10:55:13.000Z</time>
      </trkpt>
      <trkpt lat="45.19187" lon="5.81638">
        <ele>211.02</ele>
        <time>2019-04-06T10:55:18.000Z</time>
      </trkpt>
      <trkpt lat="45.19173" lon="5.81603">
        <ele>207.45</ele>
        <time>2019-04-06T10:55:23.000Z</time>
      </trkpt>
      <trkpt lat="45.19156" lon="5.81564">
        <ele>205.79</ele>
        <time>2019-04-06T10:55:28.000Z</time>
      </trkpt>
      <trkpt lat="45.1914" lon="5.81522">
        <ele>206.17</ele>
        <time>2019-04-06T10:55:33.000Z</time>
      </trkpt>
      <trkpt lat="45.19121" lon="5.8148">
        <ele>207.75</ele>
        <time>2019-04-06T10:55:38.000Z</time>
      </trkpt>
      <trkpt lat="45.19103" lon="5.8144">
        <ele>205.91</ele>
        <time>2019-04-06T10:55:43.000Z</time>
      </trkpt>
      <trkpt lat="45.19083" lon="5.81402">
        <ele>206.83</ele>
        <time>2019-04-06T10:55:48.000Z</time>
      </trkpt>
      <trkpt lat="45.19069" lon="5.81365">
        <ele>205.46</ele>
        <time>2019-04-06T10:55:53.000Z</time>
      </trkpt>
      <trkpt lat="45.19054" lon="5.81328">
        <ele>204.09</ele>
        <time>2019-04-06T10:55:58.000Z</time>
      </trkpt>
      <trkpt lat="45.19038" lon="5.81295">
        <ele>208.71</ele>
        <time>2019-04-06T10:56:03.000Z</time>
      </trkpt>
      <trkpt lat="45.19022" lon="5.81257">
        <ele>210.77</ele>
        <time>2019-04-06T10:56:08.000Z</time>
      </trkpt>
      <trkpt lat="45.19006" lon="5.81225">
        <ele>209.51</ele>
        <time>2019-04-06T10:56:13.000Z</time>
      </trkpt>
      <trkpt lat="45.18994" lon="5.81194">
        <ele>208.07</ele>
        <time>2019-04-06T10:56:18.000Z</time>
      </trkpt>
      <trkpt lat="45.18979" lon="5.81156">
        <ele>207.14</ele>
        <time>2019-04-06T10:56:23.000Z</time>
      </trkpt>
      <trkpt lat="45.18964" lon="5.81122">
        <ele>207.07</ele>
        <time>2019-04-06T10:56:28.000Z</time>
      </trkpt>
      <trkpt lat="45.18947" lon="5.81093">
        <ele>207.59</ele>
        <time>2019-04-06T10:56:33.000Z</time>
      </trkpt>
      <trkpt lat="45.18935" lon="5.81058">
        <ele>207.14</ele>
        <time>2019-04-06T10:56:38.000Z</time>
      </trkpt>
      <trkpt lat="45.18917" lon="5.81027">
        <ele>207.18</ele>
        <time>2019-04-06T10:56:43.000Z</time>
      </trkpt>
      <trkpt lat="45.18905" lon="5.8099">
        <ele>204.73</ele>
        <time>2019-04-06T10:56:48.000Z</time>
      </trkpt>
      <trkpt lat="45.18887" lon="5.80955">
        <ele>207.19</ele>
        <time>2019-04-06T10:56:53.000Z</time>
      </trkpt>
      <trkpt lat="45.18873" lon="5.80916">
        <ele>205.23</ele>
        <time>2019-04-06T10:56:58.000Z</time>
      </trkpt>
      <trkpt lat="45.18853" lon="5.80882">
        <ele>204.45</ele>
        <time>2019-04-06T10:57:03.000Z</time>
      </trkpt>
      <trkpt lat="45.18834" lon="5.80842">
        <ele>207.23</ele>
        <time>2019-04-06T10:57:08.000Z</time>
      </trkpt>
      <trkpt lat="45.18817" lon="5.80814">
        <ele>205.36</ele>
        <time>2019-04-06T10:57:13.000Z</time>
      </trkpt>
      <trkpt lat="45.18794" lon="5.80789">
        <ele>208.97</ele>
        <time>2019-04-06T10:57:18.000Z</time>
      </trkpt>
      <trkpt lat="45.18775" lon="5.80764">
        <ele>212.32</ele>
        <time>2019-04-06T10:57:23.000Z</time>
      </trkpt>
      <trkpt lat="45.18778" lon="5.80742">
        <ele>211.29</ele>
        <time>2019-04-06T10:57:28.000Z</time>
      </trkpt>
      <trkpt lat="45.18793" lon="5.80731">
        <ele>212.52</ele>
        <time>2019-04-06T10:57:33.000Z</time>
      </trkpt>
      <trkpt lat="45.18817" lon="5.80729">
        <ele>211.84</ele>
        <time>2019-04-06T10:57:38.000Z</time>
      </trkpt>
      <trkpt lat="45.18839" lon="5.80713">
        <ele>210.6</ele>
        <time>2019-04-06T10:57:43.000Z</time>
      </trkpt>
      <trkpt lat="45.18858" lon="5.80691">
        <ele>210.58</ele>
        <time>2019-04-06T10:57:48.000Z</time>
      </trkpt>
      <trkpt lat="45.18849" lon="5.80675">
        <ele>208.69</ele>
        <time>2019-04-06T10:57:55.000Z</time>
      </trkpt>
      <trkpt lat="45.18828" lon="5.80667">
        <ele>208.36</ele>
        <time>2019-04-06T10:58:00.000Z</time>
      </trkpt>
      <trkpt lat="45.18802" lon="5.80655">
        <ele>208.39</ele>
        <time>2019-04-06T10:58:05.000Z</time>
      </trkpt>
      <trkpt lat="45.18777" lon="5.80641">
        <ele>210.14</ele>
        <time>2019-04-06T10:58:10.000Z</time>
      </trkpt>
      <trkpt lat="45.18752" lon="5.80626">
        <ele>209.45</ele>
        <time>2019-04-06T10:58:15.000Z</time>
      </trkpt>
      <trkpt lat="45.18726" lon="5.80599">
        <ele>207.45</ele>
        <time>2019-04-06T10:58:20.000Z</time>
      </trkpt>
      <trkpt lat="45.18708" lon="5.80568">
        <ele>208.71</ele>
        <time>2019-04-06T10:58:25.000Z</time>
      </trkpt>
      <trkpt lat="45.18693" lon="5.80534">
        <ele>209.48</ele>
        <time>2019-04-06T10:58:30.000Z</time>
      </trkpt>
      <trkpt lat="45.18679" lon="5.80492">
        <ele>207.28</ele>
        <time>2019-04-06T10:58:35.000Z</time>
      </trkpt>
      <trkpt lat="45.18673" lon="5.80445">
        <ele>203.82</ele>
        <time>2019-04-06T10:58:40.000Z</time>
      </trkpt>
      <trkpt lat="45.18666" lon="5.80398">
        <ele>203.78</ele>
        <time>2019-04-06T10:58:45.000Z</time>
      </trkpt>
      <trkpt lat="45.18653" lon="5.80356">
        <ele>207.08</ele>
        <time>2019-04-06T10:58:50.000Z</time>
      </trkpt>
      <trkpt lat="45.18654" lon="5.80308">
        <ele>207.22</ele>
        <time>2019-04-06T10:58:55.000Z</time>
      </trkpt>
      <trkpt lat="45.18657" lon="5.80262">
        <ele>209</ele>
        <time>2019-04-06T10:59:00.000Z</time>
      </trkpt>
      <trkpt lat="45.18669" lon="5.80218">
        <ele>209.77</ele>
        <time>2019-04-06T10:59:05.000Z</time>
      </trkpt>
      <trkpt lat="45.18685" lon="5.8018">
        <ele>209.75</ele>
        <time>2019-04-06T10:59:10.000Z</time>
      </trkpt>
      <trkpt lat="45.18696" lon="5.80135">
        <ele>210.87</ele>
        <time>2019-04-06T10:59:15.000Z</time>
      </trkpt>
      <trkpt lat="45.18704" lon="5.80092">
        <ele>212.96</ele>
        <time>2019-04-06T10:59:20.000Z</time>
      </trkpt>
      <trkpt lat="45.18712" lon="5.80056">
        <ele>213.2</ele>
        <time>2019-04-06T10:59:25.000Z</time>
      </trkpt>
      <trkpt lat="45.18726" lon="5.80024">
        <ele>213.39</ele>
        <time>2019-04-06T10:59:30.000Z</time>
      </trkpt>
      <trkpt lat="45.18741" lon="5.79992">
        <ele>212.13</ele>
        <time>2019-04-06T10:59:35.000Z</time>
      </trkpt>
      <trkpt lat="45.18759" lon="5.7996">
        <ele>211.59</ele>
        <time>2019-04-06T10:59:40.000Z</time>
      </trkpt>
      <trkpt lat="45.18774" lon="5.79924">
        <ele>212.32</ele>
        <time>2019-04-06T10:59:45.000Z</time>
      </trkpt>
      <trkpt lat="45.18787" lon="5.79887">
        <ele>210.11</ele>
        <time>2019-04-06T10:59:50.000Z</time>
      </trkpt>
      <trkpt lat="45.18802" lon="5.79849">
        <ele>210.33</ele>
        <time>2019-04-06T10:59:55.000Z</time>
      </trkpt>
      <trkpt lat="45.18823" lon="5.79813">
        <ele>213.05</ele>
        <time>2019-04-06T11:00:00.000Z</time>
      </trkpt>
      <trkpt lat="45.1884" lon="5.79773">
        <ele>213.84</ele>
        <time>2019-04-06T11:00:05.000Z</time>
      </trkpt>
      <trkpt lat="45.18854" lon="5.79731">
        <ele>215.6</ele>
        <time>2019-04-06T11:00:10.000Z</time>
      </trkpt>
      <trkpt lat="45.18869" lon="5.79689">
        <ele>214.62</ele>
        <time>2019-04-06T11:00:15.000Z</time>
      </trkpt>
      <trkpt lat="45.18878" lon="5.79648">
        <ele>214.68</ele>
        <time>2019-04-06T11:00:20.000Z</time>
      </trkpt>
      <trkpt lat="45.18887" lon="5.79601">
        <ele>215.8</ele>
        <time>2019-04-06T11:00:25.000Z</time>
      </trkpt>
      <trkpt lat="45.18892" lon="5.79558">
        <ele>214.66</ele>
        <time>2019-04-06T11:00:30.000Z</time>
      </trkpt>
      <trkpt lat="45.18897" lon="5.79514">
        <ele>214.47</ele>
        <time>2019-04-06T11:00:35.000Z</time>
      </trkpt>
      <trkpt lat="45.18904" lon="5.79469">
        <ele>212.92</ele>
        <time>2019-04-06T11:00:40.000Z</time>
      </trkpt>
      <trkpt lat="45.18907" lon="5.79421">
        <ele>211.09</ele>
        <time>2019-04-06T11:00:45.000Z</time>
      </trkpt>
      <trkpt lat="45.18907" lon="5.79377">
        <ele>210.34</ele>
        <time>2019-04-06T11:00:50.000Z</time>
      </trkpt>
      <trkpt lat="45.18905" lon="5.79334">
        <ele>210.65</ele>
        <time>2019-04-06T11:00:55.000Z</time>
      </trkpt>
      <trkpt lat="45.18902" lon="5.79288">
        <ele>211.62</ele>
        <time>2019-04-06T11:01:00.000Z</time>
      </trkpt>
      <trkpt lat="45.189" lon="5.79245">
        <ele>207.56</ele>
        <time>2019-04-06T11:01:05.000Z</time>
      </trkpt>
      <trkpt lat="45.189" lon="5.792">
        <ele>207.45</ele>
        <time>2019-04-06T11:01:10.000Z</time>
      </trkpt>
      <trkpt lat="45.18898" lon="5.79155">
        <ele>206.97</ele>
        <time>2019-04-06T11:01:15.000Z</time>
      </trkpt>
      <trkpt lat="45.18897" lon="5.79105">
        <ele>206.49</ele>
        <time>2019-04-06T11:01:20.000Z</time>
      </trkpt>
      <trkpt lat="45.18896" lon="5.79058">
        <ele>206.72</ele>
        <time>2019-04-06T11:01:25.000Z</time>
      </trkpt>
      <trkpt lat="45.18894" lon="5.79012">
        <ele>206.44</ele>
        <time>2019-04-06T11:01:30.000Z</time>
      </trkpt>
      <trkpt lat="45.18895" lon="5.78967">
        <ele>207.82</ele>
        <time>2019-04-06T11:01:35.000Z</time>
      </trkpt>
      <trkpt lat="45.18901" lon="5.78919">
        <ele>208.03</ele>
        <time>2019-04-06T11:01:40.000Z</time>
      </trkpt>
      <trkpt lat="45.18907" lon="5.78872">
        <ele>209.18</ele>
        <time>2019-04-06T11:01:45.000Z</time>
      </trkpt>
      <trkpt lat="45.18919" lon="5.78832">
        <ele>209.35</ele>
        <time>2019-04-06T11:01:50.000Z</time>
      </trkpt>
      <trkpt lat="45.18928" lon="5.78788">
        <ele>208.91</ele>
        <time>2019-04-06T11:01:55.000Z</time>
      </trkpt>
      <trkpt lat="45.18938" lon="5.78747">
        <ele>208.85</ele>
        <time>2019-04-06T11:02:00.000Z</time>
      </trkpt>
      <trkpt lat="45.18948" lon="5.78704">
        <ele>210.4</ele>
        <time>2019-04-06T11:02:05.000Z</time>
      </trkpt>
      <trkpt lat="45.18956" lon="5.78661">
        <ele>209.45</ele>
        <time>2019-04-06T11:02:10.000Z</time>
      </trkpt>
      <trkpt lat="45.18966" lon="5.78616">
        <ele>208.81</ele>
        <time>2019-04-06T11:02:15.000Z</time>
      </trkpt>
      <trkpt lat="45.18973" lon="5.78571">
        <ele>209.14</ele>
        <time>2019-04-06T11:02:20.000Z</time>
      </trkpt>
      <trkpt lat="45.18979" lon="5.78527">
        <ele>209.72</ele>
        <time>2019-04-06T11:02:25.000Z</time>
      </trkpt>
      <trkpt lat="45.18991" lon="5.78481">
        <ele>210.99</ele>
        <time>2019-04-06T11:02:30.000Z</time>
      </trkpt>
      <trkpt lat="45.18999" lon="5.78441">
        <ele>211.3</ele>
        <time>2019-04-06T11:02:35.000Z</time>
      </trkpt>
      <trkpt lat="45.19011" lon="5.78398">
        <ele>210.94</ele>
        <time>2019-04-06T11:02:40.000Z</time>
      </trkpt>
      <trkpt lat="45.19027" lon="5.78358">
        <ele>213.84</ele>
        <time>2019-04-06T11:02:45.000Z</time>
      </trkpt>
      <trkpt lat="45.19042" lon="5.78317">
        <ele>211.61</ele>
        <time>2019-04-06T11:02:50.000Z</time>
      </trkpt>
      <trkpt lat="45.19057" lon="5.78278">
        <ele>208.51</ele>
        <time>2019-04-06T11:02:55.000Z</time>
      </trkpt>
      <trkpt lat="45.19075" lon="5.78238">
        <ele>207.99</ele>
        <time>2019-04-06T11:03:00.000Z</time>
      </trkpt>
      <trkpt lat="45.19091" lon="5.78194">
        <ele>206.69</ele>
        <time>2019-04-06T11:03:05.000Z</time>
      </trkpt>
      <trkpt lat="45.19114" lon="5.78164">
        <ele>209.21</ele>
        <time>2019-04-06T11:03:10.000Z</time>
      </trkpt>
      <trkpt lat="45.19128" lon="5.78132">
        <ele>207.41</ele>
        <time>2019-04-06T11:03:15.000Z</time>
      </trkpt>
      <trkpt lat="45.19144" lon="5.78093">
        <ele>207.34</ele>
        <time>2019-04-06T11:03:20.000Z</time>
      </trkpt>
      <trkpt lat="45.19167" lon="5.78059">
        <ele>206.99</ele>
        <time>2019-04-06T11:03:25.000Z</time>
      </trkpt>
      <trkpt lat="45.1919" lon="5.78026">
        <ele>205.86</ele>
        <time>2019-04-06T11:03:30.000Z</time>
      </trkpt>
      <trkpt lat="45.19214" lon="5.77997">
        <ele>208.67</ele>
        <time>2019-04-06T11:03:35.000Z</time>
      </trkpt>
      <trkpt lat="45.19241" lon="5.77984">
        <ele>208.18</ele>
        <time>2019-04-06T11:03:40.000Z</time>
      </trkpt>
      <trkpt lat="45.19271" lon="5.77979">
        <ele>208.25</ele>
        <time>2019-04-06T11:03:45.000Z</time>
      </trkpt>
      <trkpt lat="45.19316" lon="5.77978">
        <ele>208.64</ele>
        <time>2019-04-06T11:03:50.000Z</time>
      </trkpt>
      <trkpt lat="45.19342" lon="5.77968">
        <ele>209.61</ele>
        <time>2019-04-06T11:03:55.000Z</time>
      </trkpt>
      <trkpt lat="45.19376" lon="5.77965">
        <ele>208.46</ele>
        <time>2019-04-06T11:04:00.000Z</time>
      </trkpt>
      <trkpt lat="45.19411" lon="5.77962">
        <ele>206.21</ele>
        <time>2019-04-06T11:04:05.000Z</time>
      </trkpt>
      <trkpt lat="45.19444" lon="5.77962">
        <ele>208.15</ele>
        <time>2019-04-06T11:04:10.000Z</time>
      </trkpt>
      <trkpt lat="45.19476" lon="5.77955">
        <ele>209.74</ele>
        <time>2019-04-06T11:04:15.000Z</time>
      </trkpt>
      <trkpt lat="45.19507" lon="5.77944">
        <ele>210.69</ele>
        <time>2019-04-06T11:04:20.000Z</time>
      </trkpt>
      <trkpt lat="45.1954" lon="5.77931">
        <ele>209.91</ele>
        <time>2019-04-06T11:04:25.000Z</time>
      </trkpt>
      <trkpt lat="45.19573" lon="5.77917">
        <ele>212.22</ele>
        <time>2019-04-06T11:04:30.000Z</time>
      </trkpt>
      <trkpt lat="45.19605" lon="5.77904">
        <ele>212.52</ele>
        <time>2019-04-06T11:04:35.000Z</time>
      </trkpt>
      <trkpt lat="45.19637" lon="5.77889">
        <ele>210.86</ele>
        <time>2019-04-06T11:04:40.000Z</time>
      </trkpt>
      <trkpt lat="45.19668" lon="5.77878">
        <ele>210.47</ele>
        <time>2019-04-06T11:04:45.000Z</time>
      </trkpt>
      <trkpt lat="45.197" lon="5.77869">
        <ele>210.46</ele>
        <time>2019-04-06T11:04:50.000Z</time>
      </trkpt>
      <trkpt lat="45.19731" lon="5.77861">
        <ele>209.58</ele>
        <time>2019-04-06T11:04:55.000Z</time>
      </trkpt>
      <trkpt lat="45.19762" lon="5.77849">
        <ele>210.37</ele>
        <time>2019-04-06T11:05:00.000Z</time>
      </trkpt>
      <trkpt lat="45.19791" lon="5.77838">
        <ele>210.54</ele>
        <time>2019-04-06T11:05:05.000Z</time>
      </trkpt>
      <trkpt lat="45.19824" lon="5.77827">
        <ele>211.15</ele>
        <time>2019-04-06T11:05:10.000Z</time>
      </trkpt>
      <trkpt lat="45.19853" lon="5.77813">
        <ele>208.97</ele>
        <time>2019-04-06T11:05:15.000Z</time>
      </trkpt>
      <trkpt lat="45.1988" lon="5.77801">
        <ele>208.2</ele>
        <time>2019-04-06T11:05:20.000Z</time>
      </trkpt>
      <trkpt lat="45.19915" lon="5.77773">
        <ele>207.24</ele>
        <time>2019-04-06T11:05:25.000Z</time>
      </trkpt>
      <trkpt lat="45.19944" lon="5.7775">
        <ele>207.92</ele>
        <time>2019-04-06T11:05:30.000Z</time>
      </trkpt>
      <trkpt lat="45.19971" lon="5.77719">
        <ele>208.25</ele>
        <time>2019-04-06T11:05:35.000Z</time>
      </trkpt>
      <trkpt lat="45.19995" lon="5.77689">
        <ele>206.84</ele>
        <time>2019-04-06T11:05:40.000Z</time>
      </trkpt>
      <trkpt lat="45.20016" lon="5.77655">
        <ele>207.66</ele>
        <time>2019-04-06T11:05:45.000Z</time>
      </trkpt>
      <trkpt lat="45.20031" lon="5.77615">
        <ele>205.35</ele>
        <time>2019-04-06T11:05:50.000Z</time>
      </trkpt>
      <trkpt lat="45.20044" lon="5.77573">
        <ele>206.2</ele>
        <time>2019-04-06T11:05:55.000Z</time>
      </trkpt>
      <trkpt lat="45.20053" lon="5.77527">
        <ele>204.5</ele>
        <time>2019-04-06T11:06:00.000Z</time>
      </trkpt>
      <trkpt lat="45.20054" lon="5.77483">
        <ele>205.35</ele>
        <time>2019-04-06T11:06:05.000Z</time>
      </trkpt>
      <trkpt lat="45.20051" lon="5.77437">
        <ele>205.92</ele>
        <time>2019-04-06T11:06:10.000Z</time>
      </trkpt>
      <trkpt lat="45.20048" lon="5.77393">
        <ele>207.08</ele>
        <time>2019-04-06T11:06:15.000Z</time>
      </trkpt>
      <trkpt lat="45.20039" lon="5.77351">
        <ele>207.99</ele>
        <time>2019-04-06T11:06:20.000Z</time>
      </trkpt>
      <trkpt lat="45.2003" lon="5.77307">
        <ele>209.02</ele>
        <time>2019-04-06T11:06:25.000Z</time>
      </trkpt>
      <trkpt lat="45.20014" lon="5.77269">
        <ele>208.6</ele>
        <time>2019-04-06T11:06:30.000Z</time>
      </trkpt>
      <trkpt lat="45.20003" lon="5.77225">
        <ele>207.08</ele>
        <time>2019-04-06T11:06:35.000Z</time>
      </trkpt>
      <trkpt lat="45.19982" lon="5.77189">
        <ele>209.36</ele>
        <time>2019-04-06T11:06:40.000Z</time>
      </trkpt>
      <trkpt lat="45.19957" lon="5.77156">
        <ele>206.97</ele>
        <time>2019-04-06T11:06:45.000Z</time>
      </trkpt>
      <trkpt lat="45.19933" lon="5.77127">
        <ele>206.94</ele>
        <time>2019-04-06T11:06:50.000Z</time>
      </trkpt>
      <trkpt lat="45.19904" lon="5.7711">
        <ele>208.07</ele>
        <time>2019-04-06T11:06:55.000Z</time>
      </trkpt>
      <trkpt lat="45.19877" lon="5.77091">
        <ele>207.03</ele>
        <time>2019-04-06T11:07:00.000Z</time>
      </trkpt>
      <trkpt lat="45.19851" lon="5.77073">
        <ele>204.77</ele>
        <time>2019-04-06T11:07:05.000Z</time>
      </trkpt>
      <trkpt lat="45.19826" lon="5.7705">
        <ele>207.73</ele>
        <time>2019-04-06T11:07:10.000Z</time>
      </trkpt>
      <trkpt lat="45.19809" lon="5.77025">
        <ele>206.85</ele>
        <time>2019-04-06T11:07:15.000Z</time>
      </trkpt>
      <trkpt lat="45.19793" lon="5.77001">
        <ele>207.61</ele>
        <time>2019-04-06T11:07:20.000Z</time>
      </trkpt>
      <trkpt lat="45.19776" lon="5.76973">
        <ele>207.31</ele>
        <time>2019-04-06T11:07:25.000Z</time>
      </trkpt>
      <trkpt lat="45.19761" lon="5.76941">
        <ele>205.15</ele>
        <time>2019-04-06T11:07:30.000Z</time>
      </trkpt>
      <trkpt lat="45.19745" lon="5.76903">
        <ele>205.89</ele>
        <time>2019-04-06T11:07:35.000Z</time>
      </trkpt>
      <trkpt lat="45.19729" lon="5.76867">
        <ele>206.71</ele>
        <time>2019-04-06T11:07:40.000Z</time>
      </trkpt>
      <trkpt lat="45.19714" lon="5.76829">
        <ele>205.1</ele>
        <time>2019-04-06T11:07:45.000Z</time>
      </trkpt>
      <trkpt lat="45.19696" lon="5.76793">
        <ele>204.53</ele>
        <time>2019-04-06T11:07:50.000Z</time>
      </trkpt>
      <trkpt lat="45.19679" lon="5.76755">
        <ele>206.63</ele>
        <time>2019-04-06T11:07:55.000Z</time>
      </trkpt>
      <trkpt lat="45.19662" lon="5.76717">
        <ele>207.39</ele>
        <time>2019-04-06T11:08:00.000Z</time>
      </trkpt>
      <trkpt lat="45.19647" lon="5.76683">
        <ele>205.77</ele>
        <time>2019-04-06T11:08:05.000Z</time>
      </trkpt>
      <trkpt lat="45.19629" lon="5.76644">
        <ele>203.44</ele>
        <time>2019-04-06T11:08:10.000Z</time>
      </trkpt>
      <trkpt lat="45.19611" lon="5.76605">
        <ele>203.76</ele>
        <time>2019-04-06T11:08:15.000Z</time>
      </trkpt>
      <trkpt lat="45.19597" lon="5.76563">
        <ele>203.44</ele>
        <time>2019-04-06T11:08:20.000Z</time>
      </trkpt>
      <trkpt lat="45.19586" lon="5.7652">
        <ele>205.45</ele>
        <time>2019-04-06T11:08:25.000Z</time>
      </trkpt>
      <trkpt lat="45.19575" lon="5.76478">
        <ele>207.19</ele>
        <time>2019-04-06T11:08:30.000Z</time>
      </trkpt>
      <trkpt lat="45.19567" lon="5.76434">
        <ele>207.84</ele>
        <time>2019-04-06T11:08:35.000Z</time>
      </trkpt>
      <trkpt lat="45.1956" lon="5.76389">
        <ele>208.87</ele>
        <time>2019-04-06T11:08:40.000Z</time>
      </trkpt>
      <trkpt lat="45.19554" lon="5.76345">
        <ele>207.76</ele>
        <time>2019-04-06T11:08:45.000Z</time>
      </trkpt>
      <trkpt lat="45.1955" lon="5.763">
        <ele>207.41</ele>
        <time>2019-04-06T11:08:50.000Z</time>
      </trkpt>
      <trkpt lat="45.19543" lon="5.76253">
        <ele>211.34</ele>
        <time>2019-04-06T11:08:55.000Z</time>
      </trkpt>
      <trkpt lat="45.19543" lon="5.76207">
        <ele>211.21</ele>
        <time>2019-04-06T11:09:00.000Z</time>
      </trkpt>
      <trkpt lat="45.19544" lon="5.76163">
        <ele>211.57</ele>
        <time>2019-04-06T11:09:05.000Z</time>
      </trkpt>
      <trkpt lat="45.19547" lon="5.76118">
        <ele>212.01</ele>
        <time>2019-04-06T11:09:10.000Z</time>
      </trkpt>
      <trkpt lat="45.1955" lon="5.76071">
        <ele>211.73</ele>
        <time>2019-04-06T11:09:15.000Z</time>
      </trkpt>
      <trkpt lat="45.19557" lon="5.76027">
        <ele>212.58</ele>
        <time>2019-04-06T11:09:20.000Z</time>
      </trkpt>
      <trkpt lat="45.19565" lon="5.75983">
        <ele>210.82</ele>
        <time>2019-04-06T11:09:25.000Z</time>
      </trkpt>
      <trkpt lat="45.19576" lon="5.75939">
        <ele>210.19</ele>
        <time>2019-04-06T11:09:30.000Z</time>
      </trkpt>
      <trkpt lat="45.19587" lon="5.75895">
        <ele>208.22</ele>
        <time>2019-04-06T11:09:35.000Z</time>
      </trkpt>
      <trkpt lat="45.19597" lon="5.75853">
        <ele>206.37</ele>
        <time>2019-04-06T11:09:40.000Z</time>
      </trkpt>
      <trkpt lat="45.19609" lon="5.75814">
        <ele>208.51</ele>
        <time>2019-04-06T11:09:45.000Z</time>
      </trkpt>
      <trkpt lat="45.19629" lon="5.7578">
        <ele>208.85</ele>
        <time>2019-04-06T11:09:50.000Z</time>
      </trkpt>
      <trkpt lat="45.19649" lon="5.75745">
        <ele>208.18</ele>
        <time>2019-04-06T11:09:55.000Z</time>
      </trkpt>
      <trkpt lat="45.19666" lon="5.75711">
        <ele>207.2</ele>
        <time>2019-04-06T11:10:00.000Z</time>
      </trkpt>
      <trkpt lat="45.19685" lon="5.75672">
        <ele>204.47</ele>
        <time>2019-04-06T11:10:05.000Z</time>
      </trkpt>
      <trkpt lat="45.1969" lon="5.7563">
        <ele>206.07</ele>
        <time>2019-04-06T11:10:10.000Z</time>
      </trkpt>
      <trkpt lat="45.19689" lon="5.75585">
        <ele>203.83</ele>
        <time>2019-04-06T11:10:15.000Z</time>
      </trkpt>
      <trkpt lat="45.19686" lon="5.7554">
        <ele>202.83</ele>
        <time>2019-04-06T11:10:20.000Z</time>
      </trkpt>
      <trkpt lat="45.19675" lon="5.75497">
        <ele>203.54</ele>
        <time>2019-04-06T11:10:25.000Z</time>
      </trkpt>
      <trkpt lat="45.19652" lon="5.75476">
        <ele>202.48</ele>
        <time>2019-04-06T11:10:30.000Z</time>
      </trkpt>
      <trkpt lat="45.19627" lon="5.75469">
        <ele>203.19</ele>
        <time>2019-04-06T11:10:35.000Z</time>
      </trkpt>
      <trkpt lat="45.19604" lon="5.75457">
        <ele>203.6</ele>
        <time>2019-04-06T11:10:40.000Z</time>
      </trkpt>
      <trkpt lat="45.19581" lon="5.75435">
        <ele>208.61</ele>
        <time>2019-04-06T11:10:45.000Z</time>
      </trkpt>
      <trkpt lat="45.19562" lon="5.75415">
        <ele>209.45</ele>
        <time>2019-04-06T11:10:50.000Z</time>
      </trkpt>
      <trkpt lat="45.1954" lon="5.75398">
        <ele>211.08</ele>
        <time>2019-04-06T11:10:55.000Z</time>
      </trkpt>
      <trkpt lat="45.19516" lon="5.7539">
        <ele>214.38</ele>
        <time>2019-04-06T11:11:00.000Z</time>
      </trkpt>
      <trkpt lat="45.19497" lon="5.75376">
        <ele>213.28</ele>
        <time>2019-04-06T11:11:05.000Z</time>
      </trkpt>
      <trkpt lat="45.19474" lon="5.75365">
        <ele>211.87</ele>
        <time>2019-04-06T11:11:10.000Z</time>
      </trkpt>
      <trkpt lat="45.19447" lon="5.75354">
        <ele>210.79</ele>
        <time>2019-04-06T11:11:15.000Z</time>
      </trkpt>
      <trkpt lat="45.1942" lon="5.75346">
        <ele>210.29</ele>
        <time>2019-04-06T11:11:20.000Z</time>
      </trkpt>
      <trkpt lat="45.19392" lon="5.7534">
        <ele>212.42</ele>
        <time>2019-04-06T11:11:25.000Z</time>
      </trkpt>
      <trkpt lat="45.19363" lon="5.7533">
        <ele>210.23</ele>
        <time>2019-04-06T11:11:30.000Z</time>
      </trkpt>
      <trkpt lat="45.19333" lon="5.75323">
        <ele>210.96</ele>
        <time>2019-04-06T11:11:35.000Z</time>
      </trkpt>
      <trkpt lat="45.19302" lon="5.75315">
        <ele>210.99</ele>
        <time>2019-04-06T11:11:40.000Z</time>
      </trkpt>
      <trkpt lat="45.1927" lon="5.7531">
        <ele>211.98</ele>
        <time>2019-04-06T11:11:45.000Z</time>
      </trkpt>
      <trkpt lat="45.19239" lon="5.75299">
        <ele>210.29</ele>
        <time>2019-04-06T11:11:50.000Z</time>
      </trkpt>
      <trkpt lat="45.1921" lon="5.7528">
        <ele>208.22</ele>
        <time>2019-04-06T11:11:55.000Z</time>
      </trkpt>
      <trkpt lat="45.1918" lon="5.75269">
        <ele>209.06</ele>
        <time>2019-04-06T11:12:00.000Z</time>
      </trkpt>
      <trkpt lat="45.1915" lon="5.7526">
        <ele>210.81</ele>
        <time>2019-04-06T11:12:05.000Z</time>
      </trkpt>
      <trkpt lat="45.19118" lon="5.75241">
        <ele>211.65</ele>
        <time>2019-04-06T11:12:10.000Z</time>
      </trkpt>
      <trkpt lat="45.19088" lon="5.75228">
        <ele>212.61</ele>
        <time>2019-04-06T11:12:15.000Z</time>
      </trkpt>
      <trkpt lat="45.19061" lon="5.75214">
        <ele>212.74</ele>
        <time>2019-04-06T11:12:20.000Z</time>
      </trkpt>
      <trkpt lat="45.19031" lon="5.75201">
        <ele>213.64</ele>
        <time>2019-04-06T11:12:25.000Z</time>
      </trkpt>
      <trkpt lat="45.19001" lon="5.75186">
        <ele>212.06</ele>
        <time>2019-04-06T11:12:30.000Z</time>
      </trkpt>
      <trkpt lat="45.18972" lon="5.75164">
        <ele>212.17</ele>
        <time>2019-04-06T11:12:35.000Z</time>
      </trkpt>
      <trkpt lat="45.18944" lon="5.75139">
        <ele>212.69</ele>
        <time>2019-04-06T11:12:40.000Z</time>
      </trkpt>
      <trkpt lat="45.18922" lon="5.75107">
        <ele>210.57</ele>
        <time>2019-04-06T11:12:45.000Z</time>
      </trkpt>
      <trkpt lat="45.189" lon="5.75076">
        <ele>211.39</ele>
        <time>2019-04-06T11:12:50.000Z</time>
      </trkpt>
      <trkpt lat="45.18883" lon="5.75035">
        <ele>210.98</ele>
        <time>2019-04-06T11:12:55.000Z</time>
      </trkpt>
      <trkpt lat="45.1887" lon="5.74996">
        <ele>203.56</ele>
        <time>2019-04-06T11:13:00.000Z</time>
      </trkpt>
      <trkpt lat="45.18859" lon="5.74953">
        <ele>203.83</ele>
        <time>2019-04-06T11:13:05.000Z</time>
      </trkpt>
      <trkpt lat="45.18852" lon="5.74911">
        <ele>201.62</ele>
        <time>2019-04-06T11:13:10.000Z</time>
      </trkpt>
      <trkpt lat="45.18848" lon="5.74862">
        <ele>202.29</ele>
        <time>2019-04-06T11:13:15.000Z</time>
      </trkpt>
      <trkpt lat="45.18844" lon="5.74822">
        <ele>202.63</ele>
        <time>2019-04-06T11:13:20.000Z</time>
      </trkpt>
      <trkpt lat="45.18841" lon="5.74775">
        <ele>202.92</ele>
        <time>2019-04-06T11:13:25.000Z</time>
      </trkpt>
      <trkpt lat="45.18842" lon="5.74729">
        <ele>205.04</ele>
        <time>2019-04-06T11:13:30.000Z</time>
      </trkpt>
      <trkpt lat="45.18838" lon="5.74688">
        <ele>210.36</ele>
        <time>2019-04-06T11:13:35.000Z</time>
      </trkpt>
      <trkpt lat="45.18842" lon="5.74644">
        <ele>210.49</ele>
        <time>2019-04-06T11:13:40.000Z</time>
      </trkpt>
      <trkpt lat="45.18844" lon="5.74599">
        <ele>209.27</ele>
        <time>2019-04-06T11:13:45.000Z</time>
      </trkpt>
      <trkpt lat="45.18849" lon="5.74554">
        <ele>208.87</ele>
        <time>2019-04-06T11:13:50.000Z</time>
      </trkpt>
      <trkpt lat="45.18857" lon="5.74506">
        <ele>210.7</ele>
        <time>2019-04-06T11:13:55.000Z</time>
      </trkpt>
      <trkpt lat="45.18871" lon="5.7446">
        <ele>211.47</ele>
        <time>2019-04-06T11:14:00.000Z</time>
      </trkpt>
      <trkpt lat="45.18884" lon="5.74417">
        <ele>212.92</ele>
        <time>2019-04-06T11:14:05.000Z</time>
      </trkpt>
      <trkpt lat="45.18897" lon="5.74377">
        <ele>211</ele>
        <time>2019-04-06T11:14:10.000Z</time>
      </trkpt>
      <trkpt lat="45.18912" lon="5.74334">
        <ele>209.57</ele>
        <time>2019-04-06T11:14:15.000Z</time>
      </trkpt>
      <trkpt lat="45.1893" lon="5.74294">
        <ele>210.51</ele>
        <time>2019-04-06T11:14:20.000Z</time>
      </trkpt>
      <trkpt lat="45.1895" lon="5.74258">
        <ele>207.68</ele>
        <time>2019-04-06T11:14:25.000Z</time>
      </trkpt>
      <trkpt lat="45.18982" lon="5.74211">
        <ele>208.15</ele>
        <time>2019-04-06T11:14:32.000Z</time>
      </trkpt>
      <trkpt lat="45.19009" lon="5.74191">
        <ele>208.29</ele>
        <time>2019-04-06T11:14:37.000Z</time>
      </trkpt>
      <trkpt lat="45.19037" lon="5.74173">
        <ele>209.8</ele>
        <time>2019-04-06T11:14:42.000Z</time>
      </trkpt>
      <trkpt lat="45.19064" lon="5.74156">
        <ele>209.93</ele>
        <time>2019-04-06T11:14:47.000Z</time>
      </trkpt>
      <trkpt lat="45.19094" lon="5.74143">
        <ele>211.07</ele>
        <time>2019-04-06T11:14:52.000Z</time>
      </trkpt>
      <trkpt lat="45.19121" lon="5.7413">
        <ele>211.1</ele>
        <time>2019-04-06T11:14:57.000Z</time>
      </trkpt>
      <trkpt lat="45.19151" lon="5.74117">
        <ele>210.11</ele>
        <time>2019-04-06T11:15:02.000Z</time>
      </trkpt>
      <trkpt lat="45.19172" lon="5.74113">
        <ele>212.73</ele>
        <time>2019-04-06T11:15:07.000Z</time>
      </trkpt>
      <trkpt lat="45.19194" lon="5.74126">
        <ele>212.93</ele>
        <time>2019-04-06T11:15:12.000Z</time>
      </trkpt>
      <trkpt lat="45.19213" lon="5.74131">
        <ele>212.11</ele>
        <time>2019-04-06T11:15:17.000Z</time>
      </trkpt>
      <trkpt lat="45.19238" lon="5.74139">
        <ele>211.39</ele>
        <time>2019-04-06T11:15:22.000Z</time>
      </trkpt>
      <trkpt lat="45.19269" lon="5.74143">
        <ele>212</ele>
        <time>2019-04-06T11:15:27.000Z</time>
      </trkpt>
      <trkpt lat="45.19293" lon="5.74154">
        <ele>213.22</ele>
        <time>2019-04-06T11:15:32.000Z</time>
      </trkpt>
      <trkpt lat="45.19324" lon="5.74155">
        <ele>214.82</ele>
        <time>2019-04-06T11:15:37.000Z</time>
      </trkpt>
      <trkpt lat="45.19354" lon="5.74161">
        <ele>211.48</ele>
        <time>2019-04-06T11:15:42.000Z</time>
      </trkpt>
      <trkpt lat="45.1939" lon="5.74173">
        <ele>208.49</ele>
        <time>2019-04-06T11:15:47.000Z</time>
      </trkpt>
      <trkpt lat="45.19418" lon="5.7418">
        <ele>211.43</ele>
        <time>2019-04-06T11:15:52.000Z</time>
      </trkpt>
      <trkpt lat="45.19448" lon="5.74188">
        <ele>213.35</ele>
        <time>2019-04-06T11:15:57.000Z</time>
      </trkpt>
      <trkpt lat="45.19478" lon="5.74196">
        <ele>213.31</ele>
        <time>2019-04-06T11:16:02.000Z</time>
      </trkpt>
      <trkpt lat="45.19508" lon="5.74208">
        <ele>215.7</ele>
        <time>2019-04-06T11:16:07.000Z</time>
      </trkpt>
      <trkpt lat="45.19538" lon="5.74224">
        <ele>213.96</ele>
        <time>2019-04-06T11:16:12.000Z</time>
      </trkpt>
      <trkpt lat="45.19566" lon="5.74235">
        <ele>212.52</ele>
        <time>2019-04-06T11:16:17.000Z</time>
      </trkpt>
      <trkpt lat="45.19596" lon="5.74241">
        <ele>212.47</ele>
        <time>2019-04-06T11:16:22.000Z</time>
      </trkpt>
      <trkpt lat="45.19627" lon="5.74243">
        <ele>215.8</ele>
        <time>2019-04-06T11:16:27.000Z</time>
      </trkpt>
      <trkpt lat="45.19658" lon="5.74245">
        <ele>214.16</ele>
        <time>2019-04-06T11:16:32.000Z</time>
      </trkpt>
      <trkpt lat="45.19694" lon="5.74247">
        <ele>212.06</ele>
        <time>2019-04-06T11:16:37.000Z</time>
      </trkpt>
      <trkpt lat="45.19728" lon="5.74243">
        <ele>211.45</ele>
        <time>2019-04-06T11:16:42.000Z</time>
      </trkpt>
      <trkpt lat="45.19764" lon="5.74244">
        <ele>212.48</ele>
        <time>2019-04-06T11:16:47.000Z</time>
      </trkpt>
      <trkpt lat="45.19791" lon="5.74238">
        <ele>211.56</ele>
        <time>2019-04-06T11:16:52.000Z</time>
      </trkpt>
      <trkpt lat="45.19817" lon="5.74236">
        <ele>210.48</ele>
        <time>2019-04-06T11:16:57.000Z</time>
      </trkpt>
      <trkpt lat="45.19853" lon="5.74219">
        <ele>207.48</ele>
        <time>2019-04-06T11:17:02.000Z</time>
      </trkpt>
      <trkpt lat="45.19885" lon="5.74208">
        <ele>208.68</ele>
        <time>2019-04-06T11:17:07.000Z</time>
      </trkpt>
      <trkpt lat="45.19915" lon="5.74184">
        <ele>210.08</ele>
        <time>2019-04-06T11:17:12.000Z</time>
      </trkpt>
      <trkpt lat="45.19944" lon="5.74159">
        <ele>207.43</ele>
        <time>2019-04-06T11:17:17.000Z</time>
      </trkpt>
      <trkpt lat="45.19972" lon="5.74132">
        <ele>212.8</ele>
        <time>2019-04-06T11:17:22.000Z</time>
      </trkpt>
      <trkpt lat="45.19988" lon="5.74109">
        <ele>208.09</ele>
        <time>2019-04-06T11:17:27.000Z</time>
      </trkpt>
      <trkpt lat="45.20003" lon="5.74092">
        <ele>209.42</ele>
        <time>2019-04-06T11:17:32.000Z</time>
      </trkpt>
      <trkpt lat="45.20011" lon="5.74077">
        <ele>211.17</ele>
        <time>2019-04-06T11:17:37.000Z</time>
      </trkpt>
      <trkpt lat="45.20023" lon="5.74083">
        <ele>210.03</ele>
        <time>2019-04-06T11:17:42.000Z</time>
      </trkpt>
      <trkpt lat="45.20039" lon="5.74105">
        <ele>210.08</ele>
        <time>2019-04-06T11:17:47.000Z</time>
      </trkpt>
      <trkpt lat="45.20056" lon="5.74126">
        <ele>210.81</ele>
        <time>2019-04-06T11:17:52.000Z</time>
      </trkpt>
      <trkpt lat="45.20071" lon="5.74148">
        <ele>210.88</ele>
        <time>2019-04-06T11:17:57.000Z</time>
      </trkpt>
      <trkpt lat="45.20085" lon="5.74166">
        <ele>211.11</ele>
        <time>2019-04-06T11:18:02.000Z</time>
      </trkpt>
      <trkpt lat="45.20098" lon="5.74182">
        <ele>209.99</ele>
        <time>2019-04-06T11:18:07.000Z</time>
      </trkpt>
      <trkpt lat="45.20113" lon="5.74193">
        <ele>209.56</ele>
        <time>2019-04-06T11:18:12.000Z</time>
      </trkpt>
      <trkpt lat="45.20127" lon="5.74173">
        <ele>209.94</ele>
        <time>2019-04-06T11:18:17.000Z</time>
      </trkpt>
      <trkpt lat="45.20147" lon="5.74146">
        <ele>207.75</ele>
        <time>2019-04-06T11:18:22.000Z</time>
      </trkpt>
      <trkpt lat="45.20168" lon="5.74117">
        <ele>205.22</ele>
        <time>2019-04-06T11:18:27.000Z</time>
      </trkpt>
      <trkpt lat="45.20198" lon="5.74079">
        <ele>205.69</ele>
        <time>2019-04-06T11:18:32.000Z</time>
      </trkpt>
      <trkpt lat="45.20214" lon="5.74037">
        <ele>206.49</ele>
        <time>2019-04-06T11:18:37.000Z</time>
      </trkpt>
      <trkpt lat="45.20226" lon="5.73995">
        <ele>206.67</ele>
        <time>2019-04-06T11:18:42.000Z</time>
      </trkpt>
      <trkpt lat="45.20236" lon="5.73958">
        <ele>204.74</ele>
        <time>2019-04-06T11:18:47.000Z</time>
      </trkpt>
      <trkpt lat="45.20245" lon="5.7392">
        <ele>204.51</ele>
        <time>2019-04-06T11:18:52.000Z</time>
      </trkpt>
      <trkpt lat="45.20253" lon="5.73885">
        <ele>206.71</ele>
        <time>2019-04-06T11:18:57.000Z</time>
      </trkpt>
      <trkpt lat="45.20258" lon="5.73848">
        <ele>210.26</ele>
        <time>2019-04-06T11:19:02.000Z</time>
      </trkpt>
      <trkpt lat="45.20266" lon="5.73814">
        <ele>212.29</ele>
        <time>2019-04-06T11:19:07.000Z</time>
      </trkpt>
      <trkpt lat="45.2027" lon="5.7378">
        <ele>212.94</ele>
        <time>2019-04-06T11:19:12.000Z</time>
      </trkpt>
      <trkpt lat="45.20267" lon="5.73732">
        <ele>211.21</ele>
        <time>2019-04-06T11:19:17.000Z</time>
      </trkpt>
      <trkpt lat="45.20263" lon="5.73682">
        <ele>208.32</ele>
        <time>2019-04-06T11:19:22.000Z</time>
      </trkpt>
      <trkpt lat="45.20253" lon="5.73642">
        <ele>208.09</ele>
        <time>2019-04-06T11:19:27.000Z</time>
      </trkpt>
      <trkpt lat="45.20244" lon="5.73609">
        <ele>204.83</ele>
        <time>2019-04-06T11:19:32.000Z</time>
      </trkpt>
      <trkpt lat="45.20247" lon="5.73582">
        <ele>205.87</ele>
        <time>2019-04-06T11:19:37.000Z</time>
      </trkpt>
      <trkpt lat="45.2026" lon="5.73572">
        <ele>205.71</ele>
        <time>2019-04-06T11:19:42.000Z</time>
      </trkpt>
      <trkpt lat="45.20271" lon="5.73559">
        <ele>207.83</ele>
        <time>2019-04-06T11:19:47.000Z</time>
      </trkpt>
      <trkpt lat="45.20282" lon="5.73555">
        <ele>208.67</ele>
        <time>2019-04-06T11:19:52.000Z</time>
      </trkpt>
      <trkpt lat="45.20297" lon="5.73569">
        <ele>207.91</ele>
        <time>2019-04-06T11:19:57.000Z</time>
      </trkpt>
      <trkpt lat="45.20309" lon="5.73588">
        <ele>209.19</ele>
        <time>2019-04-06T11:20:02.000Z</time>
      </trkpt>
      <trkpt lat="45.20321" lon="5.7361">
        <ele>209.32</ele>
        <time>2019-04-06T11:20:07.000Z</time>
      </trkpt>
      <trkpt lat="45.20335" lon="5.73628">
        <ele>205</ele>
        <time>2019-04-06T11:20:12.000Z</time>
      </trkpt>
      <trkpt lat="45.20349" lon="5.73649">
        <ele>204.38</ele>
        <time>2019-04-06T11:20:17.000Z</time>
      </trkpt>
      <trkpt lat="45.20367" lon="5.73672">
        <ele>207.04</ele>
        <time>2019-04-06T11:20:22.000Z</time>
      </trkpt>
      <trkpt lat="45.20384" lon="5.73691">
        <ele>208.82</ele>
        <time>2019-04-06T11:20:27.000Z</time>
      </trkpt>
      <trkpt lat="45.20404" lon="5.7371">
        <ele>209.31</ele>
        <time>2019-04-06T11:20:32.000Z</time>
      </trkpt>
      <trkpt lat="45.20419" lon="5.73736">
        <ele>209.41</ele>
        <time>2019-04-06T11:20:37.000Z</time>
      </trkpt>
      <trkpt lat="45.20437" lon="5.73755">
        <ele>208.38</ele>
        <time>2019-04-06T11:20:42.000Z</time>
      </trkpt>
      <trkpt lat="45.20454" lon="5.73778">
        <ele>209.71</ele>
        <time>2019-04-06T11:20:47.000Z</time>
      </trkpt>
      <trkpt lat="45.20472" lon="5.73801">
        <ele>211.89</ele>
        <time>2019-04-06T11:20:52.000Z</time>
      </trkpt>
      <trkpt lat="45.20486" lon="5.73824">
        <ele>212.52</ele>
        <time>2019-04-06T11:20:57.000Z</time>
      </trkpt>
      <trkpt lat="45.20504" lon="5.73841">
        <ele>214.1</ele>
        <time>2019-04-06T11:21:02.000Z</time>
      </trkpt>
      <trkpt lat="45.2052" lon="5.73861">
        <ele>215.22</ele>
        <time>2019-04-06T11:21:07.000Z</time>
      </trkpt>
      <trkpt lat="45.20534" lon="5.73882">
        <ele>216.75</ele>
        <time>2019-04-06T11:21:12.000Z</time>
      </trkpt>
      <trkpt lat="45.20544" lon="5.73899">
        <ele>218.96</ele>
        <time>2019-04-06T11:21:17.000Z</time>
      </trkpt>
      <trkpt lat="45.20559" lon="5.73915">
        <ele>218.84</ele>
        <time>2019-04-06T11:21:22.000Z</time>
      </trkpt>
      <trkpt lat="45.20577" lon="5.73927">
        <ele>220.64</ele>
        <time>2019-04-06T11:21:27.000Z</time>
      </trkpt>
      <trkpt lat="45.20589" lon="5.73944">
        <ele>220.42</ele>
        <time>2019-04-06T11:21:32.000Z</time>
      </trkpt>
      <trkpt lat="45.206" lon="5.73962">
        <ele>223.76</ele>
        <time>2019-04-06T11:21:37.000Z</time>
      </trkpt>
      <trkpt lat="45.20614" lon="5.73978">
        <ele>226.46</ele>
        <time>2019-04-06T11:21:42.000Z</time>
      </trkpt>
      <trkpt lat="45.20628" lon="5.73992">
        <ele>224.84</ele>
        <time>2019-04-06T11:21:47.000Z</time>
      </trkpt>
      <trkpt lat="45.20644" lon="5.74006">
        <ele>226.08</ele>
        <time>2019-04-06T11:21:52.000Z</time>
      </trkpt>
      <trkpt lat="45.2066" lon="5.74023">
        <ele>228.42</ele>
        <time>2019-04-06T11:21:57.000Z</time>
      </trkpt>
      <trkpt lat="45.20674" lon="5.74041">
        <ele>231.12</ele>
        <time>2019-04-06T11:22:02.000Z</time>
      </trkpt>
      <trkpt lat="45.2069" lon="5.74059">
        <ele>234.34</ele>
        <time>2019-04-06T11:22:07.000Z</time>
      </trkpt>
      <trkpt lat="45.20707" lon="5.74076">
        <ele>231.85</ele>
        <time>2019-04-06T11:22:12.000Z</time>
      </trkpt>
      <trkpt lat="45.20719" lon="5.74095">
        <ele>235.17</ele>
        <time>2019-04-06T11:22:17.000Z</time>
      </trkpt>
      <trkpt lat="45.20734" lon="5.74112">
        <ele>239.4</ele>
        <time>2019-04-06T11:22:22.000Z</time>
      </trkpt>
      <trkpt lat="45.20747" lon="5.74127">
        <ele>242.1</ele>
        <time>2019-04-06T11:22:27.000Z</time>
      </trkpt>
      <trkpt lat="45.20761" lon="5.7414">
        <ele>244.35</ele>
        <time>2019-04-06T11:22:32.000Z</time>
      </trkpt>
      <trkpt lat="45.20774" lon="5.74155">
        <ele>248.94</ele>
        <time>2019-04-06T11:22:37.000Z</time>
      </trkpt>
      <trkpt lat="45.20787" lon="5.7417">
        <ele>250.58</ele>
        <time>2019-04-06T11:22:42.000Z</time>
      </trkpt>
      <trkpt lat="45.20803" lon="5.74178">
        <ele>252.84</ele>
        <time>2019-04-06T11:22:47.000Z</time>
      </trkpt>
      <trkpt lat="45.20818" lon="5.74181">
        <ele>256.31</ele>
        <time>2019-04-06T11:22:52.000Z</time>
      </trkpt>
      <trkpt lat="45.20831" lon="5.74193">
        <ele>259.79</ele>
        <time>2019-04-06T11:22:57.000Z</time>
      </trkpt>
      <trkpt lat="45.20847" lon="5.74202">
        <ele>259.93</ele>
        <time>2019-04-06T11:23:02.000Z</time>
      </trkpt>
      <trkpt lat="45.20864" lon="5.74209">
        <ele>263.52</ele>
        <time>2019-04-06T11:23:07.000Z</time>
      </trkpt>
      <trkpt lat="45.20884" lon="5.74217">
        <ele>263.55</ele>
        <time>2019-04-06T11:23:12.000Z</time>
      </trkpt>
      <trkpt lat="45.20903" lon="5.74228">
        <ele>261.23</ele>
        <time>2019-04-06T11:23:17.000Z</time>
      </trkpt>
      <trkpt lat="45.20919" lon="5.74245">
        <ele>263.76</ele>
        <time>2019-04-06T11:23:22.000Z</time>
      </trkpt>
      <trkpt lat="45.20931" lon="5.74266">
        <ele>266.1</ele>
        <time>2019-04-06T11:23:27.000Z</time>
      </trkpt>
      <trkpt lat="45.2094" lon="5.74289">
        <ele>268.71</ele>
        <time>2019-04-06T11:23:32.000Z</time>
      </trkpt>
      <trkpt lat="45.2095" lon="5.74309">
        <ele>272.2</ele>
        <time>2019-04-06T11:23:37.000Z</time>
      </trkpt>
      <trkpt lat="45.20956" lon="5.74337">
        <ele>273.35</ele>
        <time>2019-04-06T11:23:42.000Z</time>
      </trkpt>
      <trkpt lat="45.20967" lon="5.74359">
        <ele>274.98</ele>
        <time>2019-04-06T11:23:47.000Z</time>
      </trkpt>
      <trkpt lat="45.20979" lon="5.74376">
        <ele>275.66</ele>
        <time>2019-04-06T11:23:52.000Z</time>
      </trkpt>
      <trkpt lat="45.2099" lon="5.74394">
        <ele>272.79</ele>
        <time>2019-04-06T11:23:57.000Z</time>
      </trkpt>
      <trkpt lat="45.21" lon="5.74414">
        <ele>274.84</ele>
        <time>2019-04-06T11:24:02.000Z</time>
      </trkpt>
      <trkpt lat="45.21004" lon="5.74438">
        <ele>274.58</ele>
        <time>2019-04-06T11:24:07.000Z</time>
      </trkpt>
      <trkpt lat="45.21015" lon="5.74461">
        <ele>275.75</ele>
        <time>2019-04-06T11:24:12.000Z</time>
      </trkpt>
      <trkpt lat="45.2103" lon="5.74478">
        <ele>280.37</ele>
        <time>2019-04-06T11:24:17.000Z</time>
      </trkpt>
      <trkpt lat="45.21046" lon="5.74494">
        <ele>281.77</ele>
        <time>2019-04-06T11:24:22.000Z</time>
      </trkpt>
      <trkpt lat="45.21062" lon="5.74508">
        <ele>286.19</ele>
        <time>2019-04-06T11:24:27.000Z</time>
      </trkpt>
      <trkpt lat="45.21078" lon="5.74528">
        <ele>289.8</ele>
        <time>2019-04-06T11:24:32.000Z</time>
      </trkpt>
      <trkpt lat="45.2109" lon="5.74552">
        <ele>290.59</ele>
        <time>2019-04-06T11:24:37.000Z</time>
      </trkpt>
      <trkpt lat="45.21104" lon="5.74573">
        <ele>291.84</ele>
        <time>2019-04-06T11:24:42.000Z</time>
      </trkpt>
      <trkpt lat="45.21114" lon="5.74602">
        <ele>293.71</ele>
        <time>2019-04-06T11:24:47.000Z</time>
      </trkpt>
      <trkpt lat="45.21123" lon="5.74621">
        <ele>296.99</ele>
        <time>2019-04-06T11:24:52.000Z</time>
      </trkpt>
      <trkpt lat="45.21131" lon="5.74638">
        <ele>295.79</ele>
        <time>2019-04-06T11:24:57.000Z</time>
      </trkpt>
      <trkpt lat="45.21139" lon="5.74651">
        <ele>296.73</ele>
        <time>2019-04-06T11:25:02.000Z</time>
      </trkpt>
      <trkpt lat="45.21151" lon="5.74658">
        <ele>295.35</ele>
        <time>2019-04-06T11:25:07.000Z</time>
      </trkpt>
      <trkpt lat="45.21166" lon="5.74668">
        <ele>298.8</ele>
        <time>2019-04-06T11:25:12.000Z</time>
      </trkpt>
      <trkpt lat="45.21181" lon="5.74677">
        <ele>298.01</ele>
        <time>2019-04-06T11:25:17.000Z</time>
      </trkpt>
      <trkpt lat="45.21198" lon="5.74687">
        <ele>297.02</ele>
        <time>2019-04-06T11:25:22.000Z</time>
      </trkpt>
      <trkpt lat="45.21209" lon="5.74697">
        <ele>296.93</ele>
        <time>2019-04-06T11:25:27.000Z</time>
      </trkpt>
      <trkpt lat="45.21232" lon="5.747">
        <ele>299.14</ele>
        <time>2019-04-06T11:25:32.000Z</time>
      </trkpt>
      <trkpt lat="45.2125" lon="5.74701">
        <ele>302.45</ele>
        <time>2019-04-06T11:25:37.000Z</time>
      </trkpt>
      <trkpt lat="45.21264" lon="5.74706">
        <ele>304.93</ele>
        <time>2019-04-06T11:25:42.000Z</time>
      </trkpt>
      <trkpt lat="45.21276" lon="5.74712">
        <ele>307.21</ele>
        <time>2019-04-06T11:25:47.000Z</time>
      </trkpt>
      <trkpt lat="45.21288" lon="5.74718">
        <ele>305.24</ele>
        <time>2019-04-06T11:25:52.000Z</time>
      </trkpt>
      <trkpt lat="45.21298" lon="5.74727">
        <ele>303.98</ele>
        <time>2019-04-06T11:25:57.000Z</time>
      </trkpt>
      <trkpt lat="45.21318" lon="5.74737">
        <ele>301.81</ele>
        <time>2019-04-06T11:26:02.000Z</time>
      </trkpt>
      <trkpt lat="45.21338" lon="5.7474">
        <ele>305.23</ele>
        <time>2019-04-06T11:26:07.000Z</time>
      </trkpt>
      <trkpt lat="45.21356" lon="5.74744">
        <ele>307.73</ele>
        <time>2019-04-06T11:26:12.000Z</time>
      </trkpt>
      <trkpt lat="45.21373" lon="5.74751">
        <ele>311.45</ele>
        <time>2019-04-06T11:26:17.000Z</time>
      </trkpt>
      <trkpt lat="45.21392" lon="5.74757">
        <ele>313.14</ele>
        <time>2019-04-06T11:26:22.000Z</time>
      </trkpt>
      <trkpt lat="45.21408" lon="5.74761">
        <ele>314.18</ele>
        <time>2019-04-06T11:26:27.000Z</time>
      </trkpt>
      <trkpt lat="45.21422" lon="5.7476">
        <ele>314.76</ele>
        <time>2019-04-06T11:26:32.000Z</time>
      </trkpt>
      <trkpt lat="45.21436" lon="5.74768">
        <ele>314.73</ele>
        <time>2019-04-06T11:26:37.000Z</time>
      </trkpt>
      <trkpt lat="45.21448" lon="5.74784">
        <ele>312.17</ele>
        <time>2019-04-06T11:26:42.000Z</time>
      </trkpt>
      <trkpt lat="45.2146" lon="5.74803">
        <ele>314.04</ele>
        <time>2019-04-06T11:26:47.000Z</time>
      </trkpt>
      <trkpt lat="45.21472" lon="5.74823">
        <ele>316.4</ele>
        <time>2019-04-06T11:26:52.000Z</time>
      </trkpt>
      <trkpt lat="45.21486" lon="5.74834">
        <ele>320.35</ele>
        <time>2019-04-06T11:26:57.000Z</time>
      </trkpt>
      <trkpt lat="45.21499" lon="5.74839">
        <ele>322.48</ele>
        <time>2019-04-06T11:27:02.000Z</time>
      </trkpt>
      <trkpt lat="45.2151" lon="5.74845">
        <ele>324.85</ele>
        <time>2019-04-06T11:27:07.000Z</time>
      </trkpt>
      <trkpt lat="45.21523" lon="5.74863">
        <ele>324.76</ele>
        <time>2019-04-06T11:27:12.000Z</time>
      </trkpt>
      <trkpt lat="45.21532" lon="5.74882">
        <ele>326.37</ele>
        <time>2019-04-06T11:27:17.000Z</time>
      </trkpt>
      <trkpt lat="45.21536" lon="5.74908">
        <ele>332.02</ele>
        <time>2019-04-06T11:27:22.000Z</time>
      </trkpt>
      <trkpt lat="45.21542" lon="5.7493">
        <ele>334.21</ele>
        <time>2019-04-06T11:27:27.000Z</time>
      </trkpt>
      <trkpt lat="45.21552" lon="5.74949">
        <ele>335.44</ele>
        <time>2019-04-06T11:27:32.000Z</time>
      </trkpt>
      <trkpt lat="45.21567" lon="5.74962">
        <ele>337.32</ele>
        <time>2019-04-06T11:27:37.000Z</time>
      </trkpt>
      <trkpt lat="45.21581" lon="5.74973">
        <ele>340.73</ele>
        <time>2019-04-06T11:27:42.000Z</time>
      </trkpt>
      <trkpt lat="45.21594" lon="5.74986">
        <ele>341.52</ele>
        <time>2019-04-06T11:27:47.000Z</time>
      </trkpt>
      <trkpt lat="45.21607" lon="5.75001">
        <ele>341.94</ele>
        <time>2019-04-06T11:27:52.000Z</time>
      </trkpt>
      <trkpt lat="45.21617" lon="5.75016">
        <ele>342.53</ele>
        <time>2019-04-06T11:27:57.000Z</time>
      </trkpt>
      <trkpt lat="45.2163" lon="5.7504">
        <ele>336.14</ele>
        <time>2019-04-06T11:28:02.000Z</time>
      </trkpt>
      <trkpt lat="45.21641" lon="5.7506">
        <ele>334.62</ele>
        <time>2019-04-06T11:28:07.000Z</time>
      </trkpt>
      <trkpt lat="45.21648" lon="5.75087">
        <ele>338.16</ele>
        <time>2019-04-06T11:28:12.000Z</time>
      </trkpt>
      <trkpt lat="45.21656" lon="5.75114">
        <ele>338.24</ele>
        <time>2019-04-06T11:28:17.000Z</time>
      </trkpt>
      <trkpt lat="45.21665" lon="5.75139">
        <ele>341.6</ele>
        <time>2019-04-06T11:28:22.000Z</time>
      </trkpt>
      <trkpt lat="45.21671" lon="5.75167">
        <ele>342.73</ele>
        <time>2019-04-06T11:28:27.000Z</time>
      </trkpt>
      <trkpt lat="45.21675" lon="5.75192">
        <ele>344.11</ele>
        <time>2019-04-06T11:28:32.000Z</time>
      </trkpt>
      <trkpt lat="45.21677" lon="5.75213">
        <ele>343.69</ele>
        <time>2019-04-06T11:28:37.000Z</time>
      </trkpt>
      <trkpt lat="45.21669" lon="5.75233">
        <ele>350.75</ele>
        <time>2019-04-06T11:28:42.000Z</time>
      </trkpt>
      <trkpt lat="45.21649" lon="5.75256">
        <ele>354.61</ele>
        <time>2019-04-06T11:28:47.000Z</time>
      </trkpt>
      <trkpt lat="45.21638" lon="5.75275">
        <ele>359.18</ele>
        <time>2019-04-06T11:28:52.000Z</time>
      </trkpt>
      <trkpt lat="45.21637" lon="5.75304">
        <ele>364.73</ele>
        <time>2019-04-06T11:28:57.000Z</time>
      </trkpt>
      <trkpt lat="45.21644" lon="5.75332">
        <ele>365.24</ele>
        <time>2019-04-06T11:29:02.000Z</time>
      </trkpt>
      <trkpt lat="45.21658" lon="5.7535">
        <ele>365.05</ele>
        <time>2019-04-06T11:29:07.000Z</time>
      </trkpt>
      <trkpt lat="45.21675" lon="5.75358">
        <ele>370.12</ele>
        <time>2019-04-06T11:29:12.000Z</time>
      </trkpt>
      <trkpt lat="45.21694" lon="5.75365">
        <ele>371.16</ele>
        <time>2019-04-06T11:29:17.000Z</time>
      </trkpt>
      <trkpt lat="45.2171" lon="5.75379">
        <ele>370.89</ele>
        <time>2019-04-06T11:29:22.000Z</time>
      </trkpt>
      <trkpt lat="45.21719" lon="5.75401">
        <ele>376.98</ele>
        <time>2019-04-06T11:29:27.000Z</time>
      </trkpt>
      <trkpt lat="45.21716" lon="5.75427">
        <ele>380.69</ele>
        <time>2019-04-06T11:29:32.000Z</time>
      </trkpt>
      <trkpt lat="45.21708" lon="5.75453">
        <ele>382.64</ele>
        <time>2019-04-06T11:29:37.000Z</time>
      </trkpt>
      <trkpt lat="45.21697" lon="5.75471">
        <ele>382.65</ele>
        <time>2019-04-06T11:29:42.000Z</time>
      </trkpt>
      <trkpt lat="45.21686" lon="5.75485">
        <ele>381.02</ele>
        <time>2019-04-06T11:29:47.000Z</time>
      </trkpt>
      <trkpt lat="45.21678" lon="5.75506">
        <ele>381.43</ele>
        <time>2019-04-06T11:29:52.000Z</time>
      </trkpt>
      <trkpt lat="45.21673" lon="5.75517">
        <ele>384.98</ele>
        <time>2019-04-06T11:29:58.000Z</time>
      </trkpt>
      <trkpt lat="45.21677" lon="5.75535">
        <ele>385.49</ele>
        <time>2019-04-06T11:30:03.000Z</time>
      </trkpt>
      <trkpt lat="45.21685" lon="5.75551">
        <ele>384.62</ele>
        <time>2019-04-06T11:30:08.000Z</time>
      </trkpt>
      <trkpt lat="45.21692" lon="5.7557">
        <ele>385.95</ele>
        <time>2019-04-06T11:30:13.000Z</time>
      </trkpt>
      <trkpt lat="45.21701" lon="5.7559">
        <ele>389.94</ele>
        <time>2019-04-06T11:30:18.000Z</time>
      </trkpt>
      <trkpt lat="45.2171" lon="5.75611">
        <ele>389.58</ele>
        <time>2019-04-06T11:30:23.000Z</time>
      </trkpt>
      <trkpt lat="45.21718" lon="5.75631">
        <ele>388.64</ele>
        <time>2019-04-06T11:30:28.000Z</time>
      </trkpt>
      <trkpt lat="45.21727" lon="5.7565">
        <ele>392.38</ele>
        <time>2019-04-06T11:30:33.000Z</time>
      </trkpt>
      <trkpt lat="45.21735" lon="5.75669">
        <ele>393.32</ele>
        <time>2019-04-06T11:30:38.000Z</time>
      </trkpt>
      <trkpt lat="45.21744" lon="5.75688">
        <ele>395.36</ele>
        <time>2019-04-06T11:30:43.000Z</time>
      </trkpt>
      <trkpt lat="45.21752" lon="5.75708">
        <ele>394.53</ele>
        <time>2019-04-06T11:30:48.000Z</time>
      </trkpt>
      <trkpt lat="45.21763" lon="5.75729">
        <ele>395.65</ele>
        <time>2019-04-06T11:30:53.000Z</time>
      </trkpt>
      <trkpt lat="45.21773" lon="5.75747">
        <ele>394.81</ele>
        <time>2019-04-06T11:30:58.000Z</time>
      </trkpt>
      <trkpt lat="45.21782" lon="5.75767">
        <ele>396.88</ele>
        <time>2019-04-06T11:31:03.000Z</time>
      </trkpt>
      <trkpt lat="45.21791" lon="5.75785">
        <ele>396.78</ele>
        <time>2019-04-06T11:31:08.000Z</time>
      </trkpt>
      <trkpt lat="45.218" lon="5.758">
        <ele>398.18</ele>
        <time>2019-04-06T11:31:13.000Z</time>
      </trkpt>
      <trkpt lat="45.21807" lon="5.7582">
        <ele>402.44</ele>
        <time>2019-04-06T11:31:18.000Z</time>
      </trkpt>
      <trkpt lat="45.21816" lon="5.75843">
        <ele>403.59</ele>
        <time>2019-04-06T11:31:23.000Z</time>
      </trkpt>
      <trkpt lat="45.21824" lon="5.75865">
        <ele>404.74</ele>
        <time>2019-04-06T11:31:28.000Z</time>
      </trkpt>
      <trkpt lat="45.21835" lon="5.75878">
        <ele>404.52</ele>
        <time>2019-04-06T11:31:33.000Z</time>
      </trkpt>
      <trkpt lat="45.2184" lon="5.75899">
        <ele>406.95</ele>
        <time>2019-04-06T11:31:38.000Z</time>
      </trkpt>
      <trkpt lat="45.21833" lon="5.75922">
        <ele>409.04</ele>
        <time>2019-04-06T11:31:43.000Z</time>
      </trkpt>
      <trkpt lat="45.21822" lon="5.75939">
        <ele>408.54</ele>
        <time>2019-04-06T11:31:48.000Z</time>
      </trkpt>
      <trkpt lat="45.21817" lon="5.75962">
        <ele>408.33</ele>
        <time>2019-04-06T11:31:53.000Z</time>
      </trkpt>
      <trkpt lat="45.2181" lon="5.75979">
        <ele>405.64</ele>
        <time>2019-04-06T11:31:58.000Z</time>
      </trkpt>
      <trkpt lat="45.21795" lon="5.75998">
        <ele>404.63</ele>
        <time>2019-04-06T11:32:03.000Z</time>
      </trkpt>
      <trkpt lat="45.21779" lon="5.7601">
        <ele>405.3</ele>
        <time>2019-04-06T11:32:08.000Z</time>
      </trkpt>
      <trkpt lat="45.21754" lon="5.76015">
        <ele>415.4</ele>
        <time>2019-04-06T11:32:13.000Z</time>
      </trkpt>
      <trkpt lat="45.21734" lon="5.76023">
        <ele>420.36</ele>
        <time>2019-04-06T11:32:18.000Z</time>
      </trkpt>
      <trkpt lat="45.21736" lon="5.76051">
        <ele>425.3</ele>
        <time>2019-04-06T11:32:23.000Z</time>
      </trkpt>
      <trkpt lat="45.21757" lon="5.76058">
        <ele>427.4</ele>
        <time>2019-04-06T11:32:28.000Z</time>
      </trkpt>
      <trkpt lat="45.21775" lon="5.76061">
        <ele>428.85</ele>
        <time>2019-04-06T11:32:33.000Z</time>
      </trkpt>
      <trkpt lat="45.21796" lon="5.76058">
        <ele>429.86</ele>
        <time>2019-04-06T11:32:38.000Z</time>
      </trkpt>
      <trkpt lat="45.21814" lon="5.76054">
        <ele>431.37</ele>
        <time>2019-04-06T11:32:43.000Z</time>
      </trkpt>
      <trkpt lat="45.2183" lon="5.76047">
        <ele>433.2</ele>
        <time>2019-04-06T11:32:48.000Z</time>
      </trkpt>
      <trkpt lat="45.21846" lon="5.76039">
        <ele>434.02</ele>
        <time>2019-04-06T11:32:53.000Z</time>
      </trkpt>
      <trkpt lat="45.21862" lon="5.76038">
        <ele>434.3</ele>
        <time>2019-04-06T11:32:58.000Z</time>
      </trkpt>
      <trkpt lat="45.21875" lon="5.76047">
        <ele>433.41</ele>
        <time>2019-04-06T11:33:03.000Z</time>
      </trkpt>
      <trkpt lat="45.21883" lon="5.76064">
        <ele>433.52</ele>
        <time>2019-04-06T11:33:08.000Z</time>
      </trkpt>
      <trkpt lat="45.21888" lon="5.76087">
        <ele>435.11</ele>
        <time>2019-04-06T11:33:13.000Z</time>
      </trkpt>
      <trkpt lat="45.21892" lon="5.76111">
        <ele>440.18</ele>
        <time>2019-04-06T11:33:18.000Z</time>
      </trkpt>
      <trkpt lat="45.21896" lon="5.76135">
        <ele>443.5</ele>
        <time>2019-04-06T11:33:23.000Z</time>
      </trkpt>
      <trkpt lat="45.21905" lon="5.7616">
        <ele>446.93</ele>
        <time>2019-04-06T11:33:28.000Z</time>
      </trkpt>
      <trkpt lat="45.2192" lon="5.76176">
        <ele>448.81</ele>
        <time>2019-04-06T11:33:33.000Z</time>
      </trkpt>
      <trkpt lat="45.21936" lon="5.76191">
        <ele>449.58</ele>
        <time>2019-04-06T11:33:38.000Z</time>
      </trkpt>
      <trkpt lat="45.21953" lon="5.76211">
        <ele>450.9</ele>
        <time>2019-04-06T11:33:43.000Z</time>
      </trkpt>
      <trkpt lat="45.21968" lon="5.76227">
        <ele>451.32</ele>
        <time>2019-04-06T11:33:48.000Z</time>
      </trkpt>
      <trkpt lat="45.21978" lon="5.76244">
        <ele>450.94</ele>
        <time>2019-04-06T11:33:53.000Z</time>
      </trkpt>
      <trkpt lat="45.21985" lon="5.76265">
        <ele>452.49</ele>
        <time>2019-04-06T11:33:58.000Z</time>
      </trkpt>
      <trkpt lat="45.2199" lon="5.76286">
        <ele>451.87</ele>
        <time>2019-04-06T11:34:03.000Z</time>
      </trkpt>
      <trkpt lat="45.21992" lon="5.7631">
        <ele>456.47</ele>
        <time>2019-04-06T11:34:08.000Z</time>
      </trkpt>
      <trkpt lat="45.21988" lon="5.76331">
        <ele>458.41</ele>
        <time>2019-04-06T11:34:13.000Z</time>
      </trkpt>
      <trkpt lat="45.2199" lon="5.76349">
        <ele>462.85</ele>
        <time>2019-04-06T11:34:18.000Z</time>
      </trkpt>
      <trkpt lat="45.21999" lon="5.76355">
        <ele>463.88</ele>
        <time>2019-04-06T11:36:38.000Z</time>
      </trkpt>
      <trkpt lat="45.22006" lon="5.76377">
        <ele>463.97</ele>
        <time>2019-04-06T11:36:43.000Z</time>
      </trkpt>
      <trkpt lat="45.22016" lon="5.76413">
        <ele>463.19</ele>
        <time>2019-04-06T11:36:48.000Z</time>
      </trkpt>
      <trkpt lat="45.22043" lon="5.76454">
        <ele>462.32</ele>
        <time>2019-04-06T11:36:53.000Z</time>
      </trkpt>
      <trkpt lat="45.22058" lon="5.76511">
        <ele>458.63</ele>
        <time>2019-04-06T11:36:58.000Z</time>
      </trkpt>
      <trkpt lat="45.22032" lon="5.76563">
        <ele>457.17</ele>
        <time>2019-04-06T11:37:03.000Z</time>
      </trkpt>
      <trkpt lat="45.22003" lon="5.76615">
        <ele>455.03</ele>
        <time>2019-04-06T11:37:08.000Z</time>
      </trkpt>
      <trkpt lat="45.21997" lon="5.76679">
        <ele>452.7</ele>
        <time>2019-04-06T11:37:13.000Z</time>
      </trkpt>
      <trkpt lat="45.2201" lon="5.76733">
        <ele>448</ele>
        <time>2019-04-06T11:37:18.000Z</time>
      </trkpt>
      <trkpt lat="45.22014" lon="5.76798">
        <ele>444.28</ele>
        <time>2019-04-06T11:37:23.000Z</time>
      </trkpt>
      <trkpt lat="45.2202" lon="5.76877">
        <ele>435.55</ele>
        <time>2019-04-06T11:37:28.000Z</time>
      </trkpt>
      <trkpt lat="45.22019" lon="5.76932">
        <ele>430.59</ele>
        <time>2019-04-06T11:37:33.000Z</time>
      </trkpt>
      <trkpt lat="45.22006" lon="5.76956">
        <ele>427.29</ele>
        <time>2019-04-06T11:37:38.000Z</time>
      </trkpt>
      <trkpt lat="45.21969" lon="5.7694">
        <ele>418.28</ele>
        <time>2019-04-06T11:37:43.000Z</time>
      </trkpt>
      <trkpt lat="45.21942" lon="5.76887">
        <ele>413.93</ele>
        <time>2019-04-06T11:37:48.000Z</time>
      </trkpt>
      <trkpt lat="45.21931" lon="5.76824">
        <ele>407.87</ele>
        <time>2019-04-06T11:37:53.000Z</time>
      </trkpt>
      <trkpt lat="45.21916" lon="5.76818">
        <ele>406.87</ele>
        <time>2019-04-06T11:37:58.000Z</time>
      </trkpt>
      <trkpt lat="45.21909" lon="5.76836">
        <ele>403.31</ele>
        <time>2019-04-06T11:38:03.000Z</time>
      </trkpt>
      <trkpt lat="45.21905" lon="5.76865">
        <ele>399.17</ele>
        <time>2019-04-06T11:38:08.000Z</time>
      </trkpt>
      <trkpt lat="45.21898" lon="5.76887">
        <ele>395.52</ele>
        <time>2019-04-06T11:38:13.000Z</time>
      </trkpt>
      <trkpt lat="45.21893" lon="5.76938">
        <ele>392.5</ele>
        <time>2019-04-06T11:38:18.000Z</time>
      </trkpt>
      <trkpt lat="45.21906" lon="5.76993">
        <ele>388.97</ele>
        <time>2019-04-06T11:38:23.000Z</time>
      </trkpt>
      <trkpt lat="45.21914" lon="5.77064">
        <ele>384.95</ele>
        <time>2019-04-06T11:38:28.000Z</time>
      </trkpt>
      <trkpt lat="45.21922" lon="5.77135">
        <ele>377.87</ele>
        <time>2019-04-06T11:38:33.000Z</time>
      </trkpt>
      <trkpt lat="45.21925" lon="5.77197">
        <ele>370.29</ele>
        <time>2019-04-06T11:38:38.000Z</time>
      </trkpt>
      <trkpt lat="45.21946" lon="5.7724">
        <ele>364.98</ele>
        <time>2019-04-06T11:38:43.000Z</time>
      </trkpt>
      <trkpt lat="45.21965" lon="5.77317">
        <ele>361.39</ele>
        <time>2019-04-06T11:38:48.000Z</time>
      </trkpt>
      <trkpt lat="45.21984" lon="5.77394">
        <ele>352.22</ele>
        <time>2019-04-06T11:38:53.000Z</time>
      </trkpt>
      <trkpt lat="45.21999" lon="5.77433">
        <ele>343.45</ele>
        <time>2019-04-06T11:38:58.000Z</time>
      </trkpt>
      <trkpt lat="45.21973" lon="5.77456">
        <ele>340.72</ele>
        <time>2019-04-06T11:39:03.000Z</time>
      </trkpt>
      <trkpt lat="45.21944" lon="5.77421">
        <ele>332.16</ele>
        <time>2019-04-06T11:39:08.000Z</time>
      </trkpt>
      <trkpt lat="45.21907" lon="5.77401">
        <ele>330.19</ele>
        <time>2019-04-06T11:39:13.000Z</time>
      </trkpt>
      <trkpt lat="45.21869" lon="5.77408">
        <ele>327.67</ele>
        <time>2019-04-06T11:39:18.000Z</time>
      </trkpt>
      <trkpt lat="45.21828" lon="5.77436">
        <ele>321.75</ele>
        <time>2019-04-06T11:39:23.000Z</time>
      </trkpt>
      <trkpt lat="45.21797" lon="5.77471">
        <ele>315.36</ele>
        <time>2019-04-06T11:39:28.000Z</time>
      </trkpt>
      <trkpt lat="45.21773" lon="5.77473">
        <ele>309.16</ele>
        <time>2019-04-06T11:39:33.000Z</time>
      </trkpt>
      <trkpt lat="45.21764" lon="5.7753">
        <ele>304.01</ele>
        <time>2019-04-06T11:39:38.000Z</time>
      </trkpt>
      <trkpt lat="45.21732" lon="5.77569">
        <ele>298.64</ele>
        <time>2019-04-06T11:39:43.000Z</time>
      </trkpt>
      <trkpt lat="45.21704" lon="5.77586">
        <ele>295.08</ele>
        <time>2019-04-06T11:39:48.000Z</time>
      </trkpt>
      <trkpt lat="45.21697" lon="5.77595">
        <ele>292.09</ele>
        <time>2019-04-06T11:39:55.000Z</time>
      </trkpt>
      <trkpt lat="45.21705" lon="5.77614">
        <ele>290.05</ele>
        <time>2019-04-06T11:40:00.000Z</time>
      </trkpt>
      <trkpt lat="45.21713" lon="5.77638">
        <ele>288.51</ele>
        <time>2019-04-06T11:40:05.000Z</time>
      </trkpt>
      <trkpt lat="45.21724" lon="5.77664">
        <ele>287.6</ele>
        <time>2019-04-06T11:40:10.000Z</time>
      </trkpt>
      <trkpt lat="45.21736" lon="5.77688">
        <ele>286.68</ele>
        <time>2019-04-06T11:40:15.000Z</time>
      </trkpt>
      <trkpt lat="45.2175" lon="5.77717">
        <ele>282.22</ele>
        <time>2019-04-06T11:40:20.000Z</time>
      </trkpt>
      <trkpt lat="45.21762" lon="5.77746">
        <ele>280.68</ele>
        <time>2019-04-06T11:40:25.000Z</time>
      </trkpt>
      <trkpt lat="45.21774" lon="5.77773">
        <ele>281.11</ele>
        <time>2019-04-06T11:40:30.000Z</time>
      </trkpt>
      <trkpt lat="45.21788" lon="5.77801">
        <ele>283</ele>
        <time>2019-04-06T11:40:35.000Z</time>
      </trkpt>
      <trkpt lat="45.21799" lon="5.77827">
        <ele>284.12</ele>
        <time>2019-04-06T11:40:40.000Z</time>
      </trkpt>
      <trkpt lat="45.21804" lon="5.77855">
        <ele>286.32</ele>
        <time>2019-04-06T11:40:45.000Z</time>
      </trkpt>
      <trkpt lat="45.21808" lon="5.77895">
        <ele>288</ele>
        <time>2019-04-06T11:40:50.000Z</time>
      </trkpt>
      <trkpt lat="45.21798" lon="5.77933">
        <ele>286.76</ele>
        <time>2019-04-06T11:40:55.000Z</time>
      </trkpt>
      <trkpt lat="45.21791" lon="5.77972">
        <ele>286.01</ele>
        <time>2019-04-06T11:41:00.000Z</time>
      </trkpt>
      <trkpt lat="45.21792" lon="5.78011">
        <ele>286.22</ele>
        <time>2019-04-06T11:41:05.000Z</time>
      </trkpt>
      <trkpt lat="45.21797" lon="5.78049">
        <ele>287.77</ele>
        <time>2019-04-06T11:41:10.000Z</time>
      </trkpt>
      <trkpt lat="45.21803" lon="5.78089">
        <ele>289.99</ele>
        <time>2019-04-06T11:41:15.000Z</time>
      </trkpt>
      <trkpt lat="45.21819" lon="5.78123">
        <ele>291.8</ele>
        <time>2019-04-06T11:41:20.000Z</time>
      </trkpt>
      <trkpt lat="45.21829" lon="5.78158">
        <ele>291.43</ele>
        <time>2019-04-06T11:41:25.000Z</time>
      </trkpt>
      <trkpt lat="45.21839" lon="5.78189">
        <ele>290.67</ele>
        <time>2019-04-06T11:41:30.000Z</time>
      </trkpt>
      <trkpt lat="45.21848" lon="5.78224">
        <ele>288.39</ele>
        <time>2019-04-06T11:41:35.000Z</time>
      </trkpt>
      <trkpt lat="45.21857" lon="5.78258">
        <ele>287.99</ele>
        <time>2019-04-06T11:41:40.000Z</time>
      </trkpt>
      <trkpt lat="45.21867" lon="5.78289">
        <ele>286.76</ele>
        <time>2019-04-06T11:41:45.000Z</time>
      </trkpt>
      <trkpt lat="45.21875" lon="5.78319">
        <ele>287.02</ele>
        <time>2019-04-06T11:41:50.000Z</time>
      </trkpt>
      <trkpt lat="45.21888" lon="5.78348">
        <ele>287.86</ele>
        <time>2019-04-06T11:41:55.000Z</time>
      </trkpt>
      <trkpt lat="45.21897" lon="5.78381">
        <ele>289.98</ele>
        <time>2019-04-06T11:42:00.000Z</time>
      </trkpt>
      <trkpt lat="45.21903" lon="5.78414">
        <ele>291.66</ele>
        <time>2019-04-06T11:42:05.000Z</time>
      </trkpt>
      <trkpt lat="45.21909" lon="5.78448">
        <ele>289.69</ele>
        <time>2019-04-06T11:42:10.000Z</time>
      </trkpt>
      <trkpt lat="45.21915" lon="5.7848">
        <ele>288.01</ele>
        <time>2019-04-06T11:42:15.000Z</time>
      </trkpt>
      <trkpt lat="45.2192" lon="5.78511">
        <ele>286.19</ele>
        <time>2019-04-06T11:42:20.000Z</time>
      </trkpt>
      <trkpt lat="45.21929" lon="5.78545">
        <ele>285.03</ele>
        <time>2019-04-06T11:42:25.000Z</time>
      </trkpt>
      <trkpt lat="45.21934" lon="5.7858">
        <ele>283.93</ele>
        <time>2019-04-06T11:42:30.000Z</time>
      </trkpt>
      <trkpt lat="45.2194" lon="5.78618">
        <ele>284.28</ele>
        <time>2019-04-06T11:42:35.000Z</time>
      </trkpt>
      <trkpt lat="45.2195" lon="5.78655">
        <ele>283.98</ele>
        <time>2019-04-06T11:42:40.000Z</time>
      </trkpt>
      <trkpt lat="45.21957" lon="5.78692">
        <ele>282.42</ele>
        <time>2019-04-06T11:42:45.000Z</time>
      </trkpt>
      <trkpt lat="45.21963" lon="5.78729">
        <ele>282.79</ele>
        <time>2019-04-06T11:42:50.000Z</time>
      </trkpt>
      <trkpt lat="45.21971" lon="5.78761">
        <ele>284.29</ele>
        <time>2019-04-06T11:42:55.000Z</time>
      </trkpt>
      <trkpt lat="45.21974" lon="5.78777">
        <ele>282.79</ele>
        <time>2019-04-06T11:43:00.000Z</time>
      </trkpt>
      <trkpt lat="45.21973" lon="5.78792">
        <ele>283.37</ele>
        <time>2019-04-06T11:43:05.000Z</time>
      </trkpt>
      <trkpt lat="45.21971" lon="5.78809">
        <ele>285.78</ele>
        <time>2019-04-06T11:43:17.000Z</time>
      </trkpt>
      <trkpt lat="45.21976" lon="5.78836">
        <ele>286.56</ele>
        <time>2019-04-06T11:43:22.000Z</time>
      </trkpt>
      <trkpt lat="45.2199" lon="5.78858">
        <ele>288.44</ele>
        <time>2019-04-06T11:43:27.000Z</time>
      </trkpt>
      <trkpt lat="45.22011" lon="5.78876">
        <ele>287.11</ele>
        <time>2019-04-06T11:43:32.000Z</time>
      </trkpt>
      <trkpt lat="45.22037" lon="5.78889">
        <ele>288.34</ele>
        <time>2019-04-06T11:43:37.000Z</time>
      </trkpt>
      <trkpt lat="45.22053" lon="5.7891">
        <ele>285.5</ele>
        <time>2019-04-06T11:43:42.000Z</time>
      </trkpt>
      <trkpt lat="45.22069" lon="5.78929">
        <ele>285.68</ele>
        <time>2019-04-06T11:43:47.000Z</time>
      </trkpt>
      <trkpt lat="45.2208" lon="5.7896">
        <ele>286.62</ele>
        <time>2019-04-06T11:43:52.000Z</time>
      </trkpt>
      <trkpt lat="45.22094" lon="5.78985">
        <ele>286.13</ele>
        <time>2019-04-06T11:43:57.000Z</time>
      </trkpt>
      <trkpt lat="45.22107" lon="5.79011">
        <ele>284.47</ele>
        <time>2019-04-06T11:44:02.000Z</time>
      </trkpt>
      <trkpt lat="45.22111" lon="5.7904">
        <ele>287.34</ele>
        <time>2019-04-06T11:44:07.000Z</time>
      </trkpt>
      <trkpt lat="45.22126" lon="5.79053">
        <ele>284.91</ele>
        <time>2019-04-06T11:44:12.000Z</time>
      </trkpt>
      <trkpt lat="45.22134" lon="5.79073">
        <ele>286.99</ele>
        <time>2019-04-06T11:44:17.000Z</time>
      </trkpt>
      <trkpt lat="45.22147" lon="5.79091">
        <ele>285.03</ele>
        <time>2019-04-06T11:44:22.000Z</time>
      </trkpt>
      <trkpt lat="45.22164" lon="5.79107">
        <ele>285.26</ele>
        <time>2019-04-06T11:44:27.000Z</time>
      </trkpt>
      <trkpt lat="45.2218" lon="5.79126">
        <ele>281.99</ele>
        <time>2019-04-06T11:44:32.000Z</time>
      </trkpt>
      <trkpt lat="45.22199" lon="5.79145">
        <ele>287.21</ele>
        <time>2019-04-06T11:44:37.000Z</time>
      </trkpt>
      <trkpt lat="45.22213" lon="5.79167">
        <ele>287.4</ele>
        <time>2019-04-06T11:44:42.000Z</time>
      </trkpt>
      <trkpt lat="45.22228" lon="5.79189">
        <ele>287.71</ele>
        <time>2019-04-06T11:44:47.000Z</time>
      </trkpt>
      <trkpt lat="45.22245" lon="5.79211">
        <ele>288.88</ele>
        <time>2019-04-06T11:44:52.000Z</time>
      </trkpt>
      <trkpt lat="45.22261" lon="5.79236">
        <ele>290.78</ele>
        <time>2019-04-06T11:44:57.000Z</time>
      </trkpt>
      <trkpt lat="45.22275" lon="5.79254">
        <ele>289.02</ele>
        <time>2019-04-06T11:45:02.000Z</time>
      </trkpt>
      <trkpt lat="45.22285" lon="5.79279">
        <ele>286.15</ele>
        <time>2019-04-06T11:45:07.000Z</time>
      </trkpt>
      <trkpt lat="45.22271" lon="5.79314">
        <ele>288.81</ele>
        <time>2019-04-06T11:45:12.000Z</time>
      </trkpt>
      <trkpt lat="45.22254" lon="5.79338">
        <ele>291.38</ele>
        <time>2019-04-06T11:45:17.000Z</time>
      </trkpt>
      <trkpt lat="45.22214" lon="5.79354">
        <ele>287.36</ele>
        <time>2019-04-06T11:45:22.000Z</time>
      </trkpt>
      <trkpt lat="45.22175" lon="5.7936">
        <ele>287.6</ele>
        <time>2019-04-06T11:45:27.000Z</time>
      </trkpt>
      <trkpt lat="45.22143" lon="5.79377">
        <ele>280.62</ele>
        <time>2019-04-06T11:45:32.000Z</time>
      </trkpt>
      <trkpt lat="45.22118" lon="5.79416">
        <ele>276.1</ele>
        <time>2019-04-06T11:45:37.000Z</time>
      </trkpt>
      <trkpt lat="45.22091" lon="5.79454">
        <ele>274.58</ele>
        <time>2019-04-06T11:45:42.000Z</time>
      </trkpt>
      <trkpt lat="45.2206" lon="5.79482">
        <ele>272.21</ele>
        <time>2019-04-06T11:45:47.000Z</time>
      </trkpt>
      <trkpt lat="45.22044" lon="5.79515">
        <ele>269.71</ele>
        <time>2019-04-06T11:45:52.000Z</time>
      </trkpt>
      <trkpt lat="45.22049" lon="5.79556">
        <ele>274.58</ele>
        <time>2019-04-06T11:45:57.000Z</time>
      </trkpt>
      <trkpt lat="45.22056" lon="5.79586">
        <ele>271.46</ele>
        <time>2019-04-06T11:46:02.000Z</time>
      </trkpt>
      <trkpt lat="45.22072" lon="5.79617">
        <ele>271.58</ele>
        <time>2019-04-06T11:46:07.000Z</time>
      </trkpt>
      <trkpt lat="45.22088" lon="5.79656">
        <ele>270.25</ele>
        <time>2019-04-06T11:46:12.000Z</time>
      </trkpt>
      <trkpt lat="45.22095" lon="5.79681">
        <ele>267.8</ele>
        <time>2019-04-06T11:46:17.000Z</time>
      </trkpt>
      <trkpt lat="45.221" lon="5.79698">
        <ele>265.96</ele>
        <time>2019-04-06T11:46:22.000Z</time>
      </trkpt>
      <trkpt lat="45.2211" lon="5.79731">
        <ele>260.35</ele>
        <time>2019-04-06T11:46:27.000Z</time>
      </trkpt>
      <trkpt lat="45.22127" lon="5.79769">
        <ele>260.71</ele>
        <time>2019-04-06T11:46:32.000Z</time>
      </trkpt>
      <trkpt lat="45.22148" lon="5.79814">
        <ele>258.89</ele>
        <time>2019-04-06T11:46:37.000Z</time>
      </trkpt>
      <trkpt lat="45.2216" lon="5.7985">
        <ele>259.89</ele>
        <time>2019-04-06T11:46:42.000Z</time>
      </trkpt>
      <trkpt lat="45.22174" lon="5.79881">
        <ele>258.87</ele>
        <time>2019-04-06T11:46:47.000Z</time>
      </trkpt>
      <trkpt lat="45.22193" lon="5.79922">
        <ele>258.4</ele>
        <time>2019-04-06T11:46:52.000Z</time>
      </trkpt>
      <trkpt lat="45.22209" lon="5.79963">
        <ele>254.93</ele>
        <time>2019-04-06T11:46:57.000Z</time>
      </trkpt>
      <trkpt lat="45.22218" lon="5.79989">
        <ele>253.53</ele>
        <time>2019-04-06T11:47:02.000Z</time>
      </trkpt>
      <trkpt lat="45.2223" lon="5.80026">
        <ele>248.55</ele>
        <time>2019-04-06T11:47:07.000Z</time>
      </trkpt>
      <trkpt lat="45.22244" lon="5.80067">
        <ele>246.65</ele>
        <time>2019-04-06T11:47:12.000Z</time>
      </trkpt>
      <trkpt lat="45.22257" lon="5.80121">
        <ele>244.34</ele>
        <time>2019-04-06T11:47:17.000Z</time>
      </trkpt>
      <trkpt lat="45.22278" lon="5.80174">
        <ele>242.81</ele>
        <time>2019-04-06T11:47:22.000Z</time>
      </trkpt>
      <trkpt lat="45.22294" lon="5.8023">
        <ele>238.86</ele>
        <time>2019-04-06T11:47:27.000Z</time>
      </trkpt>
      <trkpt lat="45.22307" lon="5.80289">
        <ele>238.84</ele>
        <time>2019-04-06T11:47:32.000Z</time>
      </trkpt>
      <trkpt lat="45.22322" lon="5.80347">
        <ele>240.15</ele>
        <time>2019-04-06T11:47:37.000Z</time>
      </trkpt>
      <trkpt lat="45.22337" lon="5.80401">
        <ele>238.1</ele>
        <time>2019-04-06T11:47:42.000Z</time>
      </trkpt>
      <trkpt lat="45.2235" lon="5.80448">
        <ele>237.92</ele>
        <time>2019-04-06T11:47:47.000Z</time>
      </trkpt>
      <trkpt lat="45.22365" lon="5.8049">
        <ele>237.63</ele>
        <time>2019-04-06T11:47:52.000Z</time>
      </trkpt>
      <trkpt lat="45.22377" lon="5.80528">
        <ele>235.78</ele>
        <time>2019-04-06T11:47:57.000Z</time>
      </trkpt>
      <trkpt lat="45.22393" lon="5.80565">
        <ele>235.93</ele>
        <time>2019-04-06T11:48:02.000Z</time>
      </trkpt>
      <trkpt lat="45.22405" lon="5.806">
        <ele>236.86</ele>
        <time>2019-04-06T11:48:07.000Z</time>
      </trkpt>
      <trkpt lat="45.22419" lon="5.80628">
        <ele>237.98</ele>
        <time>2019-04-06T11:48:12.000Z</time>
      </trkpt>
      <trkpt lat="45.22427" lon="5.80649">
        <ele>238.42</ele>
        <time>2019-04-06T11:48:17.000Z</time>
      </trkpt>
      <trkpt lat="45.22427" lon="5.80663">
        <ele>236.42</ele>
        <time>2019-04-06T11:48:23.000Z</time>
      </trkpt>
      <trkpt lat="45.22433" lon="5.80675">
        <ele>236.74</ele>
        <time>2019-04-06T11:48:28.000Z</time>
      </trkpt>
      <trkpt lat="45.2244" lon="5.80692">
        <ele>235.76</ele>
        <time>2019-04-06T11:48:33.000Z</time>
      </trkpt>
      <trkpt lat="45.22447" lon="5.8071">
        <ele>235.76</ele>
        <time>2019-04-06T11:48:38.000Z</time>
      </trkpt>
      <trkpt lat="45.22457" lon="5.80733">
        <ele>238.3</ele>
        <time>2019-04-06T11:48:43.000Z</time>
      </trkpt>
      <trkpt lat="45.22467" lon="5.8076">
        <ele>239.23</ele>
        <time>2019-04-06T11:48:48.000Z</time>
      </trkpt>
      <trkpt lat="45.22475" lon="5.80786">
        <ele>240.57</ele>
        <time>2019-04-06T11:48:53.000Z</time>
      </trkpt>
      <trkpt lat="45.22485" lon="5.80812">
        <ele>244.01</ele>
        <time>2019-04-06T11:48:58.000Z</time>
      </trkpt>
      <trkpt lat="45.225" lon="5.80838">
        <ele>246.18</ele>
        <time>2019-04-06T11:49:03.000Z</time>
      </trkpt>
      <trkpt lat="45.22507" lon="5.80864">
        <ele>246.18</ele>
        <time>2019-04-06T11:49:08.000Z</time>
      </trkpt>
      <trkpt lat="45.22516" lon="5.80888">
        <ele>248.11</ele>
        <time>2019-04-06T11:49:13.000Z</time>
      </trkpt>
      <trkpt lat="45.22531" lon="5.80914">
        <ele>249.01</ele>
        <time>2019-04-06T11:49:18.000Z</time>
      </trkpt>
      <trkpt lat="45.22545" lon="5.80936">
        <ele>247.52</ele>
        <time>2019-04-06T11:49:23.000Z</time>
      </trkpt>
      <trkpt lat="45.22556" lon="5.80967">
        <ele>250.37</ele>
        <time>2019-04-06T11:49:28.000Z</time>
      </trkpt>
      <trkpt lat="45.22573" lon="5.80995">
        <ele>251.25</ele>
        <time>2019-04-06T11:49:33.000Z</time>
      </trkpt>
      <trkpt lat="45.22586" lon="5.81021">
        <ele>253.18</ele>
        <time>2019-04-06T11:49:38.000Z</time>
      </trkpt>
      <trkpt lat="45.22601" lon="5.81041">
        <ele>252.33</ele>
        <time>2019-04-06T11:49:43.000Z</time>
      </trkpt>
      <trkpt lat="45.22619" lon="5.81055">
        <ele>251.49</ele>
        <time>2019-04-06T11:49:48.000Z</time>
      </trkpt>
      <trkpt lat="45.22626" lon="5.81065">
        <ele>251.69</ele>
        <time>2019-04-06T11:49:53.000Z</time>
      </trkpt>
      <trkpt lat="45.22624" lon="5.81078">
        <ele>252</ele>
        <time>2019-04-06T11:49:59.000Z</time>
      </trkpt>
      <trkpt lat="45.22617" lon="5.81096">
        <ele>251.32</ele>
        <time>2019-04-06T11:50:04.000Z</time>
      </trkpt>
      <trkpt lat="45.22603" lon="5.81112">
        <ele>247.69</ele>
        <time>2019-04-06T11:50:09.000Z</time>
      </trkpt>
      <trkpt lat="45.22584" lon="5.81139">
        <ele>245.55</ele>
        <time>2019-04-06T11:50:14.000Z</time>
      </trkpt>
      <trkpt lat="45.22572" lon="5.81154">
        <ele>245.89</ele>
        <time>2019-04-06T11:50:19.000Z</time>
      </trkpt>
      <trkpt lat="45.2256" lon="5.81166">
        <ele>246.13</ele>
        <time>2019-04-06T11:50:24.000Z</time>
      </trkpt>
      <trkpt lat="45.22554" lon="5.81178">
        <ele>247.25</ele>
        <time>2019-04-06T11:50:36.000Z</time>
      </trkpt>
      <trkpt lat="45.22545" lon="5.81195">
        <ele>249.03</ele>
        <time>2019-04-06T11:50:41.000Z</time>
      </trkpt>
      <trkpt lat="45.22528" lon="5.8122">
        <ele>246.54</ele>
        <time>2019-04-06T11:50:46.000Z</time>
      </trkpt>
      <trkpt lat="45.2251" lon="5.81253">
        <ele>246.02</ele>
        <time>2019-04-06T11:50:51.000Z</time>
      </trkpt>
      <trkpt lat="45.22483" lon="5.81285">
        <ele>242.36</ele>
        <time>2019-04-06T11:50:56.000Z</time>
      </trkpt>
      <trkpt lat="45.22462" lon="5.81307">
        <ele>241.42</ele>
        <time>2019-04-06T11:51:01.000Z</time>
      </trkpt>
      <trkpt lat="45.22472" lon="5.81319">
        <ele>240.12</ele>
        <time>2019-04-06T11:51:06.000Z</time>
      </trkpt>
      <trkpt lat="45.22467" lon="5.81309">
        <ele>239</ele>
        <time>2019-04-06T11:51:17.000Z</time>
      </trkpt>
      <trkpt lat="45.22478" lon="5.8129">
        <ele>239.67</ele>
        <time>2019-04-06T11:51:22.000Z</time>
      </trkpt>
      <trkpt lat="45.22495" lon="5.81275">
        <ele>240.56</ele>
        <time>2019-04-06T11:51:27.000Z</time>
      </trkpt>
      <trkpt lat="45.22511" lon="5.81254">
        <ele>242.46</ele>
        <time>2019-04-06T11:51:32.000Z</time>
      </trkpt>
      <trkpt lat="45.22525" lon="5.81231">
        <ele>243.75</ele>
        <time>2019-04-06T11:51:37.000Z</time>
      </trkpt>
      <trkpt lat="45.22537" lon="5.81208">
        <ele>244.95</ele>
        <time>2019-04-06T11:51:42.000Z</time>
      </trkpt>
      <trkpt lat="45.22548" lon="5.81192">
        <ele>246.06</ele>
        <time>2019-04-06T11:51:47.000Z</time>
      </trkpt>
      <trkpt lat="45.22556" lon="5.81204">
        <ele>243.63</ele>
        <time>2019-04-06T11:51:52.000Z</time>
      </trkpt>
      <trkpt lat="45.22564" lon="5.81223">
        <ele>244.14</ele>
        <time>2019-04-06T11:51:57.000Z</time>
      </trkpt>
      <trkpt lat="45.22572" lon="5.81244">
        <ele>244.19</ele>
        <time>2019-04-06T11:52:02.000Z</time>
      </trkpt>
      <trkpt lat="45.2258" lon="5.81258">
        <ele>243.26</ele>
        <time>2019-04-06T11:52:07.000Z</time>
      </trkpt>
      <trkpt lat="45.22588" lon="5.81273">
        <ele>242.19</ele>
        <time>2019-04-06T11:52:12.000Z</time>
      </trkpt>
      <trkpt lat="45.22596" lon="5.81291">
        <ele>241.39</ele>
        <time>2019-04-06T11:52:17.000Z</time>
      </trkpt>
      <trkpt lat="45.22604" lon="5.81315">
        <ele>242.02</ele>
        <time>2019-04-06T11:52:22.000Z</time>
      </trkpt>
      <trkpt lat="45.22613" lon="5.81337">
        <ele>246.66</ele>
        <time>2019-04-06T11:52:27.000Z</time>
      </trkpt>
      <trkpt lat="45.22613" lon="5.81369">
        <ele>245.88</ele>
        <time>2019-04-06T11:52:32.000Z</time>
      </trkpt>
      <trkpt lat="45.22611" lon="5.81404">
        <ele>244.45</ele>
        <time>2019-04-06T11:52:37.000Z</time>
      </trkpt>
      <trkpt lat="45.2261" lon="5.81436">
        <ele>239.97</ele>
        <time>2019-04-06T11:52:42.000Z</time>
      </trkpt>
      <trkpt lat="45.22609" lon="5.81467">
        <ele>238.53</ele>
        <time>2019-04-06T11:52:47.000Z</time>
      </trkpt>
      <trkpt lat="45.22601" lon="5.81496">
        <ele>234.9</ele>
        <time>2019-04-06T11:52:52.000Z</time>
      </trkpt>
      <trkpt lat="45.22604" lon="5.81518">
        <ele>237.31</ele>
        <time>2019-04-06T11:52:57.000Z</time>
      </trkpt>
      <trkpt lat="45.22617" lon="5.81536">
        <ele>236.43</ele>
        <time>2019-04-06T11:53:02.000Z</time>
      </trkpt>
      <trkpt lat="45.22631" lon="5.81555">
        <ele>237.14</ele>
        <time>2019-04-06T11:53:07.000Z</time>
      </trkpt>
      <trkpt lat="45.22645" lon="5.81573">
        <ele>238.19</ele>
        <time>2019-04-06T11:53:12.000Z</time>
      </trkpt>
      <trkpt lat="45.22662" lon="5.81589">
        <ele>239.06</ele>
        <time>2019-04-06T11:53:17.000Z</time>
      </trkpt>
      <trkpt lat="45.2268" lon="5.81604">
        <ele>238.95</ele>
        <time>2019-04-06T11:53:22.000Z</time>
      </trkpt>
      <trkpt lat="45.22699" lon="5.81617">
        <ele>239.61</ele>
        <time>2019-04-06T11:53:27.000Z</time>
      </trkpt>
      <trkpt lat="45.2272" lon="5.81632">
        <ele>240.48</ele>
        <time>2019-04-06T11:53:32.000Z</time>
      </trkpt>
      <trkpt lat="45.22743" lon="5.81644">
        <ele>241.8</ele>
        <time>2019-04-06T11:53:37.000Z</time>
      </trkpt>
      <trkpt lat="45.22766" lon="5.81657">
        <ele>242.75</ele>
        <time>2019-04-06T11:53:42.000Z</time>
      </trkpt>
      <trkpt lat="45.22786" lon="5.81671">
        <ele>243.21</ele>
        <time>2019-04-06T11:53:47.000Z</time>
      </trkpt>
      <trkpt lat="45.22806" lon="5.81683">
        <ele>242.68</ele>
        <time>2019-04-06T11:53:52.000Z</time>
      </trkpt>
      <trkpt lat="45.22819" lon="5.81693">
        <ele>241.72</ele>
        <time>2019-04-06T11:53:57.000Z</time>
      </trkpt>
      <trkpt lat="45.22835" lon="5.81704">
        <ele>239.6</ele>
        <time>2019-04-06T11:54:02.000Z</time>
      </trkpt>
      <trkpt lat="45.2285" lon="5.8172">
        <ele>241.36</ele>
        <time>2019-04-06T11:54:07.000Z</time>
      </trkpt>
      <trkpt lat="45.22868" lon="5.81739">
        <ele>240.06</ele>
        <time>2019-04-06T11:54:12.000Z</time>
      </trkpt>
      <trkpt lat="45.22889" lon="5.81761">
        <ele>241.49</ele>
        <time>2019-04-06T11:54:17.000Z</time>
      </trkpt>
      <trkpt lat="45.22911" lon="5.81788">
        <ele>240.43</ele>
        <time>2019-04-06T11:54:22.000Z</time>
      </trkpt>
      <trkpt lat="45.2293" lon="5.81817">
        <ele>241.42</ele>
        <time>2019-04-06T11:54:27.000Z</time>
      </trkpt>
      <trkpt lat="45.22956" lon="5.81849">
        <ele>242.06</ele>
        <time>2019-04-06T11:54:32.000Z</time>
      </trkpt>
      <trkpt lat="45.22979" lon="5.81871">
        <ele>240.16</ele>
        <time>2019-04-06T11:54:37.000Z</time>
      </trkpt>
      <trkpt lat="45.23007" lon="5.81881">
        <ele>240.1</ele>
        <time>2019-04-06T11:54:42.000Z</time>
      </trkpt>
      <trkpt lat="45.2303" lon="5.81892">
        <ele>239.16</ele>
        <time>2019-04-06T11:54:47.000Z</time>
      </trkpt>
      <trkpt lat="45.23056" lon="5.81905">
        <ele>238.07</ele>
        <time>2019-04-06T11:54:52.000Z</time>
      </trkpt>
      <trkpt lat="45.23073" lon="5.81911">
        <ele>240.91</ele>
        <time>2019-04-06T11:54:57.000Z</time>
      </trkpt>
      <trkpt lat="45.23081" lon="5.81934">
        <ele>241.19</ele>
        <time>2019-04-06T11:55:02.000Z</time>
      </trkpt>
      <trkpt lat="45.23073" lon="5.81952">
        <ele>238.55</ele>
        <time>2019-04-06T11:55:07.000Z</time>
      </trkpt>
      <trkpt lat="45.23066" lon="5.81966">
        <ele>236.93</ele>
        <time>2019-04-06T11:55:12.000Z</time>
      </trkpt>
      <trkpt lat="45.23078" lon="5.81962">
        <ele>235.45</ele>
        <time>2019-04-06T11:55:20.000Z</time>
      </trkpt>
      <trkpt lat="45.23091" lon="5.81938">
        <ele>235.58</ele>
        <time>2019-04-06T11:55:25.000Z</time>
      </trkpt>
      <trkpt lat="45.23105" lon="5.81919">
        <ele>239.13</ele>
        <time>2019-04-06T11:55:30.000Z</time>
      </trkpt>
      <trkpt lat="45.23125" lon="5.81917">
        <ele>238.86</ele>
        <time>2019-04-06T11:55:35.000Z</time>
      </trkpt>
      <trkpt lat="45.23139" lon="5.81944">
        <ele>239.38</ele>
        <time>2019-04-06T11:55:40.000Z</time>
      </trkpt>
      <trkpt lat="45.2315" lon="5.81972">
        <ele>239.7</ele>
        <time>2019-04-06T11:55:45.000Z</time>
      </trkpt>
      <trkpt lat="45.23163" lon="5.81997">
        <ele>241.31</ele>
        <time>2019-04-06T11:55:50.000Z</time>
      </trkpt>
      <trkpt lat="45.23176" lon="5.82021">
        <ele>242.41</ele>
        <time>2019-04-06T11:55:55.000Z</time>
      </trkpt>
      <trkpt lat="45.23186" lon="5.82046">
        <ele>244.42</ele>
        <time>2019-04-06T11:56:00.000Z</time>
      </trkpt>
      <trkpt lat="45.23198" lon="5.82072">
        <ele>247.88</ele>
        <time>2019-04-06T11:56:05.000Z</time>
      </trkpt>
      <trkpt lat="45.23211" lon="5.82097">
        <ele>248.75</ele>
        <time>2019-04-06T11:56:10.000Z</time>
      </trkpt>
      <trkpt lat="45.23224" lon="5.82122">
        <ele>249.75</ele>
        <time>2019-04-06T11:56:15.000Z</time>
      </trkpt>
      <trkpt lat="45.23236" lon="5.82148">
        <ele>251.01</ele>
        <time>2019-04-06T11:56:20.000Z</time>
      </trkpt>
      <trkpt lat="45.23249" lon="5.82175">
        <ele>253.01</ele>
        <time>2019-04-06T11:56:25.000Z</time>
      </trkpt>
      <trkpt lat="45.23265" lon="5.82201">
        <ele>256.73</ele>
        <time>2019-04-06T11:56:30.000Z</time>
      </trkpt>
      <trkpt lat="45.23276" lon="5.82226">
        <ele>258.57</ele>
        <time>2019-04-06T11:56:35.000Z</time>
      </trkpt>
      <trkpt lat="45.23292" lon="5.82245">
        <ele>258.7</ele>
        <time>2019-04-06T11:56:40.000Z</time>
      </trkpt>
      <trkpt lat="45.23309" lon="5.82257">
        <ele>257.04</ele>
        <time>2019-04-06T11:56:45.000Z</time>
      </trkpt>
      <trkpt lat="45.23329" lon="5.82268">
        <ele>256.04</ele>
        <time>2019-04-06T11:56:50.000Z</time>
      </trkpt>
      <trkpt lat="45.23348" lon="5.82283">
        <ele>257.68</ele>
        <time>2019-04-06T11:56:55.000Z</time>
      </trkpt>
      <trkpt lat="45.23354" lon="5.82316">
        <ele>257.26</ele>
        <time>2019-04-06T11:57:00.000Z</time>
      </trkpt>
      <trkpt lat="45.23359" lon="5.82345">
        <ele>258.01</ele>
        <time>2019-04-06T11:57:05.000Z</time>
      </trkpt>
      <trkpt lat="45.23366" lon="5.82374">
        <ele>258.36</ele>
        <time>2019-04-06T11:57:10.000Z</time>
      </trkpt>
      <trkpt lat="45.23358" lon="5.82401">
        <ele>259.26</ele>
        <time>2019-04-06T11:57:15.000Z</time>
      </trkpt>
      <trkpt lat="45.23351" lon="5.82412">
        <ele>259.43</ele>
        <time>2019-04-06T11:57:20.000Z</time>
      </trkpt>
      <trkpt lat="45.23339" lon="5.82422">
        <ele>258.24</ele>
        <time>2019-04-06T11:57:25.000Z</time>
      </trkpt>
      <trkpt lat="45.23331" lon="5.8243">
        <ele>257.78</ele>
        <time>2019-04-06T11:57:32.000Z</time>
      </trkpt>
      <trkpt lat="45.23323" lon="5.8244">
        <ele>256.95</ele>
        <time>2019-04-06T11:57:38.000Z</time>
      </trkpt>
      <trkpt lat="45.23318" lon="5.82455">
        <ele>256.28</ele>
        <time>2019-04-06T11:57:43.000Z</time>
      </trkpt>
      <trkpt lat="45.23308" lon="5.82473">
        <ele>256.68</ele>
        <time>2019-04-06T11:57:48.000Z</time>
      </trkpt>
      <trkpt lat="45.23295" lon="5.82499">
        <ele>257.51</ele>
        <time>2019-04-06T11:57:53.000Z</time>
      </trkpt>
      <trkpt lat="45.2328" lon="5.82527">
        <ele>259.36</ele>
        <time>2019-04-06T11:57:58.000Z</time>
      </trkpt>
      <trkpt lat="45.23265" lon="5.82559">
        <ele>256.98</ele>
        <time>2019-04-06T11:58:03.000Z</time>
      </trkpt>
      <trkpt lat="45.23242" lon="5.82582">
        <ele>255.66</ele>
        <time>2019-04-06T11:58:08.000Z</time>
      </trkpt>
      <trkpt lat="45.23213" lon="5.8259">
        <ele>254.15</ele>
        <time>2019-04-06T11:58:13.000Z</time>
      </trkpt>
      <trkpt lat="45.23179" lon="5.82593">
        <ele>252.65</ele>
        <time>2019-04-06T11:58:18.000Z</time>
      </trkpt>
      <trkpt lat="45.23149" lon="5.82615">
        <ele>250.73</ele>
        <time>2019-04-06T11:58:23.000Z</time>
      </trkpt>
      <trkpt lat="45.23121" lon="5.82641">
        <ele>249.39</ele>
        <time>2019-04-06T11:58:28.000Z</time>
      </trkpt>
      <trkpt lat="45.23102" lon="5.8268">
        <ele>248.56</ele>
        <time>2019-04-06T11:58:33.000Z</time>
      </trkpt>
      <trkpt lat="45.2309" lon="5.82708">
        <ele>247.98</ele>
        <time>2019-04-06T11:58:38.000Z</time>
      </trkpt>
      <trkpt lat="45.23089" lon="5.82738">
        <ele>245.33</ele>
        <time>2019-04-06T11:58:43.000Z</time>
      </trkpt>
      <trkpt lat="45.23088" lon="5.82771">
        <ele>246.66</ele>
        <time>2019-04-06T11:58:48.000Z</time>
      </trkpt>
      <trkpt lat="45.23075" lon="5.82806">
        <ele>241.26</ele>
        <time>2019-04-06T11:58:53.000Z</time>
      </trkpt>
      <trkpt lat="45.23065" lon="5.82844">
        <ele>238.78</ele>
        <time>2019-04-06T11:58:58.000Z</time>
      </trkpt>
      <trkpt lat="45.23046" lon="5.82885">
        <ele>237.18</ele>
        <time>2019-04-06T11:59:03.000Z</time>
      </trkpt>
      <trkpt lat="45.23023" lon="5.82922">
        <ele>234.49</ele>
        <time>2019-04-06T11:59:08.000Z</time>
      </trkpt>
      <trkpt lat="45.23001" lon="5.82954">
        <ele>233.49</ele>
        <time>2019-04-06T11:59:13.000Z</time>
      </trkpt>
      <trkpt lat="45.22977" lon="5.82989">
        <ele>230.57</ele>
        <time>2019-04-06T11:59:18.000Z</time>
      </trkpt>
      <trkpt lat="45.22957" lon="5.83022">
        <ele>227.87</ele>
        <time>2019-04-06T11:59:23.000Z</time>
      </trkpt>
      <trkpt lat="45.22929" lon="5.83057">
        <ele>228.41</ele>
        <time>2019-04-06T11:59:28.000Z</time>
      </trkpt>
      <trkpt lat="45.22902" lon="5.83078">
        <ele>225.83</ele>
        <time>2019-04-06T11:59:33.000Z</time>
      </trkpt>
      <trkpt lat="45.22884" lon="5.83091">
        <ele>224.46</ele>
        <time>2019-04-06T11:59:38.000Z</time>
      </trkpt>
      <trkpt lat="45.22864" lon="5.83082">
        <ele>223.42</ele>
        <time>2019-04-06T11:59:43.000Z</time>
      </trkpt>
      <trkpt lat="45.22849" lon="5.83053">
        <ele>221.98</ele>
        <time>2019-04-06T11:59:48.000Z</time>
      </trkpt>
      <trkpt lat="45.22834" lon="5.83026">
        <ele>220.08</ele>
        <time>2019-04-06T11:59:53.000Z</time>
      </trkpt>
      <trkpt lat="45.22821" lon="5.82997">
        <ele>219.7</ele>
        <time>2019-04-06T11:59:58.000Z</time>
      </trkpt>
      <trkpt lat="45.22803" lon="5.82969">
        <ele>218.13</ele>
        <time>2019-04-06T12:00:03.000Z</time>
      </trkpt>
      <trkpt lat="45.22789" lon="5.8294">
        <ele>216.21</ele>
        <time>2019-04-06T12:00:08.000Z</time>
      </trkpt>
      <trkpt lat="45.22776" lon="5.8291">
        <ele>212.89</ele>
        <time>2019-04-06T12:00:13.000Z</time>
      </trkpt>
      <trkpt lat="45.22761" lon="5.82881">
        <ele>213.98</ele>
        <time>2019-04-06T12:00:18.000Z</time>
      </trkpt>
      <trkpt lat="45.22745" lon="5.8285">
        <ele>214.25</ele>
        <time>2019-04-06T12:00:23.000Z</time>
      </trkpt>
      <trkpt lat="45.22727" lon="5.8282">
        <ele>213.88</ele>
        <time>2019-04-06T12:00:28.000Z</time>
      </trkpt>
      <trkpt lat="45.22714" lon="5.82796">
        <ele>213.94</ele>
        <time>2019-04-06T12:00:33.000Z</time>
      </trkpt>
      <trkpt lat="45.22696" lon="5.82773">
        <ele>215.32</ele>
        <time>2019-04-06T12:00:38.000Z</time>
      </trkpt>
      <trkpt lat="45.22679" lon="5.82744">
        <ele>216.22</ele>
        <time>2019-04-06T12:00:43.000Z</time>
      </trkpt>
      <trkpt lat="45.22661" lon="5.82714">
        <ele>216.18</ele>
        <time>2019-04-06T12:00:48.000Z</time>
      </trkpt>
      <trkpt lat="45.22647" lon="5.8268">
        <ele>214.57</ele>
        <time>2019-04-06T12:00:53.000Z</time>
      </trkpt>
      <trkpt lat="45.22638" lon="5.82664">
        <ele>216.13</ele>
        <time>2019-04-06T12:00:58.000Z</time>
      </trkpt>
      <trkpt lat="45.22625" lon="5.82643">
        <ele>215.32</ele>
        <time>2019-04-06T12:01:03.000Z</time>
      </trkpt>
      <trkpt lat="45.22614" lon="5.82622">
        <ele>216.15</ele>
        <time>2019-04-06T12:01:08.000Z</time>
      </trkpt>
      <trkpt lat="45.22592" lon="5.82595">
        <ele>215.76</ele>
        <time>2019-04-06T12:01:13.000Z</time>
      </trkpt>
      <trkpt lat="45.22572" lon="5.82561">
        <ele>217.81</ele>
        <time>2019-04-06T12:01:18.000Z</time>
      </trkpt>
      <trkpt lat="45.22549" lon="5.82536">
        <ele>217.28</ele>
        <time>2019-04-06T12:01:23.000Z</time>
      </trkpt>
      <trkpt lat="45.22526" lon="5.82506">
        <ele>217.01</ele>
        <time>2019-04-06T12:01:28.000Z</time>
      </trkpt>
      <trkpt lat="45.225" lon="5.82478">
        <ele>217.68</ele>
        <time>2019-04-06T12:01:33.000Z</time>
      </trkpt>
      <trkpt lat="45.22478" lon="5.82451">
        <ele>217.12</ele>
        <time>2019-04-06T12:01:38.000Z</time>
      </trkpt>
      <trkpt lat="45.22459" lon="5.8243">
        <ele>215.95</ele>
        <time>2019-04-06T12:01:43.000Z</time>
      </trkpt>
      <trkpt lat="45.22438" lon="5.82427">
        <ele>216.53</ele>
        <time>2019-04-06T12:01:48.000Z</time>
      </trkpt>
      <trkpt lat="45.22418" lon="5.82436">
        <ele>216.73</ele>
        <time>2019-04-06T12:01:53.000Z</time>
      </trkpt>
      <trkpt lat="45.22396" lon="5.82452">
        <ele>215.35</ele>
        <time>2019-04-06T12:01:58.000Z</time>
      </trkpt>
      <trkpt lat="45.22372" lon="5.8247">
        <ele>215.95</ele>
        <time>2019-04-06T12:02:03.000Z</time>
      </trkpt>
      <trkpt lat="45.22347" lon="5.82488">
        <ele>217.56</ele>
        <time>2019-04-06T12:02:08.000Z</time>
      </trkpt>
      <trkpt lat="45.22326" lon="5.82505">
        <ele>217.91</ele>
        <time>2019-04-06T12:02:13.000Z</time>
      </trkpt>
      <trkpt lat="45.22306" lon="5.82521">
        <ele>218.72</ele>
        <time>2019-04-06T12:02:18.000Z</time>
      </trkpt>
      <trkpt lat="45.22284" lon="5.82535">
        <ele>219.09</ele>
        <time>2019-04-06T12:02:23.000Z</time>
      </trkpt>
      <trkpt lat="45.22263" lon="5.82552">
        <ele>218.96</ele>
        <time>2019-04-06T12:02:28.000Z</time>
      </trkpt>
      <trkpt lat="45.22242" lon="5.82569">
        <ele>219.24</ele>
        <time>2019-04-06T12:02:33.000Z</time>
      </trkpt>
      <trkpt lat="45.22218" lon="5.82585">
        <ele>218.78</ele>
        <time>2019-04-06T12:02:38.000Z</time>
      </trkpt>
      <trkpt lat="45.22194" lon="5.826">
        <ele>218.47</ele>
        <time>2019-04-06T12:02:43.000Z</time>
      </trkpt>
      <trkpt lat="45.22171" lon="5.82611">
        <ele>217.12</ele>
        <time>2019-04-06T12:02:48.000Z</time>
      </trkpt>
      <trkpt lat="45.22152" lon="5.82622">
        <ele>217.63</ele>
        <time>2019-04-06T12:02:53.000Z</time>
      </trkpt>
      <trkpt lat="45.22137" lon="5.82629">
        <ele>217.7</ele>
        <time>2019-04-06T12:02:58.000Z</time>
      </trkpt>
      <trkpt lat="45.22126" lon="5.82637">
        <ele>217.83</ele>
        <time>2019-04-06T12:03:03.000Z</time>
      </trkpt>
      <trkpt lat="45.22114" lon="5.82642">
        <ele>216.5</ele>
        <time>2019-04-06T12:03:08.000Z</time>
      </trkpt>
      <trkpt lat="45.22125" lon="5.82636">
        <ele>217.55</ele>
        <time>2019-04-06T12:03:22.000Z</time>
      </trkpt>
      <trkpt lat="45.22132" lon="5.82617">
        <ele>217.03</ele>
        <time>2019-04-06T12:03:27.000Z</time>
      </trkpt>
      <trkpt lat="45.22127" lon="5.82606">
        <ele>219.84</ele>
        <time>2019-04-06T12:03:33.000Z</time>
      </trkpt>
      <trkpt lat="45.22117" lon="5.82607">
        <ele>221.03</ele>
        <time>2019-04-06T12:03:42.000Z</time>
      </trkpt>
      <trkpt lat="45.22111" lon="5.82597">
        <ele>222.9</ele>
        <time>2019-04-06T12:05:47.000Z</time>
      </trkpt>
      <trkpt lat="45.2212" lon="5.826">
        <ele>217.8</ele>
        <time>2019-04-06T12:06:41.000Z</time>
      </trkpt>
      <trkpt lat="45.22125" lon="5.82612">
        <ele>216.61</ele>
        <time>2019-04-06T12:06:46.000Z</time>
      </trkpt>
      <trkpt lat="45.22131" lon="5.82622">
        <ele>216.7</ele>
        <time>2019-04-06T12:06:51.000Z</time>
      </trkpt>
      <trkpt lat="45.22125" lon="5.82633">
        <ele>213.99</ele>
        <time>2019-04-06T12:09:16.000Z</time>
      </trkpt>
      <trkpt lat="45.22112" lon="5.82642">
        <ele>212.6</ele>
        <time>2019-04-06T12:09:21.000Z</time>
      </trkpt>
      <trkpt lat="45.22098" lon="5.82651">
        <ele>211.03</ele>
        <time>2019-04-06T12:09:26.000Z</time>
      </trkpt>
      <trkpt lat="45.22084" lon="5.82661">
        <ele>211.08</ele>
        <time>2019-04-06T12:09:31.000Z</time>
      </trkpt>
      <trkpt lat="45.22072" lon="5.82671">
        <ele>211.95</ele>
        <time>2019-04-06T12:09:36.000Z</time>
      </trkpt>
      <trkpt lat="45.22058" lon="5.82682">
        <ele>211.62</ele>
        <time>2019-04-06T12:09:41.000Z</time>
      </trkpt>
      <trkpt lat="45.22043" lon="5.82693">
        <ele>211.86</ele>
        <time>2019-04-06T12:09:46.000Z</time>
      </trkpt>
      <trkpt lat="45.22025" lon="5.827">
        <ele>213.1</ele>
        <time>2019-04-06T12:09:51.000Z</time>
      </trkpt>
      <trkpt lat="45.22007" lon="5.82689">
        <ele>214.55</ele>
        <time>2019-04-06T12:09:56.000Z</time>
      </trkpt>
      <trkpt lat="45.21995" lon="5.82674">
        <ele>215.63</ele>
        <time>2019-04-06T12:10:01.000Z</time>
      </trkpt>
      <trkpt lat="45.21986" lon="5.82666">
        <ele>217.14</ele>
        <time>2019-04-06T12:10:43.000Z</time>
      </trkpt>
      <trkpt lat="45.21975" lon="5.82654">
        <ele>217.28</ele>
        <time>2019-04-06T12:10:48.000Z</time>
      </trkpt>
      <trkpt lat="45.21965" lon="5.82641">
        <ele>215.45</ele>
        <time>2019-04-06T12:10:53.000Z</time>
      </trkpt>
      <trkpt lat="45.21954" lon="5.82627">
        <ele>214.43</ele>
        <time>2019-04-06T12:10:58.000Z</time>
      </trkpt>
      <trkpt lat="45.21941" lon="5.82614">
        <ele>213.56</ele>
        <time>2019-04-06T12:11:03.000Z</time>
      </trkpt>
      <trkpt lat="45.21927" lon="5.82598">
        <ele>215.64</ele>
        <time>2019-04-06T12:11:08.000Z</time>
      </trkpt>
      <trkpt lat="45.21912" lon="5.82581">
        <ele>216.38</ele>
        <time>2019-04-06T12:11:13.000Z</time>
      </trkpt>
      <trkpt lat="45.21896" lon="5.82562">
        <ele>213.83</ele>
        <time>2019-04-06T12:11:18.000Z</time>
      </trkpt>
      <trkpt lat="45.2188" lon="5.8254">
        <ele>212.3</ele>
        <time>2019-04-06T12:11:23.000Z</time>
      </trkpt>
      <trkpt lat="45.21862" lon="5.82524">
        <ele>211.76</ele>
        <time>2019-04-06T12:11:28.000Z</time>
      </trkpt>
      <trkpt lat="45.2185" lon="5.82504">
        <ele>209.94</ele>
        <time>2019-04-06T12:11:33.000Z</time>
      </trkpt>
      <trkpt lat="45.21859" lon="5.82484">
        <ele>210.9</ele>
        <time>2019-04-06T12:11:38.000Z</time>
      </trkpt>
      <trkpt lat="45.21864" lon="5.82461">
        <ele>210.72</ele>
        <time>2019-04-06T12:11:43.000Z</time>
      </trkpt>
      <trkpt lat="45.21854" lon="5.8244">
        <ele>210.24</ele>
        <time>2019-04-06T12:11:48.000Z</time>
      </trkpt>
      <trkpt lat="45.21842" lon="5.82418">
        <ele>210.64</ele>
        <time>2019-04-06T12:11:53.000Z</time>
      </trkpt>
      <trkpt lat="45.21835" lon="5.824">
        <ele>210.62</ele>
        <time>2019-04-06T12:11:58.000Z</time>
      </trkpt>
      <trkpt lat="45.21827" lon="5.82388">
        <ele>217.04</ele>
        <time>2019-04-06T12:12:19.000Z</time>
      </trkpt>
      <trkpt lat="45.21817" lon="5.82369">
        <ele>215.76</ele>
        <time>2019-04-06T12:12:24.000Z</time>
      </trkpt>
      <trkpt lat="45.21798" lon="5.82369">
        <ele>218.36</ele>
        <time>2019-04-06T12:12:29.000Z</time>
      </trkpt>
      <trkpt lat="45.21777" lon="5.82375">
        <ele>219.92</ele>
        <time>2019-04-06T12:12:34.000Z</time>
      </trkpt>
      <trkpt lat="45.21754" lon="5.82388">
        <ele>219.93</ele>
        <time>2019-04-06T12:12:39.000Z</time>
      </trkpt>
      <trkpt lat="45.21729" lon="5.82406">
        <ele>218.39</ele>
        <time>2019-04-06T12:12:44.000Z</time>
      </trkpt>
      <trkpt lat="45.21703" lon="5.82426">
        <ele>214.69</ele>
        <time>2019-04-06T12:12:49.000Z</time>
      </trkpt>
      <trkpt lat="45.21678" lon="5.82446">
        <ele>216.29</ele>
        <time>2019-04-06T12:12:54.000Z</time>
      </trkpt>
      <trkpt lat="45.21656" lon="5.82463">
        <ele>217.06</ele>
        <time>2019-04-06T12:12:59.000Z</time>
      </trkpt>
      <trkpt lat="45.21632" lon="5.8247">
        <ele>214.12</ele>
        <time>2019-04-06T12:13:04.000Z</time>
      </trkpt>
      <trkpt lat="45.21612" lon="5.82487">
        <ele>214.27</ele>
        <time>2019-04-06T12:13:09.000Z</time>
      </trkpt>
      <trkpt lat="45.21589" lon="5.82497">
        <ele>213.17</ele>
        <time>2019-04-06T12:13:14.000Z</time>
      </trkpt>
      <trkpt lat="45.21566" lon="5.82509">
        <ele>211.79</ele>
        <time>2019-04-06T12:13:19.000Z</time>
      </trkpt>
      <trkpt lat="45.21544" lon="5.82526">
        <ele>211.45</ele>
        <time>2019-04-06T12:13:24.000Z</time>
      </trkpt>
      <trkpt lat="45.21522" lon="5.82544">
        <ele>212.06</ele>
        <time>2019-04-06T12:13:29.000Z</time>
      </trkpt>
      <trkpt lat="45.21499" lon="5.82561">
        <ele>212.1</ele>
        <time>2019-04-06T12:13:34.000Z</time>
      </trkpt>
      <trkpt lat="45.21477" lon="5.82579">
        <ele>212.3</ele>
        <time>2019-04-06T12:13:39.000Z</time>
      </trkpt>
      <trkpt lat="45.21455" lon="5.82598">
        <ele>213.57</ele>
        <time>2019-04-06T12:13:44.000Z</time>
      </trkpt>
      <trkpt lat="45.21431" lon="5.82615">
        <ele>213.62</ele>
        <time>2019-04-06T12:13:49.000Z</time>
      </trkpt>
      <trkpt lat="45.21406" lon="5.82636">
        <ele>212.32</ele>
        <time>2019-04-06T12:13:54.000Z</time>
      </trkpt>
      <trkpt lat="45.21384" lon="5.82663">
        <ele>211</ele>
        <time>2019-04-06T12:13:59.000Z</time>
      </trkpt>
      <trkpt lat="45.21363" lon="5.82694">
        <ele>211.26</ele>
        <time>2019-04-06T12:14:04.000Z</time>
      </trkpt>
      <trkpt lat="45.21338" lon="5.82714">
        <ele>211.26</ele>
        <time>2019-04-06T12:14:09.000Z</time>
      </trkpt>
      <trkpt lat="45.21317" lon="5.82733">
        <ele>213.38</ele>
        <time>2019-04-06T12:14:14.000Z</time>
      </trkpt>
      <trkpt lat="45.21306" lon="5.82757">
        <ele>214.62</ele>
        <time>2019-04-06T12:14:19.000Z</time>
      </trkpt>
      <trkpt lat="45.21294" lon="5.8278">
        <ele>213.93</ele>
        <time>2019-04-06T12:14:24.000Z</time>
      </trkpt>
      <trkpt lat="45.21284" lon="5.82802">
        <ele>215.03</ele>
        <time>2019-04-06T12:14:29.000Z</time>
      </trkpt>
      <trkpt lat="45.21271" lon="5.82824">
        <ele>213.64</ele>
        <time>2019-04-06T12:14:34.000Z</time>
      </trkpt>
      <trkpt lat="45.21258" lon="5.82849">
        <ele>215.87</ele>
        <time>2019-04-06T12:14:39.000Z</time>
      </trkpt>
      <trkpt lat="45.21245" lon="5.82872">
        <ele>215.81</ele>
        <time>2019-04-06T12:14:44.000Z</time>
      </trkpt>
      <trkpt lat="45.21233" lon="5.82898">
        <ele>215.87</ele>
        <time>2019-04-06T12:14:49.000Z</time>
      </trkpt>
      <trkpt lat="45.21223" lon="5.8292">
        <ele>219.04</ele>
        <time>2019-04-06T12:14:54.000Z</time>
      </trkpt>
      <trkpt lat="45.21212" lon="5.82939">
        <ele>217.61</ele>
        <time>2019-04-06T12:14:59.000Z</time>
      </trkpt>
      <trkpt lat="45.21199" lon="5.82962">
        <ele>220.59</ele>
        <time>2019-04-06T12:15:04.000Z</time>
      </trkpt>
      <trkpt lat="45.21186" lon="5.82991">
        <ele>221.97</ele>
        <time>2019-04-06T12:15:09.000Z</time>
      </trkpt>
      <trkpt lat="45.21171" lon="5.83022">
        <ele>222.91</ele>
        <time>2019-04-06T12:15:14.000Z</time>
      </trkpt>
      <trkpt lat="45.21154" lon="5.83049">
        <ele>225.44</ele>
        <time>2019-04-06T12:15:19.000Z</time>
      </trkpt>
      <trkpt lat="45.21144" lon="5.83067">
        <ele>221.94</ele>
        <time>2019-04-06T12:15:24.000Z</time>
      </trkpt>
      <trkpt lat="45.21132" lon="5.83094">
        <ele>221.8</ele>
        <time>2019-04-06T12:15:29.000Z</time>
      </trkpt>
      <trkpt lat="45.21121" lon="5.83116">
        <ele>220.17</ele>
        <time>2019-04-06T12:15:34.000Z</time>
      </trkpt>
      <trkpt lat="45.21109" lon="5.83137">
        <ele>220.44</ele>
        <time>2019-04-06T12:15:39.000Z</time>
      </trkpt>
      <trkpt lat="45.21097" lon="5.83159">
        <ele>220.33</ele>
        <time>2019-04-06T12:15:44.000Z</time>
      </trkpt>
      <trkpt lat="45.21084" lon="5.83183">
        <ele>219.11</ele>
        <time>2019-04-06T12:15:49.000Z</time>
      </trkpt>
      <trkpt lat="45.21077" lon="5.83201">
        <ele>218.48</ele>
        <time>2019-04-06T12:15:54.000Z</time>
      </trkpt>
      <trkpt lat="45.21069" lon="5.83195">
        <ele>220.56</ele>
        <time>2019-04-06T12:16:05.000Z</time>
      </trkpt>
      <trkpt lat="45.21068" lon="5.83181">
        <ele>220.99</ele>
        <time>2019-04-06T12:16:15.000Z</time>
      </trkpt>
      <trkpt lat="45.21059" lon="5.83167">
        <ele>221.25</ele>
        <time>2019-04-06T12:16:20.000Z</time>
      </trkpt>
      <trkpt lat="45.2103" lon="5.83167">
        <ele>220.67</ele>
        <time>2019-04-06T12:16:25.000Z</time>
      </trkpt>
      <trkpt lat="45.21011" lon="5.8319">
        <ele>219.25</ele>
        <time>2019-04-06T12:16:30.000Z</time>
      </trkpt>
      <trkpt lat="45.20984" lon="5.83208">
        <ele>215.59</ele>
        <time>2019-04-06T12:16:35.000Z</time>
      </trkpt>
      <trkpt lat="45.20953" lon="5.83213">
        <ele>212.81</ele>
        <time>2019-04-06T12:16:40.000Z</time>
      </trkpt>
      <trkpt lat="45.20926" lon="5.83232">
        <ele>212.13</ele>
        <time>2019-04-06T12:16:45.000Z</time>
      </trkpt>
      <trkpt lat="45.20902" lon="5.83249">
        <ele>211.85</ele>
        <time>2019-04-06T12:16:50.000Z</time>
      </trkpt>
      <trkpt lat="45.2088" lon="5.8327">
        <ele>212.4</ele>
        <time>2019-04-06T12:16:55.000Z</time>
      </trkpt>
      <trkpt lat="45.20857" lon="5.8329">
        <ele>215.53</ele>
        <time>2019-04-06T12:17:00.000Z</time>
      </trkpt>
      <trkpt lat="45.20834" lon="5.83308">
        <ele>217.5</ele>
        <time>2019-04-06T12:17:05.000Z</time>
      </trkpt>
      <trkpt lat="45.2081" lon="5.83331">
        <ele>221.51</ele>
        <time>2019-04-06T12:17:10.000Z</time>
      </trkpt>
      <trkpt lat="45.20787" lon="5.8335">
        <ele>219.43</ele>
        <time>2019-04-06T12:17:15.000Z</time>
      </trkpt>
      <trkpt lat="45.20767" lon="5.8337">
        <ele>224.38</ele>
        <time>2019-04-06T12:17:20.000Z</time>
      </trkpt>
      <trkpt lat="45.20745" lon="5.83384">
        <ele>222.76</ele>
        <time>2019-04-06T12:17:25.000Z</time>
      </trkpt>
      <trkpt lat="45.20722" lon="5.83398">
        <ele>224.67</ele>
        <time>2019-04-06T12:17:30.000Z</time>
      </trkpt>
      <trkpt lat="45.207" lon="5.8342">
        <ele>225.81</ele>
        <time>2019-04-06T12:17:35.000Z</time>
      </trkpt>
      <trkpt lat="45.20679" lon="5.83437">
        <ele>225.21</ele>
        <time>2019-04-06T12:17:40.000Z</time>
      </trkpt>
      <trkpt lat="45.20656" lon="5.83453">
        <ele>225.79</ele>
        <time>2019-04-06T12:17:45.000Z</time>
      </trkpt>
      <trkpt lat="45.20636" lon="5.83471">
        <ele>227.26</ele>
        <time>2019-04-06T12:17:50.000Z</time>
      </trkpt>
      <trkpt lat="45.20613" lon="5.83487">
        <ele>226.58</ele>
        <time>2019-04-06T12:17:55.000Z</time>
      </trkpt>
      <trkpt lat="45.20593" lon="5.83506">
        <ele>228.06</ele>
        <time>2019-04-06T12:18:00.000Z</time>
      </trkpt>
      <trkpt lat="45.20569" lon="5.8352">
        <ele>226.85</ele>
        <time>2019-04-06T12:18:05.000Z</time>
      </trkpt>
      <trkpt lat="45.20546" lon="5.83538">
        <ele>226.38</ele>
        <time>2019-04-06T12:18:10.000Z</time>
      </trkpt>
      <trkpt lat="45.20525" lon="5.83557">
        <ele>227.34</ele>
        <time>2019-04-06T12:18:15.000Z</time>
      </trkpt>
      <trkpt lat="45.20505" lon="5.83575">
        <ele>229.19</ele>
        <time>2019-04-06T12:18:20.000Z</time>
      </trkpt>
      <trkpt lat="45.20484" lon="5.83592">
        <ele>230.63</ele>
        <time>2019-04-06T12:18:25.000Z</time>
      </trkpt>
      <trkpt lat="45.20462" lon="5.83609">
        <ele>228.47</ele>
        <time>2019-04-06T12:18:30.000Z</time>
      </trkpt>
      <trkpt lat="45.20442" lon="5.83628">
        <ele>226.28</ele>
        <time>2019-04-06T12:18:35.000Z</time>
      </trkpt>
      <trkpt lat="45.2042" lon="5.83647">
        <ele>227.45</ele>
        <time>2019-04-06T12:18:40.000Z</time>
      </trkpt>
      <trkpt lat="45.20398" lon="5.83667">
        <ele>225.41</ele>
        <time>2019-04-06T12:18:45.000Z</time>
      </trkpt>
      <trkpt lat="45.20378" lon="5.83686">
        <ele>225.08</ele>
        <time>2019-04-06T12:18:50.000Z</time>
      </trkpt>
      <trkpt lat="45.20357" lon="5.83708">
        <ele>229.08</ele>
        <time>2019-04-06T12:18:55.000Z</time>
      </trkpt>
      <trkpt lat="45.20338" lon="5.83732">
        <ele>233.17</ele>
        <time>2019-04-06T12:19:00.000Z</time>
      </trkpt>
      <trkpt lat="45.20322" lon="5.83758">
        <ele>235.97</ele>
        <time>2019-04-06T12:19:05.000Z</time>
      </trkpt>
      <trkpt lat="45.20306" lon="5.83781">
        <ele>237.43</ele>
        <time>2019-04-06T12:19:10.000Z</time>
      </trkpt>
      <trkpt lat="45.20288" lon="5.83796">
        <ele>240.32</ele>
        <time>2019-04-06T12:19:15.000Z</time>
      </trkpt>
      <trkpt lat="45.20262" lon="5.83804">
        <ele>239.7</ele>
        <time>2019-04-06T12:19:20.000Z</time>
      </trkpt>
      <trkpt lat="45.2024" lon="5.83816">
        <ele>240.85</ele>
        <time>2019-04-06T12:19:25.000Z</time>
      </trkpt>
      <trkpt lat="45.2022" lon="5.83825">
        <ele>241.72</ele>
        <time>2019-04-06T12:19:30.000Z</time>
      </trkpt>
      <trkpt lat="45.202" lon="5.83831">
        <ele>239.84</ele>
        <time>2019-04-06T12:19:35.000Z</time>
      </trkpt>
      <trkpt lat="45.20177" lon="5.83838">
        <ele>237.91</ele>
        <time>2019-04-06T12:19:40.000Z</time>
      </trkpt>
      <trkpt lat="45.20158" lon="5.83848">
        <ele>241.47</ele>
        <time>2019-04-06T12:19:45.000Z</time>
      </trkpt>
      <trkpt lat="45.20146" lon="5.83871">
        <ele>242.5</ele>
        <time>2019-04-06T12:19:50.000Z</time>
      </trkpt>
      <trkpt lat="45.20147" lon="5.839">
        <ele>241.84</ele>
        <time>2019-04-06T12:19:55.000Z</time>
      </trkpt>
      <trkpt lat="45.20152" lon="5.83931">
        <ele>241.44</ele>
        <time>2019-04-06T12:20:00.000Z</time>
      </trkpt>
      <trkpt lat="45.20153" lon="5.83961">
        <ele>242.06</ele>
        <time>2019-04-06T12:20:05.000Z</time>
      </trkpt>
      <trkpt lat="45.20153" lon="5.83986">
        <ele>244.04</ele>
        <time>2019-04-06T12:20:10.000Z</time>
      </trkpt>
      <trkpt lat="45.20148" lon="5.84008">
        <ele>248.74</ele>
        <time>2019-04-06T12:20:15.000Z</time>
      </trkpt>
      <trkpt lat="45.20141" lon="5.8403">
        <ele>249.25</ele>
        <time>2019-04-06T12:20:20.000Z</time>
      </trkpt>
      <trkpt lat="45.20127" lon="5.84051">
        <ele>251.39</ele>
        <time>2019-04-06T12:20:25.000Z</time>
      </trkpt>
      <trkpt lat="45.20104" lon="5.84076">
        <ele>249.96</ele>
        <time>2019-04-06T12:20:30.000Z</time>
      </trkpt>
      <trkpt lat="45.20094" lon="5.84098">
        <ele>247.71</ele>
        <time>2019-04-06T12:20:35.000Z</time>
      </trkpt>
      <trkpt lat="45.201" lon="5.84108">
        <ele>255.02</ele>
        <time>2019-04-06T12:20:54.000Z</time>
      </trkpt>
      <trkpt lat="45.20094" lon="5.8412">
        <ele>248.52</ele>
        <time>2019-04-06T12:22:54.000Z</time>
      </trkpt>
      <trkpt lat="45.2008" lon="5.84142">
        <ele>244.96</ele>
        <time>2019-04-06T12:22:59.000Z</time>
      </trkpt>
      <trkpt lat="45.2007" lon="5.84162">
        <ele>242.73</ele>
        <time>2019-04-06T12:23:04.000Z</time>
      </trkpt>
      <trkpt lat="45.20054" lon="5.84182">
        <ele>240.62</ele>
        <time>2019-04-06T12:23:09.000Z</time>
      </trkpt>
      <trkpt lat="45.20039" lon="5.84197">
        <ele>239.52</ele>
        <time>2019-04-06T12:23:14.000Z</time>
      </trkpt>
      <trkpt lat="45.20022" lon="5.84214">
        <ele>239.69</ele>
        <time>2019-04-06T12:23:19.000Z</time>
      </trkpt>
      <trkpt lat="45.20004" lon="5.84235">
        <ele>239.59</ele>
        <time>2019-04-06T12:23:24.000Z</time>
      </trkpt>
      <trkpt lat="45.20009" lon="5.8427">
        <ele>242.79</ele>
        <time>2019-04-06T12:23:29.000Z</time>
      </trkpt>
      <trkpt lat="45.20033" lon="5.84276">
        <ele>253.08</ele>
        <time>2019-04-06T12:23:34.000Z</time>
      </trkpt>
      <trkpt lat="45.2005" lon="5.84272">
        <ele>252.19</ele>
        <time>2019-04-06T12:23:39.000Z</time>
      </trkpt>
      <trkpt lat="45.20069" lon="5.84266">
        <ele>251.53</ele>
        <time>2019-04-06T12:23:44.000Z</time>
      </trkpt>
      <trkpt lat="45.2009" lon="5.84261">
        <ele>252.5</ele>
        <time>2019-04-06T12:23:49.000Z</time>
      </trkpt>
      <trkpt lat="45.20112" lon="5.84248">
        <ele>256.15</ele>
        <time>2019-04-06T12:23:54.000Z</time>
      </trkpt>
      <trkpt lat="45.20124" lon="5.84237">
        <ele>254.14</ele>
        <time>2019-04-06T12:23:59.000Z</time>
      </trkpt>
      <trkpt lat="45.20147" lon="5.84235">
        <ele>258.59</ele>
        <time>2019-04-06T12:24:04.000Z</time>
      </trkpt>
      <trkpt lat="45.20164" lon="5.84247">
        <ele>265.31</ele>
        <time>2019-04-06T12:24:09.000Z</time>
      </trkpt>
      <trkpt lat="45.20175" lon="5.84271">
        <ele>269.9</ele>
        <time>2019-04-06T12:24:14.000Z</time>
      </trkpt>
      <trkpt lat="45.20179" lon="5.84299">
        <ele>272.39</ele>
        <time>2019-04-06T12:24:19.000Z</time>
      </trkpt>
      <trkpt lat="45.20185" lon="5.84324">
        <ele>274.66</ele>
        <time>2019-04-06T12:24:24.000Z</time>
      </trkpt>
      <trkpt lat="45.20196" lon="5.84348">
        <ele>277.54</ele>
        <time>2019-04-06T12:24:29.000Z</time>
      </trkpt>
      <trkpt lat="45.20208" lon="5.84371">
        <ele>279.94</ele>
        <time>2019-04-06T12:24:34.000Z</time>
      </trkpt>
      <trkpt lat="45.2022" lon="5.84396">
        <ele>284.09</ele>
        <time>2019-04-06T12:24:39.000Z</time>
      </trkpt>
      <trkpt lat="45.20225" lon="5.84422">
        <ele>283.58</ele>
        <time>2019-04-06T12:24:44.000Z</time>
      </trkpt>
      <trkpt lat="45.20228" lon="5.84449">
        <ele>285.08</ele>
        <time>2019-04-06T12:24:49.000Z</time>
      </trkpt>
      <trkpt lat="45.2023" lon="5.84478">
        <ele>286.39</ele>
        <time>2019-04-06T12:24:54.000Z</time>
      </trkpt>
      <trkpt lat="45.20238" lon="5.84508">
        <ele>288.46</ele>
        <time>2019-04-06T12:24:59.000Z</time>
      </trkpt>
      <trkpt lat="45.20246" lon="5.84535">
        <ele>290.61</ele>
        <time>2019-04-06T12:25:04.000Z</time>
      </trkpt>
      <trkpt lat="45.20255" lon="5.8456">
        <ele>293.46</ele>
        <time>2019-04-06T12:25:09.000Z</time>
      </trkpt>
      <trkpt lat="45.20265" lon="5.84586">
        <ele>298.1</ele>
        <time>2019-04-06T12:25:14.000Z</time>
      </trkpt>
      <trkpt lat="45.20272" lon="5.84611">
        <ele>295.36</ele>
        <time>2019-04-06T12:25:19.000Z</time>
      </trkpt>
      <trkpt lat="45.20276" lon="5.84636">
        <ele>295.11</ele>
        <time>2019-04-06T12:25:24.000Z</time>
      </trkpt>
      <trkpt lat="45.20288" lon="5.84657">
        <ele>296.36</ele>
        <time>2019-04-06T12:25:29.000Z</time>
      </trkpt>
      <trkpt lat="45.20297" lon="5.84682">
        <ele>295.91</ele>
        <time>2019-04-06T12:25:34.000Z</time>
      </trkpt>
      <trkpt lat="45.20303" lon="5.84711">
        <ele>300.25</ele>
        <time>2019-04-06T12:25:39.000Z</time>
      </trkpt>
      <trkpt lat="45.20311" lon="5.84739">
        <ele>305</ele>
        <time>2019-04-06T12:25:44.000Z</time>
      </trkpt>
      <trkpt lat="45.20315" lon="5.84769">
        <ele>307.28</ele>
        <time>2019-04-06T12:25:49.000Z</time>
      </trkpt>
      <trkpt lat="45.2032" lon="5.84799">
        <ele>308.39</ele>
        <time>2019-04-06T12:25:54.000Z</time>
      </trkpt>
      <trkpt lat="45.20324" lon="5.84827">
        <ele>310.69</ele>
        <time>2019-04-06T12:25:59.000Z</time>
      </trkpt>
      <trkpt lat="45.20327" lon="5.84856">
        <ele>313.28</ele>
        <time>2019-04-06T12:26:04.000Z</time>
      </trkpt>
      <trkpt lat="45.20332" lon="5.84882">
        <ele>312.5</ele>
        <time>2019-04-06T12:26:09.000Z</time>
      </trkpt>
      <trkpt lat="45.2034" lon="5.84907">
        <ele>313.92</ele>
        <time>2019-04-06T12:26:14.000Z</time>
      </trkpt>
      <trkpt lat="45.20353" lon="5.84931">
        <ele>317.07</ele>
        <time>2019-04-06T12:26:19.000Z</time>
      </trkpt>
      <trkpt lat="45.20365" lon="5.84955">
        <ele>319.84</ele>
        <time>2019-04-06T12:26:24.000Z</time>
      </trkpt>
      <trkpt lat="45.20373" lon="5.84983">
        <ele>322.1</ele>
        <time>2019-04-06T12:26:29.000Z</time>
      </trkpt>
      <trkpt lat="45.20381" lon="5.85009">
        <ele>323.6</ele>
        <time>2019-04-06T12:26:34.000Z</time>
      </trkpt>
      <trkpt lat="45.20394" lon="5.85035">
        <ele>328.08</ele>
        <time>2019-04-06T12:26:39.000Z</time>
      </trkpt>
      <trkpt lat="45.20406" lon="5.85064">
        <ele>331.35</ele>
        <time>2019-04-06T12:26:44.000Z</time>
      </trkpt>
      <trkpt lat="45.20413" lon="5.85092">
        <ele>331.77</ele>
        <time>2019-04-06T12:26:49.000Z</time>
      </trkpt>
      <trkpt lat="45.20402" lon="5.85107">
        <ele>332.12</ele>
        <time>2019-04-06T12:26:54.000Z</time>
      </trkpt>
      <trkpt lat="45.20389" lon="5.85093">
        <ele>334.02</ele>
        <time>2019-04-06T12:26:59.000Z</time>
      </trkpt>
      <trkpt lat="45.20384" lon="5.85066">
        <ele>334.95</ele>
        <time>2019-04-06T12:27:04.000Z</time>
      </trkpt>
      <trkpt lat="45.20374" lon="5.85041">
        <ele>336.51</ele>
        <time>2019-04-06T12:27:09.000Z</time>
      </trkpt>
      <trkpt lat="45.20362" lon="5.85019">
        <ele>335.9</ele>
        <time>2019-04-06T12:27:14.000Z</time>
      </trkpt>
      <trkpt lat="45.20348" lon="5.84997">
        <ele>338.58</ele>
        <time>2019-04-06T12:27:19.000Z</time>
      </trkpt>
      <trkpt lat="45.20335" lon="5.84973">
        <ele>339.08</ele>
        <time>2019-04-06T12:27:24.000Z</time>
      </trkpt>
      <trkpt lat="45.20326" lon="5.84952">
        <ele>339.07</ele>
        <time>2019-04-06T12:27:29.000Z</time>
      </trkpt>
      <trkpt lat="45.20316" lon="5.84933">
        <ele>341.26</ele>
        <time>2019-04-06T12:27:34.000Z</time>
      </trkpt>
      <trkpt lat="45.20297" lon="5.84912">
        <ele>341.56</ele>
        <time>2019-04-06T12:27:39.000Z</time>
      </trkpt>
      <trkpt lat="45.20277" lon="5.84889">
        <ele>342.29</ele>
        <time>2019-04-06T12:27:44.000Z</time>
      </trkpt>
      <trkpt lat="45.20271" lon="5.84862">
        <ele>345.05</ele>
        <time>2019-04-06T12:27:49.000Z</time>
      </trkpt>
      <trkpt lat="45.20265" lon="5.84833">
        <ele>348.51</ele>
        <time>2019-04-06T12:27:54.000Z</time>
      </trkpt>
      <trkpt lat="45.20258" lon="5.84806">
        <ele>350.49</ele>
        <time>2019-04-06T12:27:59.000Z</time>
      </trkpt>
      <trkpt lat="45.20253" lon="5.84778">
        <ele>355.56</ele>
        <time>2019-04-06T12:28:04.000Z</time>
      </trkpt>
      <trkpt lat="45.20244" lon="5.84753">
        <ele>357.23</ele>
        <time>2019-04-06T12:28:09.000Z</time>
      </trkpt>
      <trkpt lat="45.20237" lon="5.84733">
        <ele>360.52</ele>
        <time>2019-04-06T12:28:14.000Z</time>
      </trkpt>
      <trkpt lat="45.20229" lon="5.84714">
        <ele>362.7</ele>
        <time>2019-04-06T12:28:19.000Z</time>
      </trkpt>
      <trkpt lat="45.20212" lon="5.84697">
        <ele>363.18</ele>
        <time>2019-04-06T12:28:24.000Z</time>
      </trkpt>
      <trkpt lat="45.202" lon="5.84675">
        <ele>365.59</ele>
        <time>2019-04-06T12:28:29.000Z</time>
      </trkpt>
      <trkpt lat="45.20174" lon="5.84652">
        <ele>366.93</ele>
        <time>2019-04-06T12:28:34.000Z</time>
      </trkpt>
      <trkpt lat="45.2016" lon="5.84624">
        <ele>366.04</ele>
        <time>2019-04-06T12:28:39.000Z</time>
      </trkpt>
      <trkpt lat="45.20157" lon="5.84596">
        <ele>368.6</ele>
        <time>2019-04-06T12:28:44.000Z</time>
      </trkpt>
      <trkpt lat="45.20147" lon="5.84573">
        <ele>373.27</ele>
        <time>2019-04-06T12:28:49.000Z</time>
      </trkpt>
      <trkpt lat="45.20135" lon="5.84556">
        <ele>372.78</ele>
        <time>2019-04-06T12:28:54.000Z</time>
      </trkpt>
      <trkpt lat="45.20123" lon="5.84533">
        <ele>378.21</ele>
        <time>2019-04-06T12:28:59.000Z</time>
      </trkpt>
      <trkpt lat="45.20113" lon="5.84511">
        <ele>378.58</ele>
        <time>2019-04-06T12:29:04.000Z</time>
      </trkpt>
      <trkpt lat="45.20103" lon="5.84488">
        <ele>377.87</ele>
        <time>2019-04-06T12:29:09.000Z</time>
      </trkpt>
      <trkpt lat="45.2009" lon="5.8447">
        <ele>382.27</ele>
        <time>2019-04-06T12:29:14.000Z</time>
      </trkpt>
      <trkpt lat="45.20073" lon="5.84464">
        <ele>383.77</ele>
        <time>2019-04-06T12:29:19.000Z</time>
      </trkpt>
      <trkpt lat="45.20052" lon="5.84472">
        <ele>385.15</ele>
        <time>2019-04-06T12:29:24.000Z</time>
      </trkpt>
      <trkpt lat="45.20035" lon="5.84485">
        <ele>387.39</ele>
        <time>2019-04-06T12:29:29.000Z</time>
      </trkpt>
      <trkpt lat="45.20016" lon="5.84489">
        <ele>388.86</ele>
        <time>2019-04-06T12:29:34.000Z</time>
      </trkpt>
      <trkpt lat="45.19995" lon="5.84494">
        <ele>392.52</ele>
        <time>2019-04-06T12:29:39.000Z</time>
      </trkpt>
      <trkpt lat="45.19975" lon="5.84496">
        <ele>394.46</ele>
        <time>2019-04-06T12:29:44.000Z</time>
      </trkpt>
      <trkpt lat="45.19959" lon="5.8451">
        <ele>400.6</ele>
        <time>2019-04-06T12:29:49.000Z</time>
      </trkpt>
      <trkpt lat="45.19947" lon="5.84532">
        <ele>401.65</ele>
        <time>2019-04-06T12:29:54.000Z</time>
      </trkpt>
      <trkpt lat="45.19937" lon="5.84556">
        <ele>404.02</ele>
        <time>2019-04-06T12:29:59.000Z</time>
      </trkpt>
      <trkpt lat="45.1993" lon="5.84583">
        <ele>405.36</ele>
        <time>2019-04-06T12:30:04.000Z</time>
      </trkpt>
      <trkpt lat="45.1992" lon="5.84607">
        <ele>407.41</ele>
        <time>2019-04-06T12:30:09.000Z</time>
      </trkpt>
      <trkpt lat="45.19904" lon="5.84622">
        <ele>408.5</ele>
        <time>2019-04-06T12:30:14.000Z</time>
      </trkpt>
      <trkpt lat="45.1989" lon="5.8464">
        <ele>408.36</ele>
        <time>2019-04-06T12:30:19.000Z</time>
      </trkpt>
      <trkpt lat="45.19879" lon="5.84663">
        <ele>410.84</ele>
        <time>2019-04-06T12:30:24.000Z</time>
      </trkpt>
      <trkpt lat="45.1987" lon="5.84689">
        <ele>412.81</ele>
        <time>2019-04-06T12:30:29.000Z</time>
      </trkpt>
      <trkpt lat="45.1986" lon="5.84713">
        <ele>416.53</ele>
        <time>2019-04-06T12:30:34.000Z</time>
      </trkpt>
      <trkpt lat="45.19855" lon="5.84738">
        <ele>418.16</ele>
        <time>2019-04-06T12:30:39.000Z</time>
      </trkpt>
      <trkpt lat="45.19866" lon="5.84764">
        <ele>416.59</ele>
        <time>2019-04-06T12:30:44.000Z</time>
      </trkpt>
      <trkpt lat="45.1987" lon="5.84789">
        <ele>414.07</ele>
        <time>2019-04-06T12:30:49.000Z</time>
      </trkpt>
      <trkpt lat="45.19849" lon="5.84798">
        <ele>414.16</ele>
        <time>2019-04-06T12:30:54.000Z</time>
      </trkpt>
      <trkpt lat="45.19826" lon="5.84795">
        <ele>412.64</ele>
        <time>2019-04-06T12:30:59.000Z</time>
      </trkpt>
      <trkpt lat="45.19808" lon="5.84808">
        <ele>416.7</ele>
        <time>2019-04-06T12:31:04.000Z</time>
      </trkpt>
      <trkpt lat="45.19785" lon="5.84825">
        <ele>420.14</ele>
        <time>2019-04-06T12:31:09.000Z</time>
      </trkpt>
      <trkpt lat="45.19767" lon="5.84836">
        <ele>417.93</ele>
        <time>2019-04-06T12:31:14.000Z</time>
      </trkpt>
      <trkpt lat="45.19746" lon="5.84847">
        <ele>415.4</ele>
        <time>2019-04-06T12:31:19.000Z</time>
      </trkpt>
      <trkpt lat="45.19732" lon="5.84856">
        <ele>418.82</ele>
        <time>2019-04-06T12:31:24.000Z</time>
      </trkpt>
      <trkpt lat="45.19713" lon="5.84876">
        <ele>421.36</ele>
        <time>2019-04-06T12:31:29.000Z</time>
      </trkpt>
      <trkpt lat="45.19698" lon="5.84889">
        <ele>422.33</ele>
        <time>2019-04-06T12:31:34.000Z</time>
      </trkpt>
      <trkpt lat="45.19677" lon="5.84899">
        <ele>425.04</ele>
        <time>2019-04-06T12:31:39.000Z</time>
      </trkpt>
      <trkpt lat="45.19663" lon="5.84923">
        <ele>425.79</ele>
        <time>2019-04-06T12:31:44.000Z</time>
      </trkpt>
      <trkpt lat="45.19648" lon="5.84941">
        <ele>422.19</ele>
        <time>2019-04-06T12:31:49.000Z</time>
      </trkpt>
      <trkpt lat="45.19633" lon="5.84962">
        <ele>426.16</ele>
        <time>2019-04-06T12:31:54.000Z</time>
      </trkpt>
      <trkpt lat="45.19619" lon="5.84983">
        <ele>426.58</ele>
        <time>2019-04-06T12:31:59.000Z</time>
      </trkpt>
      <trkpt lat="45.19596" lon="5.84995">
        <ele>426.64</ele>
        <time>2019-04-06T12:32:04.000Z</time>
      </trkpt>
      <trkpt lat="45.19579" lon="5.85007">
        <ele>424.67</ele>
        <time>2019-04-06T12:32:09.000Z</time>
      </trkpt>
      <trkpt lat="45.19562" lon="5.85025">
        <ele>425.69</ele>
        <time>2019-04-06T12:32:14.000Z</time>
      </trkpt>
      <trkpt lat="45.19543" lon="5.85029">
        <ele>425.61</ele>
        <time>2019-04-06T12:32:19.000Z</time>
      </trkpt>
      <trkpt lat="45.19525" lon="5.8504">
        <ele>423.66</ele>
        <time>2019-04-06T12:32:24.000Z</time>
      </trkpt>
      <trkpt lat="45.19509" lon="5.85056">
        <ele>422.51</ele>
        <time>2019-04-06T12:32:29.000Z</time>
      </trkpt>
      <trkpt lat="45.19495" lon="5.85077">
        <ele>423.18</ele>
        <time>2019-04-06T12:32:34.000Z</time>
      </trkpt>
      <trkpt lat="45.19486" lon="5.851">
        <ele>423.68</ele>
        <time>2019-04-06T12:32:39.000Z</time>
      </trkpt>
      <trkpt lat="45.19483" lon="5.8513">
        <ele>426.28</ele>
        <time>2019-04-06T12:32:44.000Z</time>
      </trkpt>
      <trkpt lat="45.19484" lon="5.85158">
        <ele>431.12</ele>
        <time>2019-04-06T12:32:49.000Z</time>
      </trkpt>
      <trkpt lat="45.19483" lon="5.85188">
        <ele>427.65</ele>
        <time>2019-04-06T12:32:54.000Z</time>
      </trkpt>
      <trkpt lat="45.19461" lon="5.85202">
        <ele>433.31</ele>
        <time>2019-04-06T12:32:59.000Z</time>
      </trkpt>
      <trkpt lat="45.19443" lon="5.85192">
        <ele>431.22</ele>
        <time>2019-04-06T12:33:04.000Z</time>
      </trkpt>
      <trkpt lat="45.19423" lon="5.85197">
        <ele>436.08</ele>
        <time>2019-04-06T12:33:09.000Z</time>
      </trkpt>
      <trkpt lat="45.19409" lon="5.85216">
        <ele>440.01</ele>
        <time>2019-04-06T12:33:14.000Z</time>
      </trkpt>
      <trkpt lat="45.194" lon="5.85235">
        <ele>445.05</ele>
        <time>2019-04-06T12:33:19.000Z</time>
      </trkpt>
      <trkpt lat="45.19394" lon="5.85257">
        <ele>448.43</ele>
        <time>2019-04-06T12:33:24.000Z</time>
      </trkpt>
      <trkpt lat="45.19395" lon="5.85286">
        <ele>450.06</ele>
        <time>2019-04-06T12:33:29.000Z</time>
      </trkpt>
      <trkpt lat="45.19398" lon="5.85316">
        <ele>452.22</ele>
        <time>2019-04-06T12:33:34.000Z</time>
      </trkpt>
      <trkpt lat="45.194" lon="5.85345">
        <ele>452.83</ele>
        <time>2019-04-06T12:33:39.000Z</time>
      </trkpt>
      <trkpt lat="45.194" lon="5.85373">
        <ele>456.26</ele>
        <time>2019-04-06T12:33:44.000Z</time>
      </trkpt>
      <trkpt lat="45.19394" lon="5.85389">
        <ele>456.91</ele>
        <time>2019-04-06T12:33:49.000Z</time>
      </trkpt>
      <trkpt lat="45.19385" lon="5.85393">
        <ele>460.8</ele>
        <time>2019-04-06T12:35:30.000Z</time>
      </trkpt>
      <trkpt lat="45.19375" lon="5.85385">
        <ele>464.84</ele>
        <time>2019-04-06T12:35:40.000Z</time>
      </trkpt>
      <trkpt lat="45.19359" lon="5.85355">
        <ele>464.47</ele>
        <time>2019-04-06T12:35:45.000Z</time>
      </trkpt>
      <trkpt lat="45.19341" lon="5.85336">
        <ele>460.04</ele>
        <time>2019-04-06T12:35:50.000Z</time>
      </trkpt>
      <trkpt lat="45.19313" lon="5.85344">
        <ele>460.06</ele>
        <time>2019-04-06T12:35:55.000Z</time>
      </trkpt>
      <trkpt lat="45.19293" lon="5.85361">
        <ele>461.61</ele>
        <time>2019-04-06T12:36:00.000Z</time>
      </trkpt>
      <trkpt lat="45.19274" lon="5.85374">
        <ele>460.91</ele>
        <time>2019-04-06T12:36:05.000Z</time>
      </trkpt>
      <trkpt lat="45.19248" lon="5.85385">
        <ele>463.67</ele>
        <time>2019-04-06T12:36:10.000Z</time>
      </trkpt>
      <trkpt lat="45.19222" lon="5.8538">
        <ele>464.25</ele>
        <time>2019-04-06T12:36:15.000Z</time>
      </trkpt>
      <trkpt lat="45.19198" lon="5.85388">
        <ele>470.76</ele>
        <time>2019-04-06T12:36:20.000Z</time>
      </trkpt>
      <trkpt lat="45.19176" lon="5.85406">
        <ele>478.34</ele>
        <time>2019-04-06T12:36:25.000Z</time>
      </trkpt>
      <trkpt lat="45.19156" lon="5.85425">
        <ele>482.3</ele>
        <time>2019-04-06T12:36:30.000Z</time>
      </trkpt>
      <trkpt lat="45.19136" lon="5.85447">
        <ele>487.54</ele>
        <time>2019-04-06T12:36:35.000Z</time>
      </trkpt>
      <trkpt lat="45.19118" lon="5.8547">
        <ele>489.92</ele>
        <time>2019-04-06T12:36:40.000Z</time>
      </trkpt>
      <trkpt lat="45.19097" lon="5.85493">
        <ele>492.69</ele>
        <time>2019-04-06T12:36:45.000Z</time>
      </trkpt>
      <trkpt lat="45.19075" lon="5.85508">
        <ele>494.12</ele>
        <time>2019-04-06T12:36:50.000Z</time>
      </trkpt>
      <trkpt lat="45.19052" lon="5.85521">
        <ele>495.83</ele>
        <time>2019-04-06T12:36:55.000Z</time>
      </trkpt>
      <trkpt lat="45.19033" lon="5.85528">
        <ele>495.04</ele>
        <time>2019-04-06T12:37:00.000Z</time>
      </trkpt>
      <trkpt lat="45.19014" lon="5.85544">
        <ele>497.29</ele>
        <time>2019-04-06T12:37:05.000Z</time>
      </trkpt>
      <trkpt lat="45.18997" lon="5.85566">
        <ele>499.12</ele>
        <time>2019-04-06T12:37:10.000Z</time>
      </trkpt>
      <trkpt lat="45.18983" lon="5.85588">
        <ele>500.77</ele>
        <time>2019-04-06T12:37:15.000Z</time>
      </trkpt>
      <trkpt lat="45.18975" lon="5.85616">
        <ele>503.45</ele>
        <time>2019-04-06T12:37:20.000Z</time>
      </trkpt>
      <trkpt lat="45.18961" lon="5.85642">
        <ele>507.21</ele>
        <time>2019-04-06T12:37:25.000Z</time>
      </trkpt>
      <trkpt lat="45.18952" lon="5.85667">
        <ele>507.55</ele>
        <time>2019-04-06T12:37:30.000Z</time>
      </trkpt>
      <trkpt lat="45.18952" lon="5.85696">
        <ele>514.77</ele>
        <time>2019-04-06T12:37:35.000Z</time>
      </trkpt>
      <trkpt lat="45.18957" lon="5.85724">
        <ele>523.85</ele>
        <time>2019-04-06T12:37:40.000Z</time>
      </trkpt>
      <trkpt lat="45.1896" lon="5.85752">
        <ele>525.04</ele>
        <time>2019-04-06T12:37:45.000Z</time>
      </trkpt>
      <trkpt lat="45.18965" lon="5.85786">
        <ele>526.77</ele>
        <time>2019-04-06T12:37:50.000Z</time>
      </trkpt>
      <trkpt lat="45.18963" lon="5.85817">
        <ele>527.37</ele>
        <time>2019-04-06T12:37:55.000Z</time>
      </trkpt>
      <trkpt lat="45.18966" lon="5.85844">
        <ele>527.73</ele>
        <time>2019-04-06T12:38:00.000Z</time>
      </trkpt>
      <trkpt lat="45.18968" lon="5.85875">
        <ele>534.66</ele>
        <time>2019-04-06T12:38:05.000Z</time>
      </trkpt>
      <trkpt lat="45.18969" lon="5.85909">
        <ele>536.14</ele>
        <time>2019-04-06T12:38:10.000Z</time>
      </trkpt>
      <trkpt lat="45.1897" lon="5.85935">
        <ele>539.93</ele>
        <time>2019-04-06T12:38:15.000Z</time>
      </trkpt>
      <trkpt lat="45.18973" lon="5.85969">
        <ele>540.69</ele>
        <time>2019-04-06T12:38:20.000Z</time>
      </trkpt>
      <trkpt lat="45.18969" lon="5.86004">
        <ele>543.99</ele>
        <time>2019-04-06T12:38:25.000Z</time>
      </trkpt>
      <trkpt lat="45.18963" lon="5.86035">
        <ele>546.61</ele>
        <time>2019-04-06T12:38:30.000Z</time>
      </trkpt>
      <trkpt lat="45.18953" lon="5.86068">
        <ele>549.48</ele>
        <time>2019-04-06T12:38:35.000Z</time>
      </trkpt>
      <trkpt lat="45.18945" lon="5.86102">
        <ele>551.88</ele>
        <time>2019-04-06T12:38:40.000Z</time>
      </trkpt>
      <trkpt lat="45.18942" lon="5.86137">
        <ele>555.2</ele>
        <time>2019-04-06T12:38:45.000Z</time>
      </trkpt>
      <trkpt lat="45.18941" lon="5.86171">
        <ele>558.97</ele>
        <time>2019-04-06T12:38:50.000Z</time>
      </trkpt>
      <trkpt lat="45.1894" lon="5.86197">
        <ele>559.58</ele>
        <time>2019-04-06T12:38:55.000Z</time>
      </trkpt>
      <trkpt lat="45.18933" lon="5.86226">
        <ele>562.18</ele>
        <time>2019-04-06T12:39:00.000Z</time>
      </trkpt>
      <trkpt lat="45.18924" lon="5.86254">
        <ele>563.64</ele>
        <time>2019-04-06T12:39:05.000Z</time>
      </trkpt>
      <trkpt lat="45.18917" lon="5.86281">
        <ele>563.03</ele>
        <time>2019-04-06T12:39:10.000Z</time>
      </trkpt>
      <trkpt lat="45.1891" lon="5.86311">
        <ele>563.46</ele>
        <time>2019-04-06T12:39:15.000Z</time>
      </trkpt>
      <trkpt lat="45.18901" lon="5.86344">
        <ele>566.05</ele>
        <time>2019-04-06T12:39:20.000Z</time>
      </trkpt>
      <trkpt lat="45.18893" lon="5.86372">
        <ele>569.09</ele>
        <time>2019-04-06T12:39:25.000Z</time>
      </trkpt>
      <trkpt lat="45.18879" lon="5.86392">
        <ele>572.05</ele>
        <time>2019-04-06T12:39:30.000Z</time>
      </trkpt>
      <trkpt lat="45.18865" lon="5.86414">
        <ele>574.35</ele>
        <time>2019-04-06T12:39:35.000Z</time>
      </trkpt>
      <trkpt lat="45.18852" lon="5.86434">
        <ele>575.77</ele>
        <time>2019-04-06T12:39:40.000Z</time>
      </trkpt>
      <trkpt lat="45.18833" lon="5.8645">
        <ele>577.15</ele>
        <time>2019-04-06T12:39:45.000Z</time>
      </trkpt>
      <trkpt lat="45.18812" lon="5.86457">
        <ele>578.65</ele>
        <time>2019-04-06T12:39:50.000Z</time>
      </trkpt>
      <trkpt lat="45.18794" lon="5.86457">
        <ele>581.3</ele>
        <time>2019-04-06T12:39:55.000Z</time>
      </trkpt>
      <trkpt lat="45.1878" lon="5.86472">
        <ele>583.62</ele>
        <time>2019-04-06T12:40:00.000Z</time>
      </trkpt>
      <trkpt lat="45.18778" lon="5.86502">
        <ele>583.86</ele>
        <time>2019-04-06T12:40:05.000Z</time>
      </trkpt>
      <trkpt lat="45.18786" lon="5.8653">
        <ele>585.48</ele>
        <time>2019-04-06T12:40:10.000Z</time>
      </trkpt>
      <trkpt lat="45.18794" lon="5.86558">
        <ele>585.59</ele>
        <time>2019-04-06T12:40:15.000Z</time>
      </trkpt>
      <trkpt lat="45.18793" lon="5.86572">
        <ele>595.57</ele>
        <time>2019-04-06T12:41:28.000Z</time>
      </trkpt>
      <trkpt lat="45.18794" lon="5.86596">
        <ele>595.15</ele>
        <time>2019-04-06T12:41:33.000Z</time>
      </trkpt>
      <trkpt lat="45.18791" lon="5.86625">
        <ele>593.64</ele>
        <time>2019-04-06T12:41:38.000Z</time>
      </trkpt>
      <trkpt lat="45.18783" lon="5.86651">
        <ele>597.75</ele>
        <time>2019-04-06T12:41:43.000Z</time>
      </trkpt>
      <trkpt lat="45.18771" lon="5.86671">
        <ele>599.14</ele>
        <time>2019-04-06T12:41:48.000Z</time>
      </trkpt>
      <trkpt lat="45.18758" lon="5.8669">
        <ele>601.41</ele>
        <time>2019-04-06T12:41:53.000Z</time>
      </trkpt>
      <trkpt lat="45.18744" lon="5.86708">
        <ele>601.14</ele>
        <time>2019-04-06T12:41:58.000Z</time>
      </trkpt>
      <trkpt lat="45.18736" lon="5.86725">
        <ele>604.29</ele>
        <time>2019-04-06T12:42:03.000Z</time>
      </trkpt>
      <trkpt lat="45.18727" lon="5.8673">
        <ele>606.69</ele>
        <time>2019-04-06T12:42:13.000Z</time>
      </trkpt>
      <trkpt lat="45.18717" lon="5.86751">
        <ele>605.77</ele>
        <time>2019-04-06T12:42:18.000Z</time>
      </trkpt>
      <trkpt lat="45.18705" lon="5.86775">
        <ele>607.16</ele>
        <time>2019-04-06T12:42:23.000Z</time>
      </trkpt>
      <trkpt lat="45.18694" lon="5.86805">
        <ele>607.76</ele>
        <time>2019-04-06T12:42:28.000Z</time>
      </trkpt>
      <trkpt lat="45.18679" lon="5.86836">
        <ele>611.3</ele>
        <time>2019-04-06T12:42:33.000Z</time>
      </trkpt>
      <trkpt lat="45.18672" lon="5.86861">
        <ele>612.8</ele>
        <time>2019-04-06T12:42:38.000Z</time>
      </trkpt>
      <trkpt lat="45.18666" lon="5.86894">
        <ele>616.26</ele>
        <time>2019-04-06T12:42:43.000Z</time>
      </trkpt>
      <trkpt lat="45.18652" lon="5.8692">
        <ele>619.8</ele>
        <time>2019-04-06T12:42:48.000Z</time>
      </trkpt>
      <trkpt lat="45.18631" lon="5.86921">
        <ele>621.89</ele>
        <time>2019-04-06T12:42:53.000Z</time>
      </trkpt>
      <trkpt lat="45.18616" lon="5.86905">
        <ele>624.72</ele>
        <time>2019-04-06T12:42:58.000Z</time>
      </trkpt>
      <trkpt lat="45.18603" lon="5.86878">
        <ele>623.89</ele>
        <time>2019-04-06T12:43:03.000Z</time>
      </trkpt>
      <trkpt lat="45.18584" lon="5.86864">
        <ele>624.15</ele>
        <time>2019-04-06T12:43:08.000Z</time>
      </trkpt>
      <trkpt lat="45.18568" lon="5.86876">
        <ele>625.18</ele>
        <time>2019-04-06T12:43:13.000Z</time>
      </trkpt>
      <trkpt lat="45.18564" lon="5.8686">
        <ele>623.31</ele>
        <time>2019-04-06T12:43:18.000Z</time>
      </trkpt>
      <trkpt lat="45.18559" lon="5.86844">
        <ele>622.1</ele>
        <time>2019-04-06T12:43:30.000Z</time>
      </trkpt>
      <trkpt lat="45.18551" lon="5.86826">
        <ele>621.14</ele>
        <time>2019-04-06T12:43:35.000Z</time>
      </trkpt>
      <trkpt lat="45.18543" lon="5.86813">
        <ele>622.21</ele>
        <time>2019-04-06T12:43:40.000Z</time>
      </trkpt>
      <trkpt lat="45.18539" lon="5.868">
        <ele>625.73</ele>
        <time>2019-04-06T12:43:47.000Z</time>
      </trkpt>
      <trkpt lat="45.18537" lon="5.86813">
        <ele>629.32</ele>
        <time>2019-04-06T12:44:20.000Z</time>
      </trkpt>
      <trkpt lat="45.18545" lon="5.86822">
        <ele>630.17</ele>
        <time>2019-04-06T12:44:31.000Z</time>
      </trkpt>
      <trkpt lat="45.18554" lon="5.8683">
        <ele>630.64</ele>
        <time>2019-04-06T12:44:36.000Z</time>
      </trkpt>
      <trkpt lat="45.18563" lon="5.86842">
        <ele>631.72</ele>
        <time>2019-04-06T12:44:41.000Z</time>
      </trkpt>
      <trkpt lat="45.18572" lon="5.86866">
        <ele>629.34</ele>
        <time>2019-04-06T12:44:46.000Z</time>
      </trkpt>
      <trkpt lat="45.1858" lon="5.869">
        <ele>631.73</ele>
        <time>2019-04-06T12:44:51.000Z</time>
      </trkpt>
      <trkpt lat="45.18591" lon="5.8693">
        <ele>631.02</ele>
        <time>2019-04-06T12:44:56.000Z</time>
      </trkpt>
      <trkpt lat="45.18593" lon="5.86964">
        <ele>630.86</ele>
        <time>2019-04-06T12:45:01.000Z</time>
      </trkpt>
      <trkpt lat="45.1859" lon="5.86996">
        <ele>634.54</ele>
        <time>2019-04-06T12:45:06.000Z</time>
      </trkpt>
      <trkpt lat="45.1858" lon="5.87026">
        <ele>634.92</ele>
        <time>2019-04-06T12:45:11.000Z</time>
      </trkpt>
      <trkpt lat="45.18568" lon="5.87052">
        <ele>636.57</ele>
        <time>2019-04-06T12:45:16.000Z</time>
      </trkpt>
      <trkpt lat="45.18551" lon="5.87061">
        <ele>640.25</ele>
        <time>2019-04-06T12:45:21.000Z</time>
      </trkpt>
      <trkpt lat="45.18534" lon="5.87061">
        <ele>639.96</ele>
        <time>2019-04-06T12:45:26.000Z</time>
      </trkpt>
      <trkpt lat="45.18516" lon="5.87061">
        <ele>636.87</ele>
        <time>2019-04-06T12:45:31.000Z</time>
      </trkpt>
      <trkpt lat="45.18503" lon="5.87078">
        <ele>640.76</ele>
        <time>2019-04-06T12:45:36.000Z</time>
      </trkpt>
      <trkpt lat="45.18488" lon="5.87097">
        <ele>647.84</ele>
        <time>2019-04-06T12:45:41.000Z</time>
      </trkpt>
      <trkpt lat="45.18468" lon="5.87103">
        <ele>648.71</ele>
        <time>2019-04-06T12:45:46.000Z</time>
      </trkpt>
      <trkpt lat="45.18446" lon="5.87109">
        <ele>650.86</ele>
        <time>2019-04-06T12:45:51.000Z</time>
      </trkpt>
      <trkpt lat="45.18424" lon="5.87116">
        <ele>653.75</ele>
        <time>2019-04-06T12:45:56.000Z</time>
      </trkpt>
      <trkpt lat="45.18407" lon="5.87134">
        <ele>654.02</ele>
        <time>2019-04-06T12:46:01.000Z</time>
      </trkpt>
      <trkpt lat="45.18411" lon="5.87162">
        <ele>655.49</ele>
        <time>2019-04-06T12:46:06.000Z</time>
      </trkpt>
      <trkpt lat="45.18428" lon="5.87178">
        <ele>657.21</ele>
        <time>2019-04-06T12:46:11.000Z</time>
      </trkpt>
      <trkpt lat="45.18436" lon="5.87191">
        <ele>659.13</ele>
        <time>2019-04-06T12:46:16.000Z</time>
      </trkpt>
      <trkpt lat="45.18424" lon="5.87208">
        <ele>660.34</ele>
        <time>2019-04-06T12:46:21.000Z</time>
      </trkpt>
      <trkpt lat="45.1841" lon="5.87224">
        <ele>662.12</ele>
        <time>2019-04-06T12:46:26.000Z</time>
      </trkpt>
      <trkpt lat="45.18402" lon="5.87243">
        <ele>664.38</ele>
        <time>2019-04-06T12:46:31.000Z</time>
      </trkpt>
      <trkpt lat="45.18392" lon="5.87262">
        <ele>666.88</ele>
        <time>2019-04-06T12:46:36.000Z</time>
      </trkpt>
      <trkpt lat="45.18386" lon="5.87285">
        <ele>669.85</ele>
        <time>2019-04-06T12:46:41.000Z</time>
      </trkpt>
      <trkpt lat="45.18387" lon="5.8731">
        <ele>672.84</ele>
        <time>2019-04-06T12:46:46.000Z</time>
      </trkpt>
      <trkpt lat="45.18394" lon="5.87332">
        <ele>675.28</ele>
        <time>2019-04-06T12:46:51.000Z</time>
      </trkpt>
      <trkpt lat="45.18396" lon="5.87354">
        <ele>675.67</ele>
        <time>2019-04-06T12:46:56.000Z</time>
      </trkpt>
      <trkpt lat="45.18395" lon="5.87377">
        <ele>678.22</ele>
        <time>2019-04-06T12:47:01.000Z</time>
      </trkpt>
      <trkpt lat="45.18385" lon="5.87391">
        <ele>679.24</ele>
        <time>2019-04-06T12:47:06.000Z</time>
      </trkpt>
      <trkpt lat="45.18378" lon="5.87387">
        <ele>683.46</ele>
        <time>2019-04-06T12:51:27.000Z</time>
      </trkpt>
    </trkseg>
  </trk>
</gpx>